<?xml version='1.0' encoding='UTF-8'?><gpx version="1.1" creator="JPX - https://github.com/jenetics/jpx" xmlns="http://www.topografix.com/GPX/1/1"><trk><trkseg><trkpt lat="-32.824335130350505" lon="151.49829452190914"><ele>40.0</ele><time>2026-03-21T21:41:29.999Z</time></trkpt><trkpt lat="-32.82440171962248" lon="151.49828308778325"><ele>40.0</ele><time>2026-03-21T21:41:32.999Z</time></trkpt><trkpt lat="-32.82447209445043" lon="151.49834568796473"><ele>40.0</ele><time>2026-03-21T21:41:34.999Z</time></trkpt><trkpt lat="-32.82458892066842" lon="151.49841652723964"><ele>40.0</ele><time>2026-03-21T21:41:36.999Z</time></trkpt><trkpt lat="-32.824654277874174" lon="151.49846094744942"><ele>40.0</ele><time>2026-03-21T21:41:37.999Z</time></trkpt><trkpt lat="-32.82472304048092" lon="151.49851379499538"><ele>40.0</ele><time>2026-03-21T21:41:38.999Z</time></trkpt><trkpt lat="-32.824794244606814" lon="151.4985667073784"><ele>40.0</ele><time>2026-03-21T21:41:39.999Z</time></trkpt><trkpt lat="-32.824873440493896" lon="151.49862309680637"><ele>40.0</ele><time>2026-03-21T21:41:40.999Z</time></trkpt><trkpt lat="-32.824949548044714" lon="151.49868324413924"><ele>40.0</ele><time>2026-03-21T21:41:41.999Z</time></trkpt><trkpt lat="-32.82500741685508" lon="151.4987384523711"><ele>40.0</ele><time>2026-03-21T21:41:42.999Z</time></trkpt><trkpt lat="-32.82506315021779" lon="151.49878308503722"><ele>40.0</ele><time>2026-03-21T21:41:43.999Z</time></trkpt><trkpt lat="-32.825178083215896" lon="151.4988035632556"><ele>40.0</ele><time>2026-03-21T21:41:45.999Z</time></trkpt><trkpt lat="-32.82524584740361" lon="151.4987427917879"><ele>42.0</ele><time>2026-03-21T21:41:46.999Z</time></trkpt><trkpt lat="-32.825268524496586" lon="151.49864316247607"><ele>44.0</ele><time>2026-03-21T21:41:47.999Z</time></trkpt><trkpt lat="-32.82530456556254" lon="151.49854796801776"><ele>46.0</ele><time>2026-03-21T21:41:48.999Z</time></trkpt><trkpt lat="-32.82535075416906" lon="151.49844873080036"><ele>48.0</ele><time>2026-03-21T21:41:50Z</time></trkpt><trkpt lat="-32.82540537245497" lon="151.4983428257443"><ele>50.0</ele><time>2026-03-21T21:41:51Z</time></trkpt><trkpt lat="-32.82546641587677" lon="151.49823186305517"><ele>50.0</ele><time>2026-03-21T21:41:52Z</time></trkpt><trkpt lat="-32.8255252718789" lon="151.49813309524077"><ele>50.0</ele><time>2026-03-21T21:41:53Z</time></trkpt><trkpt lat="-32.82558190000193" lon="151.49803520746514"><ele>50.0</ele><time>2026-03-21T21:41:54Z</time></trkpt><trkpt lat="-32.825633977295915" lon="151.49793432953854"><ele>50.0</ele><time>2026-03-21T21:41:55Z</time></trkpt><trkpt lat="-32.82568746744045" lon="151.49784913728473"><ele>50.0</ele><time>2026-03-21T21:41:56Z</time></trkpt><trkpt lat="-32.8257457621667" lon="151.49776581580738"><ele>50.16666666666667</ele><time>2026-03-21T21:41:57Z</time></trkpt><trkpt lat="-32.82578656004043" lon="151.4976784096433"><ele>50.333333333333336</ele><time>2026-03-21T21:41:58Z</time></trkpt><trkpt lat="-32.82582630000827" lon="151.4975966883581"><ele>50.5</ele><time>2026-03-21T21:41:59Z</time></trkpt><trkpt lat="-32.82586601692085" lon="151.49751588040962"><ele>50.66666666666667</ele><time>2026-03-21T21:42:00Z</time></trkpt><trkpt lat="-32.82590508525108" lon="151.4974360950321"><ele>50.833333333333336</ele><time>2026-03-21T21:42:01Z</time></trkpt><trkpt lat="-32.82594896708952" lon="151.49734563336617"><ele>51.0</ele><time>2026-03-21T21:42:02Z</time></trkpt><trkpt lat="-32.82599880744055" lon="151.49724705215255"><ele>51.0</ele><time>2026-03-21T21:42:03Z</time></trkpt><trkpt lat="-32.82604702351058" lon="151.49715201145204"><ele>51.0</ele><time>2026-03-21T21:42:04Z</time></trkpt><trkpt lat="-32.8260924123305" lon="151.4970628199899"><ele>51.0</ele><time>2026-03-21T21:42:05Z</time></trkpt><trkpt lat="-32.82613799224568" lon="151.496973108742"><ele>51.0</ele><time>2026-03-21T21:42:06Z</time></trkpt><trkpt lat="-32.82618866861616" lon="151.49686794904284"><ele>51.0</ele><time>2026-03-21T21:42:07Z</time></trkpt><trkpt lat="-32.8262394049525" lon="151.49675973903135"><ele>50.25</ele><time>2026-03-21T21:42:08Z</time></trkpt><trkpt lat="-32.826310351522764" lon="151.49661809719655"><ele>49.5</ele><time>2026-03-21T21:42:09Z</time></trkpt><trkpt lat="-32.82637601346229" lon="151.49648845498186"><ele>48.75</ele><time>2026-03-21T21:42:10Z</time></trkpt><trkpt lat="-32.82642418578266" lon="151.49639359220106"><ele>48.0</ele><time>2026-03-21T21:42:11Z</time></trkpt><trkpt lat="-32.82647040499051" lon="151.49630039300155"><ele>47.599999999999994</ele><time>2026-03-21T21:42:12Z</time></trkpt><trkpt lat="-32.82651349296853" lon="151.49621376727856"><ele>47.199999999999996</ele><time>2026-03-21T21:42:13Z</time></trkpt><trkpt lat="-32.826561209296614" lon="151.4961175788229"><ele>46.8</ele><time>2026-03-21T21:42:14Z</time></trkpt><trkpt lat="-32.82663308982205" lon="151.49600634359737"><ele>46.4</ele><time>2026-03-21T21:42:15Z</time></trkpt><trkpt lat="-32.826671673556994" lon="151.49587633335446"><ele>46.0</ele><time>2026-03-21T21:42:16Z</time></trkpt><trkpt lat="-32.826717967987975" lon="151.49574464819744"><ele>46.0</ele><time>2026-03-21T21:42:17Z</time></trkpt><trkpt lat="-32.82679076441015" lon="151.49563799734054"><ele>46.0</ele><time>2026-03-21T21:42:18Z</time></trkpt><trkpt lat="-32.82685930702686" lon="151.49552065235406"><ele>46.0</ele><time>2026-03-21T21:42:19Z</time></trkpt><trkpt lat="-32.82692366408997" lon="151.4953930434069"><ele>46.0</ele><time>2026-03-21T21:42:20Z</time></trkpt><trkpt lat="-32.82697615423732" lon="151.49528650716942"><ele>45.8</ele><time>2026-03-21T21:42:21Z</time></trkpt><trkpt lat="-32.82702273868934" lon="151.4951888678807"><ele>45.599999999999994</ele><time>2026-03-21T21:42:22Z</time></trkpt><trkpt lat="-32.82707440473678" lon="151.49508761625705"><ele>45.4</ele><time>2026-03-21T21:42:23Z</time></trkpt><trkpt lat="-32.827122076724514" lon="151.4949926156376"><ele>45.2</ele><time>2026-03-21T21:42:24Z</time></trkpt><trkpt lat="-32.82716560182597" lon="151.4949103354506"><ele>45.0</ele><time>2026-03-21T21:42:25Z</time></trkpt><trkpt lat="-32.82720699206537" lon="151.49482389178638"><ele>45.0</ele><time>2026-03-21T21:42:26Z</time></trkpt><trkpt lat="-32.82724834918609" lon="151.49473756077046"><ele>45.0</ele><time>2026-03-21T21:42:27Z</time></trkpt><trkpt lat="-32.827297288517165" lon="151.49463226702179"><ele>45.0</ele><time>2026-03-21T21:42:28Z</time></trkpt><trkpt lat="-32.827344808968355" lon="151.4945372470371"><ele>45.0</ele><time>2026-03-21T21:42:29Z</time></trkpt><trkpt lat="-32.82739361433603" lon="151.49444147850414"><ele>45.0</ele><time>2026-03-21T21:42:30Z</time></trkpt><trkpt lat="-32.827444939381735" lon="151.49434444326707"><ele>45.0</ele><time>2026-03-21T21:42:31Z</time></trkpt><trkpt lat="-32.82749570768512" lon="151.4942455260236"><ele>45.0</ele><time>2026-03-21T21:42:32Z</time></trkpt><trkpt lat="-32.82754750629233" lon="151.49413779031215"><ele>45.0</ele><time>2026-03-21T21:42:33Z</time></trkpt><trkpt lat="-32.8276011070965" lon="151.4940283478173"><ele>45.0</ele><time>2026-03-21T21:42:34Z</time></trkpt><trkpt lat="-32.82765822787503" lon="151.49390991305086"><ele>45.0</ele><time>2026-03-21T21:42:35Z</time></trkpt><trkpt lat="-32.827731467417046" lon="151.49377359832096"><ele>45.75</ele><time>2026-03-21T21:42:36Z</time></trkpt><trkpt lat="-32.827806467145294" lon="151.4936146382368"><ele>46.5</ele><time>2026-03-21T21:42:37Z</time></trkpt><trkpt lat="-32.8278713230791" lon="151.49348390215542"><ele>47.25</ele><time>2026-03-21T21:42:38Z</time></trkpt><trkpt lat="-32.82792148780959" lon="151.493374461483"><ele>48.0</ele><time>2026-03-21T21:42:39Z</time></trkpt><trkpt lat="-32.82796517771654" lon="151.4932820730721"><ele>48.0</ele><time>2026-03-21T21:42:40Z</time></trkpt><trkpt lat="-32.82800896565549" lon="151.4932045397275"><ele>48.0</ele><time>2026-03-21T21:42:41Z</time></trkpt><trkpt lat="-32.82804770021354" lon="151.49312811451122"><ele>48.0</ele><time>2026-03-21T21:42:42Z</time></trkpt><trkpt lat="-32.828050987133665" lon="151.49304337339117"><ele>48.0</ele><time>2026-03-21T21:42:43Z</time></trkpt><trkpt lat="-32.8280695056639" lon="151.49296303563221"><ele>48.0</ele><time>2026-03-21T21:42:44Z</time></trkpt><trkpt lat="-32.82805070104992" lon="151.49280302428247"><ele>48.0</ele><time>2026-03-21T21:42:46Z</time></trkpt><trkpt lat="-32.82798854074009" lon="151.49277850782755"><ele>48.33333333333333</ele><time>2026-03-21T21:42:47Z</time></trkpt><trkpt lat="-32.82811668629824" lon="151.49256613485971"><ele>48.666666666666664</ele><time>2026-03-21T21:42:49Z</time></trkpt><trkpt lat="-32.82810767275305" lon="151.4924503377118"><ele>49.0</ele><time>2026-03-21T21:42:50Z</time></trkpt><trkpt lat="-32.8281748472" lon="151.4922667156959"><ele>48.99999999999999</ele><time>2026-03-21T21:42:52Z</time></trkpt><trkpt lat="-32.828162230892715" lon="151.49218496346893"><ele>49.0</ele><time>2026-03-21T21:42:53Z</time></trkpt><trkpt lat="-32.828145170156596" lon="151.49207269522185"><ele>49.0</ele><time>2026-03-21T21:42:54Z</time></trkpt><trkpt lat="-32.82813016372654" lon="151.49197394536557"><ele>49.0</ele><time>2026-03-21T21:42:55Z</time></trkpt><trkpt lat="-32.82811533646859" lon="151.49187637454253"><ele>48.99999999999999</ele><time>2026-03-21T21:42:56Z</time></trkpt><trkpt lat="-32.82810389089477" lon="151.4918010568998"><ele>49.0</ele><time>2026-03-21T21:42:57Z</time></trkpt><trkpt lat="-32.82808973557865" lon="151.49170790779942"><ele>49.800000000000004</ele><time>2026-03-21T21:42:59Z</time></trkpt><trkpt lat="-32.82807326339833" lon="151.49159951259116"><ele>50.6</ele><time>2026-03-21T21:43:01Z</time></trkpt><trkpt lat="-32.82792559305243" lon="151.49157106842534"><ele>51.4</ele><time>2026-03-21T21:43:03Z</time></trkpt><trkpt lat="-32.827967302865055" lon="151.49147926392652"><ele>52.2</ele><time>2026-03-21T21:44:16Z</time></trkpt><trkpt lat="-32.828031246350804" lon="151.49145438934968"><ele>53.0</ele><time>2026-03-21T21:44:18Z</time></trkpt><trkpt lat="-32.82795273040336" lon="151.49141723179358"><ele>53.75</ele><time>2026-03-21T21:44:20Z</time></trkpt><trkpt lat="-32.82814092356658" lon="151.49124803370813"><ele>54.5</ele><time>2026-03-21T21:44:22Z</time></trkpt><trkpt lat="-32.82813285633496" lon="151.4911287129857"><ele>55.25</ele><time>2026-03-21T21:44:24Z</time></trkpt><trkpt lat="-32.82806548087016" lon="151.4910512438239"><ele>56.0</ele><time>2026-03-21T21:44:26Z</time></trkpt><trkpt lat="-32.82805302217117" lon="151.49097201930982"><ele>56.0</ele><time>2026-03-21T21:44:28Z</time></trkpt><trkpt lat="-32.82804148151339" lon="151.49089773031625"><ele>56.0</ele><time>2026-03-21T21:44:31Z</time></trkpt><trkpt lat="-32.828241494237325" lon="151.4909522105575"><ele>56.0</ele><time>2026-03-21T21:44:34Z</time></trkpt><trkpt lat="-32.8283537779532" lon="151.49091599486033"><ele>56.0</ele><time>2026-03-21T21:44:37Z</time></trkpt><trkpt lat="-32.828423278081615" lon="151.4908074905328"><ele>55.66666666666667</ele><time>2026-03-21T21:44:38Z</time></trkpt><trkpt lat="-32.82847686331482" lon="151.49069915979277"><ele>55.333333333333336</ele><time>2026-03-21T21:44:39Z</time></trkpt><trkpt lat="-32.82850169631522" lon="151.49061110633556"><ele>55.0</ele><time>2026-03-21T21:44:40Z</time></trkpt><trkpt lat="-32.82852629233651" lon="151.49052970299124"><ele>54.66666666666667</ele><time>2026-03-21T21:44:41Z</time></trkpt><trkpt lat="-32.82855043781626" lon="151.49041804456326"><ele>54.333333333333336</ele><time>2026-03-21T21:44:42Z</time></trkpt><trkpt lat="-32.828578038965105" lon="151.4903100112052"><ele>54.0</ele><time>2026-03-21T21:44:43Z</time></trkpt><trkpt lat="-32.828603117780524" lon="151.49020247524422"><ele>53.833333333333336</ele><time>2026-03-21T21:44:44Z</time></trkpt><trkpt lat="-32.82859800199173" lon="151.4900968870243"><ele>53.66666666666667</ele><time>2026-03-21T21:44:45Z</time></trkpt><trkpt lat="-32.82859157086495" lon="151.49001533187624"><ele>53.5</ele><time>2026-03-21T21:44:46Z</time></trkpt><trkpt lat="-32.8286276263518" lon="151.48994984108512"><ele>53.333333333333336</ele><time>2026-03-21T21:44:47Z</time></trkpt><trkpt lat="-32.82866696355375" lon="151.48988223907853"><ele>53.16666666666667</ele><time>2026-03-21T21:44:48Z</time></trkpt><trkpt lat="-32.828724782849655" lon="151.48979967965337"><ele>53.0</ele><time>2026-03-21T21:44:49Z</time></trkpt><trkpt lat="-32.828792549938306" lon="151.48974231702422"><ele>53.0</ele><time>2026-03-21T21:44:50Z</time></trkpt><trkpt lat="-32.82883840488189" lon="151.48967236401776"><ele>53.0</ele><time>2026-03-21T21:44:51Z</time></trkpt><trkpt lat="-32.82885919743788" lon="151.48955452382526"><ele>53.0</ele><time>2026-03-21T21:44:52Z</time></trkpt><trkpt lat="-32.82888743677914" lon="151.48942748719568"><ele>53.0</ele><time>2026-03-21T21:44:54Z</time></trkpt><trkpt lat="-32.82895930520882" lon="151.48941552323433"><ele>53.0</ele><time>2026-03-21T21:44:56Z</time></trkpt><trkpt lat="-32.82907322728848" lon="151.48951351516325"><ele>53.0</ele><time>2026-03-21T21:44:58Z</time></trkpt><trkpt lat="-32.82915959837432" lon="151.48958671990042"><ele>53.0</ele><time>2026-03-21T21:44:59Z</time></trkpt><trkpt lat="-32.829280446455044" lon="151.4896687259643"><ele>53.0</ele><time>2026-03-21T21:45:00Z</time></trkpt><trkpt lat="-32.82940287085462" lon="151.48974355835117"><ele>53.0</ele><time>2026-03-21T21:45:01Z</time></trkpt><trkpt lat="-32.82951994003579" lon="151.4898040753573"><ele>52.0</ele><time>2026-03-21T21:45:02Z</time></trkpt><trkpt lat="-32.82959572503125" lon="151.48987829869816"><ele>51.0</ele><time>2026-03-21T21:45:03Z</time></trkpt><trkpt lat="-32.829710030002346" lon="151.48990407620022"><ele>50.0</ele><time>2026-03-21T21:45:04Z</time></trkpt><trkpt lat="-32.82981697359084" lon="151.4899273472875"><ele>49.0</ele><time>2026-03-21T21:45:05Z</time></trkpt><trkpt lat="-32.829926359930745" lon="151.49000537668505"><ele>48.5</ele><time>2026-03-21T21:45:05.999Z</time></trkpt><trkpt lat="-32.83014946074786" lon="151.4900469115342"><ele>48.0</ele><time>2026-03-21T21:45:07.999Z</time></trkpt><trkpt lat="-32.83026205828738" lon="151.49005935496717"><ele>47.5</ele><time>2026-03-21T21:45:08.999Z</time></trkpt><trkpt lat="-32.83035444936844" lon="151.49006581414798"><ele>47.0</ele><time>2026-03-21T21:45:09.999Z</time></trkpt><trkpt lat="-32.830457751185094" lon="151.49006268274505"><ele>47.0</ele><time>2026-03-21T21:45:10.999Z</time></trkpt><trkpt lat="-32.8305845584899" lon="151.49006378987482"><ele>47.0</ele><time>2026-03-21T21:45:11.999Z</time></trkpt><trkpt lat="-32.83068382999866" lon="151.49004998173334"><ele>47.0</ele><time>2026-03-21T21:45:12.999Z</time></trkpt><trkpt lat="-32.83076771020103" lon="151.49003183004072"><ele>47.0</ele><time>2026-03-21T21:45:13.999Z</time></trkpt><trkpt lat="-32.83085758155836" lon="151.4900079196822"><ele>47.0</ele><time>2026-03-21T21:45:14.999Z</time></trkpt><trkpt lat="-32.83096497161931" lon="151.48998205268438"><ele>46.5</ele><time>2026-03-21T21:45:15.999Z</time></trkpt><trkpt lat="-32.831084064689584" lon="151.48995526286777"><ele>46.0</ele><time>2026-03-21T21:45:16.999Z</time></trkpt><trkpt lat="-32.831205934429114" lon="151.4899182293291"><ele>45.5</ele><time>2026-03-21T21:45:17.999Z</time></trkpt><trkpt lat="-32.83131056167967" lon="151.48988433892114"><ele>45.0</ele><time>2026-03-21T21:45:18.999Z</time></trkpt><trkpt lat="-32.83141715342058" lon="151.48984463839886"><ele>45.0</ele><time>2026-03-21T21:45:19.999Z</time></trkpt><trkpt lat="-32.83152936326633" lon="151.48980892651662"><ele>45.0</ele><time>2026-03-21T21:45:20.999Z</time></trkpt><trkpt lat="-32.83166661952888" lon="151.48976700150521"><ele>45.0</ele><time>2026-03-21T21:45:21.999Z</time></trkpt><trkpt lat="-32.831851797992854" lon="151.48972309390493"><ele>45.0</ele><time>2026-03-21T21:45:22.999Z</time></trkpt><trkpt lat="-32.83206559252684" lon="151.48968746866157"><ele>44.666666666666664</ele><time>2026-03-21T21:45:23.999Z</time></trkpt><trkpt lat="-32.83223762905743" lon="151.4896447010639"><ele>44.33333333333333</ele><time>2026-03-21T21:45:24.999Z</time></trkpt><trkpt lat="-32.83238771327246" lon="151.48960946578333"><ele>44.0</ele><time>2026-03-21T21:45:25.999Z</time></trkpt><trkpt lat="-32.832516812145194" lon="151.48957835359144"><ele>43.25</ele><time>2026-03-21T21:45:26.999Z</time></trkpt><trkpt lat="-32.83263097681375" lon="151.48955520582237"><ele>42.5</ele><time>2026-03-21T21:45:27.999Z</time></trkpt><trkpt lat="-32.83273102671829" lon="151.48955060512822"><ele>41.75</ele><time>2026-03-21T21:45:28.999Z</time></trkpt><trkpt lat="-32.832844312205815" lon="151.48954076823088"><ele>41.0</ele><time>2026-03-21T21:45:29.999Z</time></trkpt><trkpt lat="-32.83297120720486" lon="151.48952662705003"><ele>41.0</ele><time>2026-03-21T21:45:30.999Z</time></trkpt><trkpt lat="-32.833079862131534" lon="151.48952874028384"><ele>41.0</ele><time>2026-03-21T21:45:31.999Z</time></trkpt><trkpt lat="-32.833195582005835" lon="151.48953651571404"><ele>41.0</ele><time>2026-03-21T21:45:32.999Z</time></trkpt><trkpt lat="-32.833312023533466" lon="151.48955054897073"><ele>41.0</ele><time>2026-03-21T21:45:33.999Z</time></trkpt><trkpt lat="-32.83343610481376" lon="151.48956585379867"><ele>40.5</ele><time>2026-03-21T21:45:34.999Z</time></trkpt><trkpt lat="-32.83355477522786" lon="151.48959555760203"><ele>40.0</ele><time>2026-03-21T21:45:35.999Z</time></trkpt><trkpt lat="-32.8336728859946" lon="151.48962503974428"><ele>39.5</ele><time>2026-03-21T21:45:36.999Z</time></trkpt><trkpt lat="-32.83380160002627" lon="151.48966817882334"><ele>39.0</ele><time>2026-03-21T21:45:37.999Z</time></trkpt><trkpt lat="-32.83393944365399" lon="151.48970502200518"><ele>39.0</ele><time>2026-03-21T21:45:38.999Z</time></trkpt><trkpt lat="-32.83406170902033" lon="151.48973625376811"><ele>39.0</ele><time>2026-03-21T21:45:39.999Z</time></trkpt><trkpt lat="-32.83416469393909" lon="151.4897901800213"><ele>39.0</ele><time>2026-03-21T21:45:40.999Z</time></trkpt><trkpt lat="-32.83427298885223" lon="151.48984936210655"><ele>39.0</ele><time>2026-03-21T21:45:41.999Z</time></trkpt><trkpt lat="-32.83437686543649" lon="151.48992078024426"><ele>38.25</ele><time>2026-03-21T21:45:42.999Z</time></trkpt><trkpt lat="-32.83448646498545" lon="151.48999948422428"><ele>37.5</ele><time>2026-03-21T21:45:43.999Z</time></trkpt><trkpt lat="-32.83458794162843" lon="151.49008795587372"><ele>36.75</ele><time>2026-03-21T21:45:44.999Z</time></trkpt><trkpt lat="-32.83470726037283" lon="151.4901866514379"><ele>36.0</ele><time>2026-03-21T21:45:45.999Z</time></trkpt><trkpt lat="-32.83482577864001" lon="151.4902992732001"><ele>36.0</ele><time>2026-03-21T21:45:46.999Z</time></trkpt><trkpt lat="-32.83491758076521" lon="151.49039678990948"><ele>36.0</ele><time>2026-03-21T21:45:47.999Z</time></trkpt><trkpt lat="-32.83499393165694" lon="151.49049610139127"><ele>36.0</ele><time>2026-03-21T21:45:48.999Z</time></trkpt><trkpt lat="-32.83504797483038" lon="151.49059979608174"><ele>36.0</ele><time>2026-03-21T21:45:49.999Z</time></trkpt><trkpt lat="-32.835116569812996" lon="151.49069465801173"><ele>36.0</ele><time>2026-03-21T21:45:50.999Z</time></trkpt><trkpt lat="-32.83518917395527" lon="151.49079948678292"><ele>35.333333333333336</ele><time>2026-03-21T21:45:51.999Z</time></trkpt><trkpt lat="-32.83527620899256" lon="151.490913732525"><ele>34.666666666666664</ele><time>2026-03-21T21:45:52.999Z</time></trkpt><trkpt lat="-32.835338746271375" lon="151.49098367544408"><ele>34.0</ele><time>2026-03-21T21:45:53.999Z</time></trkpt><trkpt lat="-32.83539407078991" lon="151.49102304305865"><ele>33.33333333333333</ele><time>2026-03-21T21:45:54.999Z</time></trkpt><trkpt lat="-32.83546806542996" lon="151.4910401994122"><ele>32.666666666666664</ele><time>2026-03-21T21:45:55.999Z</time></trkpt><trkpt lat="-32.8355567891749" lon="151.4910707740822"><ele>32.0</ele><time>2026-03-21T21:45:56.999Z</time></trkpt><trkpt lat="-32.835639911808386" lon="151.49109758177667"><ele>31.999999999999996</ele><time>2026-03-21T21:45:57.999Z</time></trkpt><trkpt lat="-32.8356817992541" lon="151.49116514554575"><ele>32.0</ele><time>2026-03-21T21:45:58.999Z</time></trkpt><trkpt lat="-32.83571358771736" lon="151.4912601639198"><ele>32.0</ele><time>2026-03-21T21:45:59.999Z</time></trkpt><trkpt lat="-32.8357458678501" lon="151.49136242011076"><ele>32.0</ele><time>2026-03-21T21:46:00.999Z</time></trkpt><trkpt lat="-32.835749178270575" lon="151.49144372350437"><ele>31.999999999999996</ele><time>2026-03-21T21:46:02Z</time></trkpt><trkpt lat="-32.83577128573869" lon="151.49153575871014"><ele>32.0</ele><time>2026-03-21T21:46:03Z</time></trkpt><trkpt lat="-32.83583635840663" lon="151.49161361001265"><ele>31.333333333333332</ele><time>2026-03-21T21:46:04Z</time></trkpt><trkpt lat="-32.83594854778522" lon="151.49176181331617"><ele>30.666666666666664</ele><time>2026-03-21T21:46:05Z</time></trkpt><trkpt lat="-32.836069520470765" lon="151.49191681477907"><ele>30.0</ele><time>2026-03-21T21:46:06Z</time></trkpt><trkpt lat="-32.83619109220942" lon="151.4920641717207"><ele>29.0</ele><time>2026-03-21T21:46:07Z</time></trkpt><trkpt lat="-32.836280312151004" lon="151.49216726922717"><ele>28.0</ele><time>2026-03-21T21:46:08Z</time></trkpt><trkpt lat="-32.836360666862824" lon="151.49226605386397"><ele>27.0</ele><time>2026-03-21T21:46:09Z</time></trkpt><trkpt lat="-32.83644079415831" lon="151.49237537563596"><ele>26.0</ele><time>2026-03-21T21:46:10Z</time></trkpt><trkpt lat="-32.83650721158727" lon="151.49247636280063"><ele>26.0</ele><time>2026-03-21T21:46:11Z</time></trkpt><trkpt lat="-32.836588319648435" lon="151.49259273032754"><ele>26.0</ele><time>2026-03-21T21:46:12Z</time></trkpt><trkpt lat="-32.83666698973792" lon="151.49268071969345"><ele>26.0</ele><time>2026-03-21T21:46:13Z</time></trkpt><trkpt lat="-32.83675319896388" lon="151.4927909170346"><ele>26.0</ele><time>2026-03-21T21:46:14Z</time></trkpt><trkpt lat="-32.83683131893098" lon="151.49289958066998"><ele>27.0</ele><time>2026-03-21T21:46:15Z</time></trkpt><trkpt lat="-32.836897318123086" lon="151.4930070490376"><ele>28.0</ele><time>2026-03-21T21:46:16Z</time></trkpt><trkpt lat="-32.836980173566246" lon="151.4931117619759"><ele>29.0</ele><time>2026-03-21T21:46:17Z</time></trkpt><trkpt lat="-32.83706949244992" lon="151.4932123116186"><ele>30.0</ele><time>2026-03-21T21:46:18Z</time></trkpt><trkpt lat="-32.83715547253475" lon="151.4933076024287"><ele>30.0</ele><time>2026-03-21T21:46:19Z</time></trkpt><trkpt lat="-32.83724004216122" lon="151.49341623828067"><ele>30.0</ele><time>2026-03-21T21:46:20Z</time></trkpt><trkpt lat="-32.837317759588046" lon="151.49351633166975"><ele>30.0</ele><time>2026-03-21T21:46:21Z</time></trkpt><trkpt lat="-32.837401103693246" lon="151.49361226281417"><ele>30.0</ele><time>2026-03-21T21:46:22Z</time></trkpt><trkpt lat="-32.83748382689024" lon="151.49371762065192"><ele>30.4</ele><time>2026-03-21T21:46:23Z</time></trkpt><trkpt lat="-32.837541650212984" lon="151.49380711056307"><ele>30.8</ele><time>2026-03-21T21:46:24Z</time></trkpt><trkpt lat="-32.83760054004573" lon="151.49387718331423"><ele>31.200000000000003</ele><time>2026-03-21T21:46:25Z</time></trkpt><trkpt lat="-32.8376710253774" lon="151.49396113582483"><ele>31.6</ele><time>2026-03-21T21:46:26Z</time></trkpt><trkpt lat="-32.83772980111729" lon="151.49404029796267"><ele>32.0</ele><time>2026-03-21T21:46:27Z</time></trkpt><trkpt lat="-32.83779185555355" lon="151.49412211409677"><ele>32.0</ele><time>2026-03-21T21:46:28Z</time></trkpt><trkpt lat="-32.837871220460094" lon="151.49421624671578"><ele>32.0</ele><time>2026-03-21T21:46:29Z</time></trkpt><trkpt lat="-32.83791716937277" lon="151.49430149172383"><ele>32.0</ele><time>2026-03-21T21:46:30Z</time></trkpt><trkpt lat="-32.837975053624874" lon="151.4943953045082"><ele>32.0</ele><time>2026-03-21T21:46:31Z</time></trkpt><trkpt lat="-32.83804334612546" lon="151.4944964570865"><ele>32.0</ele><time>2026-03-21T21:46:32Z</time></trkpt><trkpt lat="-32.838118190080145" lon="151.49458342516616"><ele>32.4</ele><time>2026-03-21T21:46:33Z</time></trkpt><trkpt lat="-32.838185855695606" lon="151.49464824743723"><ele>32.800000000000004</ele><time>2026-03-21T21:46:34Z</time></trkpt><trkpt lat="-32.838251817608686" lon="151.49468491359468"><ele>33.2</ele><time>2026-03-21T21:46:35Z</time></trkpt><trkpt lat="-32.838345990506376" lon="151.49479582318247"><ele>33.6</ele><time>2026-03-21T21:46:37Z</time></trkpt><trkpt lat="-32.838402856427585" lon="151.49491589414825"><ele>34.0</ele><time>2026-03-21T21:46:38Z</time></trkpt><trkpt lat="-32.83844913610727" lon="151.49500636723724"><ele>34.0</ele><time>2026-03-21T21:46:39Z</time></trkpt><trkpt lat="-32.838491627064286" lon="151.49506906998377"><ele>34.0</ele><time>2026-03-21T21:46:40Z</time></trkpt><trkpt lat="-32.838576536415545" lon="151.49511109263392"><ele>34.0</ele><time>2026-03-21T21:46:42Z</time></trkpt><trkpt lat="-32.83869594846172" lon="151.49507115063372"><ele>34.0</ele><time>2026-03-21T21:46:44Z</time></trkpt><trkpt lat="-32.83876022078692" lon="151.49494664170953"><ele>34.0</ele><time>2026-03-21T21:46:46Z</time></trkpt><trkpt lat="-32.83877318828388" lon="151.49487073623638"><ele>34.0</ele><time>2026-03-21T21:46:47Z</time></trkpt><trkpt lat="-32.83881167006888" lon="151.49476750073444"><ele>34.0</ele><time>2026-03-21T21:46:48Z</time></trkpt><trkpt lat="-32.83887903206723" lon="151.49469913801508"><ele>34.0</ele><time>2026-03-21T21:46:49Z</time></trkpt><trkpt lat="-32.83894584286471" lon="151.49464765060773"><ele>34.0</ele><time>2026-03-21T21:46:50Z</time></trkpt><trkpt lat="-32.83904168540813" lon="151.4945770877744"><ele>34.0</ele><time>2026-03-21T21:46:51Z</time></trkpt><trkpt lat="-32.83911168201271" lon="151.49450457760884"><ele>34.0</ele><time>2026-03-21T21:46:52Z</time></trkpt><trkpt lat="-32.839167792550974" lon="151.49442572912142"><ele>34.0</ele><time>2026-03-21T21:46:53Z</time></trkpt><trkpt lat="-32.839238789564035" lon="151.4943625332541"><ele>34.0</ele><time>2026-03-21T21:46:54Z</time></trkpt><trkpt lat="-32.83930531970526" lon="151.49429317760632"><ele>34.0</ele><time>2026-03-21T21:46:55Z</time></trkpt><trkpt lat="-32.839354145768255" lon="151.49421589322128"><ele>34.0</ele><time>2026-03-21T21:46:56Z</time></trkpt><trkpt lat="-32.839407492915" lon="151.49412734202824"><ele>34.0</ele><time>2026-03-21T21:46:57Z</time></trkpt><trkpt lat="-32.83945002463618" lon="151.4940291670341"><ele>34.8</ele><time>2026-03-21T21:46:58Z</time></trkpt><trkpt lat="-32.839508513541595" lon="151.49390661935243"><ele>35.599999999999994</ele><time>2026-03-21T21:46:59Z</time></trkpt><trkpt lat="-32.839560699179145" lon="151.49380195088477"><ele>36.4</ele><time>2026-03-21T21:47:00Z</time></trkpt><trkpt lat="-32.839604444067426" lon="151.49368894403727"><ele>37.199999999999996</ele><time>2026-03-21T21:47:01Z</time></trkpt><trkpt lat="-32.83965629119066" lon="151.4935975970341"><ele>38.0</ele><time>2026-03-21T21:47:02Z</time></trkpt><trkpt lat="-32.83971353486219" lon="151.49353512088533"><ele>38.199999999999996</ele><time>2026-03-21T21:47:03Z</time></trkpt><trkpt lat="-32.83978470693567" lon="151.49349688322292"><ele>38.4</ele><time>2026-03-21T21:47:04Z</time></trkpt><trkpt lat="-32.839871928076334" lon="151.4934233807428"><ele>38.599999999999994</ele><time>2026-03-21T21:47:05Z</time></trkpt><trkpt lat="-32.83993297409777" lon="151.49335311493263"><ele>38.8</ele><time>2026-03-21T21:47:06Z</time></trkpt><trkpt lat="-32.84001822815003" lon="151.49330474344947"><ele>39.0</ele><time>2026-03-21T21:47:07Z</time></trkpt><trkpt lat="-32.840112454368374" lon="151.4932190464876"><ele>40.0</ele><time>2026-03-21T21:47:08Z</time></trkpt><trkpt lat="-32.840191869519465" lon="151.49312688862952"><ele>41.0</ele><time>2026-03-21T21:47:08.999Z</time></trkpt><trkpt lat="-32.840254376968346" lon="151.4930343606856"><ele>42.0</ele><time>2026-03-21T21:47:09.999Z</time></trkpt><trkpt lat="-32.84034554881305" lon="151.49296021784338"><ele>43.0</ele><time>2026-03-21T21:47:10.999Z</time></trkpt><trkpt lat="-32.84047186859307" lon="151.49290487543283"><ele>43.0</ele><time>2026-03-21T21:47:11.999Z</time></trkpt><trkpt lat="-32.84057397669167" lon="151.49283029027046"><ele>43.0</ele><time>2026-03-21T21:47:12.999Z</time></trkpt><trkpt lat="-32.84066010410262" lon="151.49276064075883"><ele>43.0</ele><time>2026-03-21T21:47:13.999Z</time></trkpt><trkpt lat="-32.84072710807347" lon="151.49270289205424"><ele>43.0</ele><time>2026-03-21T21:47:14.999Z</time></trkpt><trkpt lat="-32.84079511930487" lon="151.49261030978843"><ele>43.0</ele><time>2026-03-21T21:47:15.999Z</time></trkpt><trkpt lat="-32.84084838647389" lon="151.49248111935344"><ele>43.0</ele><time>2026-03-21T21:47:16.999Z</time></trkpt><trkpt lat="-32.84089403990325" lon="151.49235761414596"><ele>43.0</ele><time>2026-03-21T21:47:17.999Z</time></trkpt><trkpt lat="-32.84096640909963" lon="151.49224355256666"><ele>43.0</ele><time>2026-03-21T21:47:18.999Z</time></trkpt><trkpt lat="-32.84106556532283" lon="151.4921673348804"><ele>43.0</ele><time>2026-03-21T21:47:19.999Z</time></trkpt><trkpt lat="-32.84118646048042" lon="151.49208474386543"><ele>44.25</ele><time>2026-03-21T21:47:20.999Z</time></trkpt><trkpt lat="-32.841302229542464" lon="151.49198222357356"><ele>45.5</ele><time>2026-03-21T21:47:21.999Z</time></trkpt><trkpt lat="-32.841416347003616" lon="151.49187112249945"><ele>46.75</ele><time>2026-03-21T21:47:22.999Z</time></trkpt><trkpt lat="-32.84151066214539" lon="151.4917776495212"><ele>48.0</ele><time>2026-03-21T21:47:23.999Z</time></trkpt><trkpt lat="-32.841578149239496" lon="151.49170128403077"><ele>48.0</ele><time>2026-03-21T21:47:24.999Z</time></trkpt><trkpt lat="-32.84163069175581" lon="151.49163037434857"><ele>48.0</ele><time>2026-03-21T21:47:25.999Z</time></trkpt><trkpt lat="-32.84166732062455" lon="151.49155103045123"><ele>48.0</ele><time>2026-03-21T21:47:26.999Z</time></trkpt><trkpt lat="-32.841702027077304" lon="151.49141837496262"><ele>48.0</ele><time>2026-03-21T21:47:27.999Z</time></trkpt><trkpt lat="-32.841761819022246" lon="151.49130539037876"><ele>48.0</ele><time>2026-03-21T21:47:28.999Z</time></trkpt><trkpt lat="-32.84183538681177" lon="151.49123309618895"><ele>48.0</ele><time>2026-03-21T21:47:29.999Z</time></trkpt><trkpt lat="-32.841906003297645" lon="151.49116130744457"><ele>48.0</ele><time>2026-03-21T21:47:30.999Z</time></trkpt><trkpt lat="-32.84195946611665" lon="151.49108808783828"><ele>48.0</ele><time>2026-03-21T21:47:31.999Z</time></trkpt><trkpt lat="-32.84201703653706" lon="151.49103294491337"><ele>48.0</ele><time>2026-03-21T21:47:32.999Z</time></trkpt><trkpt lat="-32.84209773565867" lon="151.49096425133698"><ele>48.0</ele><time>2026-03-21T21:47:33.999Z</time></trkpt><trkpt lat="-32.84215346399003" lon="151.49090553968048"><ele>48.0</ele><time>2026-03-21T21:47:34.999Z</time></trkpt><trkpt lat="-32.84221945209944" lon="151.49077464141357"><ele>48.0</ele><time>2026-03-21T21:47:36.999Z</time></trkpt><trkpt lat="-32.84226407057788" lon="151.49068720301622"><ele>48.0</ele><time>2026-03-21T21:47:37.999Z</time></trkpt><trkpt lat="-32.84234441301543" lon="151.49061862553705"><ele>48.0</ele><time>2026-03-21T21:47:38.999Z</time></trkpt><trkpt lat="-32.842404489277726" lon="151.490575986724"><ele>48.0</ele><time>2026-03-21T21:47:39.999Z</time></trkpt><trkpt lat="-32.842467200762805" lon="151.49045701180157"><ele>48.0</ele><time>2026-03-21T21:47:40.999Z</time></trkpt><trkpt lat="-32.84249400757529" lon="151.49033802074058"><ele>47.8</ele><time>2026-03-21T21:47:41.999Z</time></trkpt><trkpt lat="-32.84255194867716" lon="151.49025406624466"><ele>47.599999999999994</ele><time>2026-03-21T21:47:42.999Z</time></trkpt><trkpt lat="-32.842611524572376" lon="151.49013777032283"><ele>47.400000000000006</ele><time>2026-03-21T21:47:43.999Z</time></trkpt><trkpt lat="-32.84267982357267" lon="151.49004127415188"><ele>47.2</ele><time>2026-03-21T21:47:44.999Z</time></trkpt><trkpt lat="-32.84273647045051" lon="151.48996557513092"><ele>47.0</ele><time>2026-03-21T21:47:45.999Z</time></trkpt><trkpt lat="-32.84278309743519" lon="151.48985695330614"><ele>47.0</ele><time>2026-03-21T21:47:46.999Z</time></trkpt><trkpt lat="-32.84282084109045" lon="151.48973630967888"><ele>47.0</ele><time>2026-03-21T21:47:47.999Z</time></trkpt><trkpt lat="-32.84286624775349" lon="151.48963219050225"><ele>47.0</ele><time>2026-03-21T21:47:48.999Z</time></trkpt><trkpt lat="-32.8429048797867" lon="151.48950101678227"><ele>47.0</ele><time>2026-03-21T21:47:49.999Z</time></trkpt><trkpt lat="-32.842944840306636" lon="151.48940632954393"><ele>47.0</ele><time>2026-03-21T21:47:50.999Z</time></trkpt><trkpt lat="-32.84300536739646" lon="151.48930746848725"><ele>48.2</ele><time>2026-03-21T21:47:51.999Z</time></trkpt><trkpt lat="-32.843051323405625" lon="151.48921536664886"><ele>49.400000000000006</ele><time>2026-03-21T21:47:52.999Z</time></trkpt><trkpt lat="-32.843109758375" lon="151.48911266260134"><ele>50.599999999999994</ele><time>2026-03-21T21:47:53.999Z</time></trkpt><trkpt lat="-32.8431560930153" lon="151.48902159226427"><ele>51.8</ele><time>2026-03-21T21:47:54.999Z</time></trkpt><trkpt lat="-32.84317094576099" lon="151.48891286508731"><ele>53.0</ele><time>2026-03-21T21:47:55.999Z</time></trkpt><trkpt lat="-32.84317605271273" lon="151.48878047083824"><ele>53.4</ele><time>2026-03-21T21:47:56.999Z</time></trkpt><trkpt lat="-32.84318411935791" lon="151.48864360241745"><ele>53.8</ele><time>2026-03-21T21:47:57.999Z</time></trkpt><trkpt lat="-32.84317177914504" lon="151.4885272241317"><ele>54.2</ele><time>2026-03-21T21:47:58.999Z</time></trkpt><trkpt lat="-32.843170507050615" lon="151.48842605288868"><ele>54.6</ele><time>2026-03-21T21:47:59.999Z</time></trkpt><trkpt lat="-32.84320071072998" lon="151.48833599648717"><ele>55.0</ele><time>2026-03-21T21:48:00.999Z</time></trkpt><trkpt lat="-32.843237347451954" lon="151.48824188985472"><ele>54.99999999999999</ele><time>2026-03-21T21:48:01.999Z</time></trkpt><trkpt lat="-32.84329077378843" lon="151.48814931884652"><ele>55.0</ele><time>2026-03-21T21:48:02.999Z</time></trkpt><trkpt lat="-32.84337098676739" lon="151.48805016406195"><ele>55.0</ele><time>2026-03-21T21:48:03.999Z</time></trkpt><trkpt lat="-32.84343448457097" lon="151.4879743404283"><ele>55.0</ele><time>2026-03-21T21:48:04.999Z</time></trkpt><trkpt lat="-32.84349075098981" lon="151.48790511818981"><ele>54.99999999999999</ele><time>2026-03-21T21:48:05.999Z</time></trkpt><trkpt lat="-32.84350553744604" lon="151.4878262070869"><ele>55.0</ele><time>2026-03-21T21:48:06.999Z</time></trkpt><trkpt lat="-32.84352492098727" lon="151.48773454393412"><ele>54.0</ele><time>2026-03-21T21:48:08Z</time></trkpt><trkpt lat="-32.84358309364941" lon="151.48765444199333"><ele>53.0</ele><time>2026-03-21T21:48:09Z</time></trkpt><trkpt lat="-32.84362717349595" lon="151.4875700007269"><ele>52.0</ele><time>2026-03-21T21:48:10Z</time></trkpt><trkpt lat="-32.84366391576412" lon="151.48748571821716"><ele>51.0</ele><time>2026-03-21T21:48:11Z</time></trkpt><trkpt lat="-32.843689247695764" lon="151.48741204327231"><ele>50.0</ele><time>2026-03-21T21:48:12Z</time></trkpt><trkpt lat="-32.84378047752136" lon="151.48725243239613"><ele>50.0</ele><time>2026-03-21T21:48:14Z</time></trkpt><trkpt lat="-32.843832662188" lon="151.48713584476414"><ele>50.0</ele><time>2026-03-21T21:48:15Z</time></trkpt><trkpt lat="-32.843842156025296" lon="151.48704923935992"><ele>50.0</ele><time>2026-03-21T21:48:16Z</time></trkpt><trkpt lat="-32.84380809532861" lon="151.48695258538874"><ele>50.0</ele><time>2026-03-21T21:48:17Z</time></trkpt><trkpt lat="-32.84377472421853" lon="151.48686481293288"><ele>50.0</ele><time>2026-03-21T21:48:18Z</time></trkpt><trkpt lat="-32.84378555532712" lon="151.4867269069536"><ele>50.0</ele><time>2026-03-21T21:48:20Z</time></trkpt><trkpt lat="-32.84381452480431" lon="151.48662463520677"><ele>50.0</ele><time>2026-03-21T21:48:21Z</time></trkpt><trkpt lat="-32.84383041617945" lon="151.48651814245343"><ele>50.0</ele><time>2026-03-21T21:48:22Z</time></trkpt><trkpt lat="-32.84382855096843" lon="151.4864140909838"><ele>50.0</ele><time>2026-03-21T21:48:23Z</time></trkpt><trkpt lat="-32.84381822222568" lon="151.48629323894585"><ele>50.0</ele><time>2026-03-21T21:48:24Z</time></trkpt><trkpt lat="-32.84377977336588" lon="151.4861756846721"><ele>49.66666666666667</ele><time>2026-03-21T21:48:25Z</time></trkpt><trkpt lat="-32.8437468102882" lon="151.4860752019241"><ele>49.333333333333336</ele><time>2026-03-21T21:48:26Z</time></trkpt><trkpt lat="-32.84373528969134" lon="151.48599602195944"><ele>49.0</ele><time>2026-03-21T21:48:27Z</time></trkpt><trkpt lat="-32.843749649813006" lon="151.48585817322038"><ele>48.66666666666667</ele><time>2026-03-21T21:48:29Z</time></trkpt><trkpt lat="-32.84373608424445" lon="151.48575079000713"><ele>48.333333333333336</ele><time>2026-03-21T21:48:31Z</time></trkpt><trkpt lat="-32.8437347752343" lon="151.48567244726073"><ele>48.0</ele><time>2026-03-21T21:48:33Z</time></trkpt><trkpt lat="-32.84370326133961" lon="151.48557202962576"><ele>48.0</ele><time>2026-03-21T21:48:35Z</time></trkpt><trkpt lat="-32.8436829689834" lon="151.48549883348682"><ele>48.0</ele><time>2026-03-21T21:48:37Z</time></trkpt><trkpt lat="-32.84367159654521" lon="151.4853834359724"><ele>48.0</ele><time>2026-03-21T21:48:39Z</time></trkpt><trkpt lat="-32.8436659334248" lon="151.4853042792006"><ele>48.0</ele><time>2026-03-21T21:48:40Z</time></trkpt><trkpt lat="-32.84366586610331" lon="151.48520338798815"><ele>48.0</ele><time>2026-03-21T21:48:41Z</time></trkpt><trkpt lat="-32.84366913204932" lon="151.48512102754538"><ele>48.0</ele><time>2026-03-21T21:48:42Z</time></trkpt><trkpt lat="-32.843683353787085" lon="151.4850332719876"><ele>48.166666666666664</ele><time>2026-03-21T21:48:43Z</time></trkpt><trkpt lat="-32.843699482197195" lon="151.48494140418077"><ele>48.33333333333333</ele><time>2026-03-21T21:48:44Z</time></trkpt><trkpt lat="-32.84371188644424" lon="151.48485102936283"><ele>48.5</ele><time>2026-03-21T21:48:45Z</time></trkpt><trkpt lat="-32.84372022680473" lon="151.4847526027279"><ele>48.666666666666664</ele><time>2026-03-21T21:48:46Z</time></trkpt><trkpt lat="-32.84372730444668" lon="151.4846528008112"><ele>48.83333333333333</ele><time>2026-03-21T21:48:47Z</time></trkpt><trkpt lat="-32.84372880586304" lon="151.48455349295125"><ele>49.0</ele><time>2026-03-21T21:48:48Z</time></trkpt><trkpt lat="-32.84372726485879" lon="151.48445338934823"><ele>49.2</ele><time>2026-03-21T21:48:49Z</time></trkpt><trkpt lat="-32.843728375255196" lon="151.48435243926247"><ele>49.400000000000006</ele><time>2026-03-21T21:48:50Z</time></trkpt><trkpt lat="-32.843733005546206" lon="151.48424610081338"><ele>49.6</ele><time>2026-03-21T21:48:51Z</time></trkpt><trkpt lat="-32.843739414736284" lon="151.48413000972786"><ele>49.8</ele><time>2026-03-21T21:48:52Z</time></trkpt><trkpt lat="-32.843740118935436" lon="151.48399436438947"><ele>50.0</ele><time>2026-03-21T21:48:53Z</time></trkpt><trkpt lat="-32.843739557612636" lon="151.4838278110271"><ele>51.333333333333336</ele><time>2026-03-21T21:48:54Z</time></trkpt><trkpt lat="-32.843732806809186" lon="151.48361672579242"><ele>52.66666666666667</ele><time>2026-03-21T21:48:55Z</time></trkpt><trkpt lat="-32.843717236894804" lon="151.48342557917263"><ele>54.0</ele><time>2026-03-21T21:48:56Z</time></trkpt><trkpt lat="-32.84371948542617" lon="151.48327332718964"><ele>54.0</ele><time>2026-03-21T21:48:57Z</time></trkpt><trkpt lat="-32.84373164644572" lon="151.4831335893138"><ele>54.0</ele><time>2026-03-21T21:48:58Z</time></trkpt><trkpt lat="-32.84375215123093" lon="151.48299781237185"><ele>54.0</ele><time>2026-03-21T21:48:59Z</time></trkpt><trkpt lat="-32.843781347129244" lon="151.48285461336812"><ele>54.0</ele><time>2026-03-21T21:49:00Z</time></trkpt><trkpt lat="-32.84382360420253" lon="151.48268451528463"><ele>53.75</ele><time>2026-03-21T21:49:01Z</time></trkpt><trkpt lat="-32.84386808406981" lon="151.48250718364199"><ele>53.5</ele><time>2026-03-21T21:49:02Z</time></trkpt><trkpt lat="-32.843907198744276" lon="151.4823472088958"><ele>53.25</ele><time>2026-03-21T21:49:03Z</time></trkpt><trkpt lat="-32.84394653855731" lon="151.4822048184707"><ele>53.0</ele><time>2026-03-21T21:49:04Z</time></trkpt><trkpt lat="-32.84399008826298" lon="151.48204391250917"><ele>54.0</ele><time>2026-03-21T21:49:05Z</time></trkpt><trkpt lat="-32.84403156113144" lon="151.48188241624254"><ele>55.0</ele><time>2026-03-21T21:49:06Z</time></trkpt><trkpt lat="-32.84407954706181" lon="151.4817039462109"><ele>56.0</ele><time>2026-03-21T21:49:07Z</time></trkpt><trkpt lat="-32.844129739230134" lon="151.4815160941425"><ele>56.0</ele><time>2026-03-21T21:49:08Z</time></trkpt><trkpt lat="-32.8441945818779" lon="151.4812687930916"><ele>56.0</ele><time>2026-03-21T21:49:09Z</time></trkpt><trkpt lat="-32.844271164528685" lon="151.480996945288"><ele>55.333333333333336</ele><time>2026-03-21T21:49:10Z</time></trkpt><trkpt lat="-32.844349887055216" lon="151.48073801963318"><ele>54.66666666666667</ele><time>2026-03-21T21:49:10.999Z</time></trkpt><trkpt lat="-32.844405443081875" lon="151.48051144865158"><ele>54.0</ele><time>2026-03-21T21:49:11.999Z</time></trkpt><trkpt lat="-32.844455841282006" lon="151.48030701416616"><ele>53.66666666666667</ele><time>2026-03-21T21:49:12.999Z</time></trkpt><trkpt lat="-32.84450677074617" lon="151.4801148858447"><ele>53.333333333333336</ele><time>2026-03-21T21:49:13.999Z</time></trkpt><trkpt lat="-32.84455365750082" lon="151.47994256308453"><ele>53.0</ele><time>2026-03-21T21:49:14.999Z</time></trkpt><trkpt lat="-32.84459253586908" lon="151.4797819607092"><ele>53.0</ele><time>2026-03-21T21:49:15.999Z</time></trkpt><trkpt lat="-32.84463491883986" lon="151.47962734102376"><ele>53.0</ele><time>2026-03-21T21:49:16.999Z</time></trkpt><trkpt lat="-32.8446722831607" lon="151.4794825734918"><ele>53.0</ele><time>2026-03-21T21:49:17.999Z</time></trkpt><trkpt lat="-32.84471422170799" lon="151.47932840631822"><ele>53.0</ele><time>2026-03-21T21:49:18.999Z</time></trkpt><trkpt lat="-32.84475732182688" lon="151.47916418834652"><ele>53.333333333333336</ele><time>2026-03-21T21:49:19.999Z</time></trkpt><trkpt lat="-32.84480044080624" lon="151.47900351630167"><ele>53.66666666666667</ele><time>2026-03-21T21:49:20.999Z</time></trkpt><trkpt lat="-32.844846514468195" lon="151.4788132541576"><ele>54.0</ele><time>2026-03-21T21:49:21.999Z</time></trkpt><trkpt lat="-32.84489811843498" lon="151.47857832025036"><ele>54.0</ele><time>2026-03-21T21:49:22.999Z</time></trkpt><trkpt lat="-32.844958950948154" lon="151.47834808632635"><ele>54.0</ele><time>2026-03-21T21:49:23.999Z</time></trkpt><trkpt lat="-32.845014025323216" lon="151.47816695570904"><ele>54.0</ele><time>2026-03-21T21:49:24.999Z</time></trkpt><trkpt lat="-32.84506443410148" lon="151.47799594493165"><ele>54.0</ele><time>2026-03-21T21:49:25.999Z</time></trkpt><trkpt lat="-32.84510788121918" lon="151.4778283483848"><ele>54.0</ele><time>2026-03-21T21:49:26.999Z</time></trkpt><trkpt lat="-32.84514515197501" lon="151.4776743655717"><ele>54.0</ele><time>2026-03-21T21:49:27.999Z</time></trkpt><trkpt lat="-32.84518044236033" lon="151.47753803438627"><ele>54.0</ele><time>2026-03-21T21:49:28.999Z</time></trkpt><trkpt lat="-32.84521643361832" lon="151.4774029942304"><ele>53.800000000000004</ele><time>2026-03-21T21:49:29.999Z</time></trkpt><trkpt lat="-32.845250317605526" lon="151.47727888429998"><ele>53.60000000000001</ele><time>2026-03-21T21:49:30.999Z</time></trkpt><trkpt lat="-32.8452836216897" lon="151.4771583031047"><ele>53.4</ele><time>2026-03-21T21:49:31.999Z</time></trkpt><trkpt lat="-32.845319033588005" lon="151.47703569564362"><ele>53.2</ele><time>2026-03-21T21:49:32.999Z</time></trkpt><trkpt lat="-32.84535555135015" lon="151.47690970252722"><ele>53.0</ele><time>2026-03-21T21:49:33.999Z</time></trkpt><trkpt lat="-32.84539487767582" lon="151.47677964465737"><ele>53.0</ele><time>2026-03-21T21:49:34.999Z</time></trkpt><trkpt lat="-32.84542886590161" lon="151.4766442577837"><ele>53.0</ele><time>2026-03-21T21:49:35.999Z</time></trkpt><trkpt lat="-32.84546307067273" lon="151.47650669185253"><ele>53.0</ele><time>2026-03-21T21:49:36.999Z</time></trkpt><trkpt lat="-32.845495725803524" lon="151.47637993961948"><ele>53.0</ele><time>2026-03-21T21:49:37.999Z</time></trkpt><trkpt lat="-32.84552965019587" lon="151.47626121525778"><ele>52.5</ele><time>2026-03-21T21:49:38.999Z</time></trkpt><trkpt lat="-32.84556449774724" lon="151.47613039171793"><ele>52.0</ele><time>2026-03-21T21:49:39.999Z</time></trkpt><trkpt lat="-32.845602649318444" lon="151.4759883834495"><ele>51.5</ele><time>2026-03-21T21:49:40.999Z</time></trkpt><trkpt lat="-32.84564749814328" lon="151.47583593632265"><ele>51.0</ele><time>2026-03-21T21:49:41.999Z</time></trkpt><trkpt lat="-32.845691576954934" lon="151.4756729500186"><ele>51.0</ele><time>2026-03-21T21:49:42.999Z</time></trkpt><trkpt lat="-32.84573284137381" lon="151.4755129382645"><ele>51.0</ele><time>2026-03-21T21:49:43.999Z</time></trkpt><trkpt lat="-32.84577054108828" lon="151.47536379900325"><ele>51.0</ele><time>2026-03-21T21:49:44.999Z</time></trkpt><trkpt lat="-32.84580784063146" lon="151.4752218481581"><ele>51.0</ele><time>2026-03-21T21:49:45.999Z</time></trkpt><trkpt lat="-32.84584656251838" lon="151.47507614888363"><ele>51.25</ele><time>2026-03-21T21:49:46.999Z</time></trkpt><trkpt lat="-32.84588377121886" lon="151.47493232243053"><ele>51.5</ele><time>2026-03-21T21:49:47.999Z</time></trkpt><trkpt lat="-32.845921247680494" lon="151.47478731643363"><ele>51.75</ele><time>2026-03-21T21:49:48.999Z</time></trkpt><trkpt lat="-32.84596090955253" lon="151.4746343487223"><ele>52.0</ele><time>2026-03-21T21:49:49.999Z</time></trkpt><trkpt lat="-32.84600431669578" lon="151.47445802013797"><ele>50.666666666666664</ele><time>2026-03-21T21:49:50.999Z</time></trkpt><trkpt lat="-32.846055401937946" lon="151.47427343436703"><ele>49.33333333333333</ele><time>2026-03-21T21:49:51.999Z</time></trkpt><trkpt lat="-32.84610395547261" lon="151.4740817314782"><ele>48.0</ele><time>2026-03-21T21:49:52.999Z</time></trkpt><trkpt lat="-32.8461500447524" lon="151.47391154587916"><ele>49.66666666666667</ele><time>2026-03-21T21:49:53.999Z</time></trkpt><trkpt lat="-32.846198465223836" lon="151.47372813557706"><ele>51.333333333333336</ele><time>2026-03-21T21:49:54.999Z</time></trkpt><trkpt lat="-32.84625860347262" lon="151.47349449294265"><ele>53.0</ele><time>2026-03-21T21:49:55.999Z</time></trkpt><trkpt lat="-32.84631576750275" lon="151.47328003295078"><ele>53.0</ele><time>2026-03-21T21:49:56.999Z</time></trkpt><trkpt lat="-32.84637288707177" lon="151.47308814747257"><ele>53.0</ele><time>2026-03-21T21:49:57.999Z</time></trkpt><trkpt lat="-32.84641577467419" lon="151.4729157145253"><ele>53.0</ele><time>2026-03-21T21:49:58.999Z</time></trkpt><trkpt lat="-32.8464543590007" lon="151.4727482229331"><ele>54.333333333333336</ele><time>2026-03-21T21:49:59.999Z</time></trkpt><trkpt lat="-32.846493872299" lon="151.4725714637355"><ele>55.66666666666667</ele><time>2026-03-21T21:50:00.999Z</time></trkpt><trkpt lat="-32.84652873422853" lon="151.4723952005505"><ele>57.0</ele><time>2026-03-21T21:50:01.999Z</time></trkpt><trkpt lat="-32.84655902391046" lon="151.47220980200586"><ele>57.66666666666667</ele><time>2026-03-21T21:50:02.999Z</time></trkpt><trkpt lat="-32.846590872968406" lon="151.4720243102688"><ele>58.333333333333336</ele><time>2026-03-21T21:50:03.999Z</time></trkpt><trkpt lat="-32.84661364366852" lon="151.47184396092084"><ele>59.0</ele><time>2026-03-21T21:50:04.999Z</time></trkpt><trkpt lat="-32.846634958047645" lon="151.47164905709676"><ele>59.0</ele><time>2026-03-21T21:50:05.999Z</time></trkpt><trkpt lat="-32.84665239012529" lon="151.47145042844042"><ele>59.0</ele><time>2026-03-21T21:50:06.999Z</time></trkpt><trkpt lat="-32.84666057596026" lon="151.47125729442988"><ele>59.0</ele><time>2026-03-21T21:50:07.999Z</time></trkpt><trkpt lat="-32.846669856714016" lon="151.47100890599557"><ele>59.0</ele><time>2026-03-21T21:50:08.999Z</time></trkpt><trkpt lat="-32.84666807509886" lon="151.4707586331767"><ele>59.0</ele><time>2026-03-21T21:50:09.999Z</time></trkpt><trkpt lat="-32.846673203995884" lon="151.47054127385834"><ele>59.0</ele><time>2026-03-21T21:50:10.999Z</time></trkpt><trkpt lat="-32.846664518463804" lon="151.47036124602155"><ele>59.66666666666667</ele><time>2026-03-21T21:50:11.999Z</time></trkpt><trkpt lat="-32.84664722644866" lon="151.4701769718868"><ele>60.33333333333333</ele><time>2026-03-21T21:50:13Z</time></trkpt><trkpt lat="-32.84662932498501" lon="151.46999464875958"><ele>61.0</ele><time>2026-03-21T21:50:14Z</time></trkpt><trkpt lat="-32.846602463136186" lon="151.46979550482922"><ele>61.33333333333333</ele><time>2026-03-21T21:50:15Z</time></trkpt><trkpt lat="-32.84657375107202" lon="151.46958545828068"><ele>61.66666666666667</ele><time>2026-03-21T21:50:16Z</time></trkpt><trkpt lat="-32.846540353739336" lon="151.4693873802332"><ele>62.0</ele><time>2026-03-21T21:50:17Z</time></trkpt><trkpt lat="-32.84651109033635" lon="151.46922403697516"><ele>62.0</ele><time>2026-03-21T21:50:18Z</time></trkpt><trkpt lat="-32.846482135261866" lon="151.46903700387324"><ele>62.0</ele><time>2026-03-21T21:50:19Z</time></trkpt><trkpt lat="-32.84645987751787" lon="151.46884639988653"><ele>62.0</ele><time>2026-03-21T21:50:20Z</time></trkpt><trkpt lat="-32.846433371630226" lon="151.46865172126118"><ele>62.333333333333336</ele><time>2026-03-21T21:50:21Z</time></trkpt><trkpt lat="-32.84639881960539" lon="151.46844016332545"><ele>62.66666666666667</ele><time>2026-03-21T21:50:22Z</time></trkpt><trkpt lat="-32.84637089996243" lon="151.46825921988182"><ele>63.0</ele><time>2026-03-21T21:50:23Z</time></trkpt><trkpt lat="-32.846341979486745" lon="151.46808062205866"><ele>63.5</ele><time>2026-03-21T21:50:24Z</time></trkpt><trkpt lat="-32.84631572648909" lon="151.46791465201028"><ele>64.0</ele><time>2026-03-21T21:50:25Z</time></trkpt><trkpt lat="-32.846290272951826" lon="151.46774907060743"><ele>64.5</ele><time>2026-03-21T21:50:26Z</time></trkpt><trkpt lat="-32.84626771299955" lon="151.46755993747905"><ele>65.0</ele><time>2026-03-21T21:50:27Z</time></trkpt><trkpt lat="-32.84625291764483" lon="151.46736213390446"><ele>65.0</ele><time>2026-03-21T21:50:28Z</time></trkpt><trkpt lat="-32.84624150143154" lon="151.467183645403"><ele>65.0</ele><time>2026-03-21T21:50:29Z</time></trkpt><trkpt lat="-32.84622305209557" lon="151.46702365171885"><ele>65.0</ele><time>2026-03-21T21:50:30Z</time></trkpt><trkpt lat="-32.846204965080425" lon="151.46686610665557"><ele>65.0</ele><time>2026-03-21T21:50:31Z</time></trkpt><trkpt lat="-32.84618916481891" lon="151.4667188378293"><ele>65.0</ele><time>2026-03-21T21:50:32Z</time></trkpt><trkpt lat="-32.846163249175106" lon="151.46654858902224"><ele>65.0</ele><time>2026-03-21T21:50:33Z</time></trkpt><trkpt lat="-32.84613978150381" lon="151.4663687431444"><ele>65.0</ele><time>2026-03-21T21:50:34Z</time></trkpt><trkpt lat="-32.84610797288063" lon="151.46618082435188"><ele>65.0</ele><time>2026-03-21T21:50:35Z</time></trkpt><trkpt lat="-32.84607807639019" lon="151.46600582256903"><ele>65.0</ele><time>2026-03-21T21:50:36Z</time></trkpt><trkpt lat="-32.846056982328655" lon="151.46586415011507"><ele>65.0</ele><time>2026-03-21T21:50:37Z</time></trkpt><trkpt lat="-32.84604000063435" lon="151.46574569938122"><ele>65.0</ele><time>2026-03-21T21:50:38Z</time></trkpt><trkpt lat="-32.846023536940606" lon="151.46564834342968"><ele>65.0</ele><time>2026-03-21T21:50:39Z</time></trkpt><trkpt lat="-32.846009767114325" lon="151.46556809770107"><ele>65.0</ele><time>2026-03-21T21:50:40Z</time></trkpt><trkpt lat="-32.845989337355995" lon="151.46546116991513"><ele>65.0</ele><time>2026-03-21T21:50:42Z</time></trkpt><trkpt lat="-32.845994330722014" lon="151.46534380183783"><ele>65.0</ele><time>2026-03-21T21:50:45Z</time></trkpt><trkpt lat="-32.84599637693993" lon="151.46525879642306"><ele>65.0</ele><time>2026-03-21T21:50:47Z</time></trkpt><trkpt lat="-32.84596471667586" lon="151.46514793984392"><ele>65.0</ele><time>2026-03-21T21:50:49Z</time></trkpt><trkpt lat="-32.84617886791701" lon="151.46506479303756"><ele>65.33333333333334</ele><time>2026-03-21T21:50:50Z</time></trkpt><trkpt lat="-32.84627970127847" lon="151.4650207253282"><ele>65.66666666666667</ele><time>2026-03-21T21:50:53Z</time></trkpt><trkpt lat="-32.84631395990619" lon="151.46495744170755"><ele>66.0</ele><time>2026-03-21T21:50:54Z</time></trkpt><trkpt lat="-32.84632481937463" lon="151.46487067357452"><ele>66.33333333333333</ele><time>2026-03-21T21:50:55Z</time></trkpt><trkpt lat="-32.84631442586397" lon="151.46476985997288"><ele>66.66666666666666</ele><time>2026-03-21T21:50:56Z</time></trkpt><trkpt lat="-32.8462989663112" lon="151.46465638589555"><ele>67.0</ele><time>2026-03-21T21:50:57Z</time></trkpt><trkpt lat="-32.8462668836546" lon="151.4645274817689"><ele>67.2</ele><time>2026-03-21T21:50:58Z</time></trkpt><trkpt lat="-32.84623516988239" lon="151.46441390072007"><ele>67.4</ele><time>2026-03-21T21:50:59Z</time></trkpt><trkpt lat="-32.84622761258941" lon="151.46430396536974"><ele>67.6</ele><time>2026-03-21T21:51:00Z</time></trkpt><trkpt lat="-32.84624777328203" lon="151.464171117261"><ele>67.8</ele><time>2026-03-21T21:51:01Z</time></trkpt><trkpt lat="-32.846292295280364" lon="151.46404243016053"><ele>68.0</ele><time>2026-03-21T21:51:02Z</time></trkpt><trkpt lat="-32.846341044354105" lon="151.46390045077203"><ele>67.75</ele><time>2026-03-21T21:51:03Z</time></trkpt><trkpt lat="-32.846363437239425" lon="151.46375873402303"><ele>67.5</ele><time>2026-03-21T21:51:04Z</time></trkpt><trkpt lat="-32.84637369278464" lon="151.46357949051674"><ele>67.25</ele><time>2026-03-21T21:51:05Z</time></trkpt><trkpt lat="-32.84637403420689" lon="151.46337988746708"><ele>67.0</ele><time>2026-03-21T21:51:06Z</time></trkpt><trkpt lat="-32.84636362086936" lon="151.4632348974145"><ele>67.0</ele><time>2026-03-21T21:51:07Z</time></trkpt><trkpt lat="-32.84636998826111" lon="151.4631275279963"><ele>67.0</ele><time>2026-03-21T21:51:08Z</time></trkpt><trkpt lat="-32.84641142325171" lon="151.46303888442694"><ele>67.0</ele><time>2026-03-21T21:51:09Z</time></trkpt><trkpt lat="-32.84648892276338" lon="151.46296306514785"><ele>67.0</ele><time>2026-03-21T21:51:10Z</time></trkpt><trkpt lat="-32.846590180363854" lon="151.46287709737345"><ele>67.0</ele><time>2026-03-21T21:51:10.999Z</time></trkpt><trkpt lat="-32.84670002684041" lon="151.462788019468"><ele>66.25</ele><time>2026-03-21T21:51:11.999Z</time></trkpt><trkpt lat="-32.84680475751042" lon="151.46267872070987"><ele>65.5</ele><time>2026-03-21T21:51:12.999Z</time></trkpt><trkpt lat="-32.84690280093242" lon="151.4626016043294"><ele>64.75</ele><time>2026-03-21T21:51:13.999Z</time></trkpt><trkpt lat="-32.847024699535964" lon="151.46253042345154"><ele>64.0</ele><time>2026-03-21T21:51:14.999Z</time></trkpt><trkpt lat="-32.84711883292069" lon="151.46246681693964"><ele>64.0</ele><time>2026-03-21T21:51:15.999Z</time></trkpt><trkpt lat="-32.84721065188817" lon="151.46237658446398"><ele>64.0</ele><time>2026-03-21T21:51:16.999Z</time></trkpt><trkpt lat="-32.847284142237065" lon="151.46226637364032"><ele>64.0</ele><time>2026-03-21T21:51:17.999Z</time></trkpt><trkpt lat="-32.847324732933984" lon="151.46215829871437"><ele>64.0</ele><time>2026-03-21T21:51:18.999Z</time></trkpt><trkpt lat="-32.84738769602307" lon="151.46208010715867"><ele>64.0</ele><time>2026-03-21T21:51:19.999Z</time></trkpt><trkpt lat="-32.84747018547805" lon="151.46202424339518"><ele>63.75</ele><time>2026-03-21T21:51:20.999Z</time></trkpt><trkpt lat="-32.84756393883574" lon="151.4619453302453"><ele>63.5</ele><time>2026-03-21T21:51:21.999Z</time></trkpt><trkpt lat="-32.84762845758652" lon="151.46183049294808"><ele>63.25</ele><time>2026-03-21T21:51:22.999Z</time></trkpt><trkpt lat="-32.84769722365845" lon="151.46170110869727"><ele>63.0</ele><time>2026-03-21T21:51:23.999Z</time></trkpt><trkpt lat="-32.84776581064456" lon="151.46158211065566"><ele>63.0</ele><time>2026-03-21T21:51:24.999Z</time></trkpt><trkpt lat="-32.847828127294406" lon="151.4614489768546"><ele>63.0</ele><time>2026-03-21T21:51:25.999Z</time></trkpt><trkpt lat="-32.84787591396026" lon="151.46129835353284"><ele>63.0</ele><time>2026-03-21T21:51:26.999Z</time></trkpt><trkpt lat="-32.84791605214074" lon="151.4611606565155"><ele>63.0</ele><time>2026-03-21T21:51:27.999Z</time></trkpt><trkpt lat="-32.8479602773644" lon="151.46104734487125"><ele>62.8</ele><time>2026-03-21T21:51:28.999Z</time></trkpt><trkpt lat="-32.84801180821004" lon="151.46095307149048"><ele>62.599999999999994</ele><time>2026-03-21T21:51:29.999Z</time></trkpt><trkpt lat="-32.848075863785844" lon="151.4608803048688"><ele>62.400000000000006</ele><time>2026-03-21T21:51:30.999Z</time></trkpt><trkpt lat="-32.848151796557595" lon="151.4608102864254"><ele>62.2</ele><time>2026-03-21T21:51:31.999Z</time></trkpt><trkpt lat="-32.848239962247206" lon="151.4607529277699"><ele>62.0</ele><time>2026-03-21T21:51:32.999Z</time></trkpt><trkpt lat="-32.848334407945934" lon="151.4607577688208"><ele>62.0</ele><time>2026-03-21T21:51:33.999Z</time></trkpt><trkpt lat="-32.84844259510086" lon="151.46077554842856"><ele>62.0</ele><time>2026-03-21T21:51:34.999Z</time></trkpt><trkpt lat="-32.84854269247415" lon="151.46078237039134"><ele>62.0</ele><time>2026-03-21T21:51:35.999Z</time></trkpt><trkpt lat="-32.84865307866219" lon="151.46075868345415"><ele>62.0</ele><time>2026-03-21T21:51:36.999Z</time></trkpt><trkpt lat="-32.84876430537217" lon="151.46069119840186"><ele>62.0</ele><time>2026-03-21T21:51:37.999Z</time></trkpt><trkpt lat="-32.84887441444648" lon="151.46065404473913"><ele>63.25</ele><time>2026-03-21T21:51:38.999Z</time></trkpt><trkpt lat="-32.84899314194196" lon="151.46065705999789"><ele>64.5</ele><time>2026-03-21T21:51:39.999Z</time></trkpt><trkpt lat="-32.84910999084808" lon="151.4606482941511"><ele>65.75</ele><time>2026-03-21T21:51:40.999Z</time></trkpt><trkpt lat="-32.849220706525095" lon="151.46058211006357"><ele>67.0</ele><time>2026-03-21T21:51:41.999Z</time></trkpt><trkpt lat="-32.84933849958976" lon="151.46049149943843"><ele>67.5</ele><time>2026-03-21T21:51:42.999Z</time></trkpt><trkpt lat="-32.84945316942282" lon="151.46043049064613"><ele>68.0</ele><time>2026-03-21T21:51:43.999Z</time></trkpt><trkpt lat="-32.84958485564399" lon="151.4603831406352"><ele>68.5</ele><time>2026-03-21T21:51:44.999Z</time></trkpt><trkpt lat="-32.84971812647359" lon="151.46035314656112"><ele>69.0</ele><time>2026-03-21T21:51:45.999Z</time></trkpt><trkpt lat="-32.849840309298365" lon="151.46033439681608"><ele>69.0</ele><time>2026-03-21T21:51:46.999Z</time></trkpt><trkpt lat="-32.84994965970998" lon="151.46032315116793"><ele>69.0</ele><time>2026-03-21T21:51:47.999Z</time></trkpt><trkpt lat="-32.850051519035304" lon="151.46030629898252"><ele>69.0</ele><time>2026-03-21T21:51:48.999Z</time></trkpt><trkpt lat="-32.850181590083075" lon="151.4602893784942"><ele>69.0</ele><time>2026-03-21T21:51:49.999Z</time></trkpt><trkpt lat="-32.850316409251555" lon="151.46025280033945"><ele>69.2</ele><time>2026-03-21T21:51:50.999Z</time></trkpt><trkpt lat="-32.850442435691775" lon="151.46021842138148"><ele>69.4</ele><time>2026-03-21T21:51:51.999Z</time></trkpt><trkpt lat="-32.850523155794065" lon="151.4601512733303"><ele>69.6</ele><time>2026-03-21T21:51:52.999Z</time></trkpt><trkpt lat="-32.8505993506365" lon="151.46005370143757"><ele>69.8</ele><time>2026-03-21T21:51:53.999Z</time></trkpt><trkpt lat="-32.8506717499929" lon="151.45996352619332"><ele>70.0</ele><time>2026-03-21T21:51:54.999Z</time></trkpt><trkpt lat="-32.85076436542479" lon="151.4598897920772"><ele>70.0</ele><time>2026-03-21T21:51:55.999Z</time></trkpt><trkpt lat="-32.85087786215482" lon="151.45982394696844"><ele>70.0</ele><time>2026-03-21T21:51:56.999Z</time></trkpt><trkpt lat="-32.850998852310305" lon="151.4597666716082"><ele>70.0</ele><time>2026-03-21T21:51:57.999Z</time></trkpt><trkpt lat="-32.85111238453283" lon="151.45968480508674"><ele>70.0</ele><time>2026-03-21T21:51:58.999Z</time></trkpt><trkpt lat="-32.851199524802624" lon="151.45959824381845"><ele>71.2</ele><time>2026-03-21T21:51:59.999Z</time></trkpt><trkpt lat="-32.85126101528648" lon="151.4595012118084"><ele>72.4</ele><time>2026-03-21T21:52:00.999Z</time></trkpt><trkpt lat="-32.85133720928888" lon="151.45946240803048"><ele>73.6</ele><time>2026-03-21T21:52:01.999Z</time></trkpt><trkpt lat="-32.85144519249413" lon="151.45943610898888"><ele>74.8</ele><time>2026-03-21T21:52:02.999Z</time></trkpt><trkpt lat="-32.85158256660782" lon="151.45944070476943"><ele>76.0</ele><time>2026-03-21T21:52:03.999Z</time></trkpt><trkpt lat="-32.851683814306526" lon="151.4594518885804"><ele>76.0</ele><time>2026-03-21T21:52:04.999Z</time></trkpt><trkpt lat="-32.85178092828137" lon="151.45944162765852"><ele>76.0</ele><time>2026-03-21T21:52:05.999Z</time></trkpt><trkpt lat="-32.85188807219207" lon="151.4594402238474"><ele>76.0</ele><time>2026-03-21T21:52:06.999Z</time></trkpt><trkpt lat="-32.851984177183446" lon="151.45940168071579"><ele>76.0</ele><time>2026-03-21T21:52:07.999Z</time></trkpt><trkpt lat="-32.852075055641244" lon="151.45935877946357"><ele>76.0</ele><time>2026-03-21T21:52:08.999Z</time></trkpt><trkpt lat="-32.85217473961282" lon="151.45928651957428"><ele>75.75</ele><time>2026-03-21T21:52:09.999Z</time></trkpt><trkpt lat="-32.85226862284858" lon="151.45918718038632"><ele>75.5</ele><time>2026-03-21T21:52:10.999Z</time></trkpt><trkpt lat="-32.852365485523656" lon="151.45909466673987"><ele>75.25</ele><time>2026-03-21T21:52:11.999Z</time></trkpt><trkpt lat="-32.8524727699825" lon="151.4589868958381"><ele>75.0</ele><time>2026-03-21T21:52:12.999Z</time></trkpt><trkpt lat="-32.85258099464353" lon="151.45889345241116"><ele>74.25</ele><time>2026-03-21T21:52:13.999Z</time></trkpt><trkpt lat="-32.85267999948139" lon="151.45881931329927"><ele>73.5</ele><time>2026-03-21T21:52:14.999Z</time></trkpt><trkpt lat="-32.852770108745936" lon="151.45875454671543"><ele>72.75</ele><time>2026-03-21T21:52:15.999Z</time></trkpt><trkpt lat="-32.852839406022376" lon="151.4586725194885"><ele>72.0</ele><time>2026-03-21T21:52:16.999Z</time></trkpt><trkpt lat="-32.85292232473549" lon="151.45854990797932"><ele>72.0</ele><time>2026-03-21T21:52:17.999Z</time></trkpt><trkpt lat="-32.85300051460641" lon="151.45843120787842"><ele>72.0</ele><time>2026-03-21T21:52:19Z</time></trkpt><trkpt lat="-32.85307838558274" lon="151.45834555237582"><ele>72.0</ele><time>2026-03-21T21:52:20Z</time></trkpt><trkpt lat="-32.853167071079824" lon="151.45830000481374"><ele>72.0</ele><time>2026-03-21T21:52:21Z</time></trkpt><trkpt lat="-32.853263997118816" lon="151.45825994682951"><ele>72.0</ele><time>2026-03-21T21:52:22Z</time></trkpt><trkpt lat="-32.853361120513796" lon="151.4582408692977"><ele>72.0</ele><time>2026-03-21T21:52:23Z</time></trkpt><trkpt lat="-32.853471385991234" lon="151.45824063823454"><ele>72.0</ele><time>2026-03-21T21:52:24Z</time></trkpt><trkpt lat="-32.85356748014921" lon="151.45825189619345"><ele>72.0</ele><time>2026-03-21T21:52:25Z</time></trkpt><trkpt lat="-32.85365755316214" lon="151.45828191486305"><ele>72.0</ele><time>2026-03-21T21:52:26Z</time></trkpt><trkpt lat="-32.853740511807814" lon="151.45830003599738"><ele>72.0</ele><time>2026-03-21T21:52:27Z</time></trkpt><trkpt lat="-32.85384593189652" lon="151.4582899416279"><ele>72.0</ele><time>2026-03-21T21:52:29Z</time></trkpt><trkpt lat="-32.85392585076403" lon="151.45822031175447"><ele>72.0</ele><time>2026-03-21T21:52:31Z</time></trkpt><trkpt lat="-32.854002360028346" lon="151.45817082704892"><ele>72.0</ele><time>2026-03-21T21:52:32Z</time></trkpt><trkpt lat="-32.85408705661183" lon="151.45814094479437"><ele>72.0</ele><time>2026-03-21T21:52:33Z</time></trkpt><trkpt lat="-32.854168654819006" lon="151.45811538239198"><ele>72.0</ele><time>2026-03-21T21:52:34Z</time></trkpt><trkpt lat="-32.85425923118585" lon="151.45810775504896"><ele>71.8</ele><time>2026-03-21T21:52:35Z</time></trkpt><trkpt lat="-32.854360887843924" lon="151.458056035726"><ele>71.6</ele><time>2026-03-21T21:52:36Z</time></trkpt><trkpt lat="-32.85446033628238" lon="151.4580119178647"><ele>71.39999999999999</ele><time>2026-03-21T21:52:37Z</time></trkpt><trkpt lat="-32.854568937201705" lon="151.45801472562727"><ele>71.2</ele><time>2026-03-21T21:52:38Z</time></trkpt><trkpt lat="-32.85467755318494" lon="151.45801390367137"><ele>71.0</ele><time>2026-03-21T21:52:39Z</time></trkpt><trkpt lat="-32.85476574999093" lon="151.45797898939665"><ele>71.2</ele><time>2026-03-21T21:52:40Z</time></trkpt><trkpt lat="-32.854858085437364" lon="151.4579270915352"><ele>71.39999999999999</ele><time>2026-03-21T21:52:41Z</time></trkpt><trkpt lat="-32.85494816349129" lon="151.45791435997887"><ele>71.6</ele><time>2026-03-21T21:52:42Z</time></trkpt><trkpt lat="-32.855030785208704" lon="151.45794254744263"><ele>71.8</ele><time>2026-03-21T21:52:43Z</time></trkpt><trkpt lat="-32.8551327922887" lon="151.45799021810745"><ele>72.0</ele><time>2026-03-21T21:52:44Z</time></trkpt><trkpt lat="-32.85523514922434" lon="151.45803661589687"><ele>72.5</ele><time>2026-03-21T21:52:45Z</time></trkpt><trkpt lat="-32.855336127353354" lon="151.4580410759463"><ele>73.0</ele><time>2026-03-21T21:52:46Z</time></trkpt><trkpt lat="-32.855434814748854" lon="151.45800751108763"><ele>73.5</ele><time>2026-03-21T21:52:47Z</time></trkpt><trkpt lat="-32.85557148746974" lon="151.45798992854156"><ele>74.0</ele><time>2026-03-21T21:52:48Z</time></trkpt><trkpt lat="-32.85568427738148" lon="151.4579662618257"><ele>74.16666666666667</ele><time>2026-03-21T21:52:49Z</time></trkpt><trkpt lat="-32.85578437934926" lon="151.45794300523303"><ele>74.33333333333334</ele><time>2026-03-21T21:52:50Z</time></trkpt><trkpt lat="-32.855865993586285" lon="151.45792828695858"><ele>74.5</ele><time>2026-03-21T21:52:51Z</time></trkpt><trkpt lat="-32.85593880087228" lon="151.45789550681934"><ele>74.66666666666667</ele><time>2026-03-21T21:52:52Z</time></trkpt><trkpt lat="-32.85599433292571" lon="151.45785019805245"><ele>74.83333333333333</ele><time>2026-03-21T21:52:53Z</time></trkpt><trkpt lat="-32.85606395415121" lon="151.45779457592664"><ele>75.0</ele><time>2026-03-21T21:52:54Z</time></trkpt><trkpt lat="-32.856126623167604" lon="151.45774529622435"><ele>75.4</ele><time>2026-03-21T21:52:55Z</time></trkpt><trkpt lat="-32.856221971146006" lon="151.4576822383546"><ele>75.8</ele><time>2026-03-21T21:52:56Z</time></trkpt><trkpt lat="-32.85630577835427" lon="151.45762503168038"><ele>76.2</ele><time>2026-03-21T21:52:57Z</time></trkpt><trkpt lat="-32.856323655930396" lon="151.45748103828592"><ele>76.6</ele><time>2026-03-21T21:52:59Z</time></trkpt><trkpt lat="-32.85631122732201" lon="151.45737772165657"><ele>77.0</ele><time>2026-03-21T21:53:00Z</time></trkpt><trkpt lat="-32.85627788164014" lon="151.45724742686411"><ele>77.0</ele><time>2026-03-21T21:53:01Z</time></trkpt><trkpt lat="-32.856240577818596" lon="151.45710018697554"><ele>77.0</ele><time>2026-03-21T21:53:02Z</time></trkpt><trkpt lat="-32.8562129418066" lon="151.45697909253667"><ele>77.0</ele><time>2026-03-21T21:53:03Z</time></trkpt><trkpt lat="-32.856186447832876" lon="151.45686347956067"><ele>77.0</ele><time>2026-03-21T21:53:04Z</time></trkpt><trkpt lat="-32.856163823916674" lon="151.4567551259185"><ele>77.0</ele><time>2026-03-21T21:53:05Z</time></trkpt><trkpt lat="-32.85615209736717" lon="151.4566468956507"><ele>77.0</ele><time>2026-03-21T21:53:06Z</time></trkpt><trkpt lat="-32.85614456164264" lon="151.45655273698242"><ele>77.0</ele><time>2026-03-21T21:53:07Z</time></trkpt><trkpt lat="-32.85613112043437" lon="151.4564339755332"><ele>77.0</ele><time>2026-03-21T21:53:08Z</time></trkpt><trkpt lat="-32.85612618519532" lon="151.45631601629816"><ele>77.0</ele><time>2026-03-21T21:53:09Z</time></trkpt><trkpt lat="-32.85611761152728" lon="151.4562160542703"><ele>77.0</ele><time>2026-03-21T21:53:09.999Z</time></trkpt><trkpt lat="-32.85609973252208" lon="151.45610524457135"><ele>76.66666666666667</ele><time>2026-03-21T21:53:10.999Z</time></trkpt><trkpt lat="-32.85608918165616" lon="151.45597757078627"><ele>76.33333333333334</ele><time>2026-03-21T21:53:11.999Z</time></trkpt><trkpt lat="-32.856070028010244" lon="151.4558732928561"><ele>76.0</ele><time>2026-03-21T21:53:12.999Z</time></trkpt><trkpt lat="-32.856039242586064" lon="151.4557865330784"><ele>75.66666666666667</ele><time>2026-03-21T21:53:13.999Z</time></trkpt><trkpt lat="-32.85601305868446" lon="151.45571276242387"><ele>75.33333333333333</ele><time>2026-03-21T21:53:14.999Z</time></trkpt><trkpt lat="-32.856001825299884" lon="151.45563005751987"><ele>75.0</ele><time>2026-03-21T21:53:15.999Z</time></trkpt><trkpt lat="-32.855991557445655" lon="151.4555299527351"><ele>74.2</ele><time>2026-03-21T21:53:16.999Z</time></trkpt><trkpt lat="-32.85600852531679" lon="151.455410284693"><ele>73.4</ele><time>2026-03-21T21:53:17.999Z</time></trkpt><trkpt lat="-32.856045281711374" lon="151.4552836681"><ele>72.6</ele><time>2026-03-21T21:53:18.999Z</time></trkpt><trkpt lat="-32.85606285203447" lon="151.45516549183324"><ele>71.8</ele><time>2026-03-21T21:53:19.999Z</time></trkpt><trkpt lat="-32.85604922049239" lon="151.45503842558367"><ele>71.0</ele><time>2026-03-21T21:53:20.999Z</time></trkpt><trkpt lat="-32.85602636998154" lon="151.45491121136195"><ele>71.0</ele><time>2026-03-21T21:53:21.999Z</time></trkpt><trkpt lat="-32.85602784371379" lon="151.45480171434522"><ele>71.0</ele><time>2026-03-21T21:53:22.999Z</time></trkpt><trkpt lat="-32.85600311012505" lon="151.4546903256593"><ele>71.0</ele><time>2026-03-21T21:53:23.999Z</time></trkpt><trkpt lat="-32.855949892359284" lon="151.45463686634986"><ele>71.0</ele><time>2026-03-21T21:53:24.999Z</time></trkpt><trkpt lat="-32.85586900705951" lon="151.45459013860867"><ele>71.0</ele><time>2026-03-21T21:53:25.999Z</time></trkpt><trkpt lat="-32.85580914493106" lon="151.45455086223433"><ele>71.0</ele><time>2026-03-21T21:53:26.999Z</time></trkpt><trkpt lat="-32.85579312796593" lon="151.45442660401145"><ele>70.0</ele><time>2026-03-21T21:53:28.999Z</time></trkpt><trkpt lat="-32.85577105743801" lon="151.454269446384"><ele>69.0</ele><time>2026-03-21T21:53:30.999Z</time></trkpt><trkpt lat="-32.85573953403037" lon="151.45419307721173"><ele>68.0</ele><time>2026-03-21T21:53:31.999Z</time></trkpt><trkpt lat="-32.85571398531252" lon="151.45410050888876"><ele>67.0</ele><time>2026-03-21T21:53:32.999Z</time></trkpt><trkpt lat="-32.855711857539305" lon="151.45402165158237"><ele>66.0</ele><time>2026-03-21T21:53:33.999Z</time></trkpt><trkpt lat="-32.85572092123135" lon="151.45389996712652"><ele>66.0</ele><time>2026-03-21T21:53:34.999Z</time></trkpt><trkpt lat="-32.85573105728007" lon="151.45379393757938"><ele>66.0</ele><time>2026-03-21T21:53:35.999Z</time></trkpt><trkpt lat="-32.8557265382086" lon="151.45370887973166"><ele>66.0</ele><time>2026-03-21T21:53:36.999Z</time></trkpt><trkpt lat="-32.85571833106403" lon="151.45363430144374"><ele>66.0</ele><time>2026-03-21T21:53:37.999Z</time></trkpt><trkpt lat="-32.85568002110736" lon="151.45353715431955"><ele>66.0</ele><time>2026-03-21T21:53:40.999Z</time></trkpt><trkpt lat="-32.85566000852145" lon="151.45346170451052"><ele>66.0</ele><time>2026-03-21T21:53:41.999Z</time></trkpt><trkpt lat="-32.855617499167" lon="151.45332775822996"><ele>65.16666666666667</ele><time>2026-03-21T21:53:43.999Z</time></trkpt><trkpt lat="-32.85560089925391" lon="151.45324383112379"><ele>64.33333333333333</ele><time>2026-03-21T21:53:44.999Z</time></trkpt><trkpt lat="-32.85560216581095" lon="151.45315067787365"><ele>63.5</ele><time>2026-03-21T21:53:45.999Z</time></trkpt><trkpt lat="-32.85564356454062" lon="151.45307173536176"><ele>62.666666666666664</ele><time>2026-03-21T21:53:46.999Z</time></trkpt><trkpt lat="-32.8557022728175" lon="151.4530172562168"><ele>61.83333333333333</ele><time>2026-03-21T21:53:47.999Z</time></trkpt><trkpt lat="-32.855742694037204" lon="151.4529534477785"><ele>61.0</ele><time>2026-03-21T21:53:48.999Z</time></trkpt><trkpt lat="-32.855704782463555" lon="151.4527788936601"><ele>60.599999999999994</ele><time>2026-03-21T21:53:50.999Z</time></trkpt><trkpt lat="-32.85567124389567" lon="151.45266168960973"><ele>60.199999999999996</ele><time>2026-03-21T21:53:51.999Z</time></trkpt><trkpt lat="-32.85563353336528" lon="151.45256500493159"><ele>59.800000000000004</ele><time>2026-03-21T21:53:52.999Z</time></trkpt><trkpt lat="-32.855587926916776" lon="151.4525028298281"><ele>59.400000000000006</ele><time>2026-03-21T21:53:53.999Z</time></trkpt><trkpt lat="-32.85550877322021" lon="151.45235731084946"><ele>59.0</ele><time>2026-03-21T21:53:55.999Z</time></trkpt><trkpt lat="-32.85552270779349" lon="151.45221590604405"><ele>59.00000000000001</ele><time>2026-03-21T21:53:57.999Z</time></trkpt><trkpt lat="-32.85553335038672" lon="151.45213169117375"><ele>59.0</ele><time>2026-03-21T21:53:58.999Z</time></trkpt><trkpt lat="-32.855513902637405" lon="151.4520346519179"><ele>59.0</ele><time>2026-03-21T21:53:59.999Z</time></trkpt><trkpt lat="-32.85549569197315" lon="151.4519541172876"><ele>59.0</ele><time>2026-03-21T21:54:00.999Z</time></trkpt><trkpt lat="-32.85549745003362" lon="151.45184311871245"><ele>59.00000000000001</ele><time>2026-03-21T21:54:02.999Z</time></trkpt><trkpt lat="-32.85550415483733" lon="151.45175586904358"><ele>59.0</ele><time>2026-03-21T21:54:04.999Z</time></trkpt><trkpt lat="-32.855438141389236" lon="151.45172267926503"><ele>60.50000000000001</ele><time>2026-03-21T21:55:42.999Z</time></trkpt><trkpt lat="-32.8554825271556" lon="151.45165914212404"><ele>62.0</ele><time>2026-03-21T21:55:46.999Z</time></trkpt><trkpt lat="-32.85553291742223" lon="151.45161398481812"><ele>63.5</ele><time>2026-03-21T21:55:48.999Z</time></trkpt><trkpt lat="-32.85551721531091" lon="151.45149119627746"><ele>65.0</ele><time>2026-03-21T21:55:50.999Z</time></trkpt><trkpt lat="-32.8554881008163" lon="151.4514174595976"><ele>66.5</ele><time>2026-03-21T21:55:51.999Z</time></trkpt><trkpt lat="-32.855467326245474" lon="151.45133049989218"><ele>68.0</ele><time>2026-03-21T21:55:52.999Z</time></trkpt><trkpt lat="-32.855448618473524" lon="151.45122018526715"><ele>69.0</ele><time>2026-03-21T21:55:53.999Z</time></trkpt><trkpt lat="-32.85543229996464" lon="151.45108108329558"><ele>70.0</ele><time>2026-03-21T21:55:54.999Z</time></trkpt><trkpt lat="-32.855407384105874" lon="151.45092340455824"><ele>71.0</ele><time>2026-03-21T21:55:55.999Z</time></trkpt><trkpt lat="-32.855384080608786" lon="151.4507851664314"><ele>72.0</ele><time>2026-03-21T21:55:56.999Z</time></trkpt><trkpt lat="-32.85536451266132" lon="151.45066298130223"><ele>72.0</ele><time>2026-03-21T21:55:57.999Z</time></trkpt><trkpt lat="-32.85533973553264" lon="151.4505454523195"><ele>72.0</ele><time>2026-03-21T21:55:58.999Z</time></trkpt><trkpt lat="-32.855316463768425" lon="151.45042493290077"><ele>72.0</ele><time>2026-03-21T21:55:59.999Z</time></trkpt><trkpt lat="-32.855303647995676" lon="151.45030286947957"><ele>72.0</ele><time>2026-03-21T21:56:00.999Z</time></trkpt><trkpt lat="-32.85528086630233" lon="151.45016570117187"><ele>72.0</ele><time>2026-03-21T21:56:01.999Z</time></trkpt><trkpt lat="-32.855265152376965" lon="151.45001568187763"><ele>72.8</ele><time>2026-03-21T21:56:02.999Z</time></trkpt><trkpt lat="-32.85524788724217" lon="151.4498909567831"><ele>73.6</ele><time>2026-03-21T21:56:03.999Z</time></trkpt><trkpt lat="-32.85523050956101" lon="151.44977481930724"><ele>74.39999999999999</ele><time>2026-03-21T21:56:04.999Z</time></trkpt><trkpt lat="-32.855214386185445" lon="151.44964063034337"><ele>75.2</ele><time>2026-03-21T21:56:05.999Z</time></trkpt><trkpt lat="-32.85520024487549" lon="151.44950619380975"><ele>76.0</ele><time>2026-03-21T21:56:06.999Z</time></trkpt><trkpt lat="-32.85517790534596" lon="151.44935789816793"><ele>76.2</ele><time>2026-03-21T21:56:07.999Z</time></trkpt><trkpt lat="-32.85515884385491" lon="151.44924319192907"><ele>76.39999999999999</ele><time>2026-03-21T21:56:08.999Z</time></trkpt><trkpt lat="-32.85513280629468" lon="151.4491210174424"><ele>76.6</ele><time>2026-03-21T21:56:09.999Z</time></trkpt><trkpt lat="-32.855117309506724" lon="151.44900507954725"><ele>76.8</ele><time>2026-03-21T21:56:10.999Z</time></trkpt><trkpt lat="-32.855102894502714" lon="151.44888040889813"><ele>77.0</ele><time>2026-03-21T21:56:11.999Z</time></trkpt><trkpt lat="-32.8550754643336" lon="151.44877489745824"><ele>76.2</ele><time>2026-03-21T21:56:12.999Z</time></trkpt><trkpt lat="-32.85507090558651" lon="151.44864482810505"><ele>75.4</ele><time>2026-03-21T21:56:13.999Z</time></trkpt><trkpt lat="-32.855070922503096" lon="151.44852811778114"><ele>74.6</ele><time>2026-03-21T21:56:14.999Z</time></trkpt><trkpt lat="-32.855055509554596" lon="151.4483961604665"><ele>73.8</ele><time>2026-03-21T21:56:15.999Z</time></trkpt><trkpt lat="-32.85503520994841" lon="151.4482594865507"><ele>73.0</ele><time>2026-03-21T21:56:16.999Z</time></trkpt><trkpt lat="-32.855018581677356" lon="151.44814564651992"><ele>73.0</ele><time>2026-03-21T21:56:17.999Z</time></trkpt><trkpt lat="-32.854998768058785" lon="151.44803185412036"><ele>73.0</ele><time>2026-03-21T21:56:18.999Z</time></trkpt><trkpt lat="-32.85498506173437" lon="151.44792457417458"><ele>73.0</ele><time>2026-03-21T21:56:19.999Z</time></trkpt><trkpt lat="-32.85497097358501" lon="151.4478194842077"><ele>73.0</ele><time>2026-03-21T21:56:20.999Z</time></trkpt><trkpt lat="-32.85494852984353" lon="151.447701032307"><ele>73.0</ele><time>2026-03-21T21:56:21.999Z</time></trkpt><trkpt lat="-32.854923489542806" lon="151.44759095896552"><ele>73.25</ele><time>2026-03-21T21:56:22.999Z</time></trkpt><trkpt lat="-32.85490843989012" lon="151.44747192612027"><ele>73.5</ele><time>2026-03-21T21:56:23.999Z</time></trkpt><trkpt lat="-32.85487989739976" lon="151.44734352523326"><ele>73.75</ele><time>2026-03-21T21:56:24.999Z</time></trkpt><trkpt lat="-32.85485054642785" lon="151.44717085350842"><ele>74.0</ele><time>2026-03-21T21:56:25.999Z</time></trkpt><trkpt lat="-32.85483687577364" lon="151.44702288769773"><ele>75.6</ele><time>2026-03-21T21:56:26.999Z</time></trkpt><trkpt lat="-32.854830104224625" lon="151.44689340071147"><ele>77.2</ele><time>2026-03-21T21:56:27.999Z</time></trkpt><trkpt lat="-32.85481530253361" lon="151.44679192988812"><ele>78.8</ele><time>2026-03-21T21:56:28.999Z</time></trkpt><trkpt lat="-32.85480465540395" lon="151.44666654266084"><ele>80.39999999999999</ele><time>2026-03-21T21:56:29.999Z</time></trkpt><trkpt lat="-32.85478211092751" lon="151.44655487328285"><ele>82.0</ele><time>2026-03-21T21:56:31Z</time></trkpt><trkpt lat="-32.85476441822947" lon="151.446464280824"><ele>82.0</ele><time>2026-03-21T21:56:32Z</time></trkpt><trkpt lat="-32.85474355648475" lon="151.44637717067724"><ele>82.0</ele><time>2026-03-21T21:56:33Z</time></trkpt><trkpt lat="-32.854715569215735" lon="151.4462927471468"><ele>82.0</ele><time>2026-03-21T21:56:34Z</time></trkpt><trkpt lat="-32.854689496531364" lon="151.44621268314413"><ele>82.0</ele><time>2026-03-21T21:56:35Z</time></trkpt><trkpt lat="-32.854660850545415" lon="151.44613141543212"><ele>82.0</ele><time>2026-03-21T21:56:36Z</time></trkpt><trkpt lat="-32.85463469303483" lon="151.44603816123865"><ele>82.0</ele><time>2026-03-21T21:56:37Z</time></trkpt><trkpt lat="-32.8546082283603" lon="151.44592684450407"><ele>83.6</ele><time>2026-03-21T21:56:38Z</time></trkpt><trkpt lat="-32.85457052464502" lon="151.44579245682152"><ele>85.19999999999999</ele><time>2026-03-21T21:56:39Z</time></trkpt><trkpt lat="-32.854536422121626" lon="151.4456317460186"><ele>86.8</ele><time>2026-03-21T21:56:40Z</time></trkpt><trkpt lat="-32.85452661843894" lon="151.44550428829325"><ele>88.4</ele><time>2026-03-21T21:56:41Z</time></trkpt><trkpt lat="-32.854519641319975" lon="151.44542520034"><ele>90.0</ele><time>2026-03-21T21:56:42Z</time></trkpt><trkpt lat="-32.854491731298204" lon="151.44529865826095"><ele>93.2</ele><time>2026-03-21T21:56:43Z</time></trkpt><trkpt lat="-32.85445930058132" lon="151.44518617714618"><ele>96.4</ele><time>2026-03-21T21:56:44Z</time></trkpt><trkpt lat="-32.854433196783134" lon="151.4450934236111"><ele>99.6</ele><time>2026-03-21T21:56:45Z</time></trkpt><trkpt lat="-32.854376523258345" lon="151.44497485476484"><ele>102.8</ele><time>2026-03-21T21:56:46Z</time></trkpt><trkpt lat="-32.85434749385978" lon="151.44486573506074"><ele>106.0</ele><time>2026-03-21T21:56:47Z</time></trkpt><trkpt lat="-32.854349537532364" lon="151.4447790646948"><ele>106.0</ele><time>2026-03-21T21:56:48Z</time></trkpt><trkpt lat="-32.85435257672833" lon="151.4446707052154"><ele>106.0</ele><time>2026-03-21T21:56:49Z</time></trkpt><trkpt lat="-32.85434799927885" lon="151.44457018847902"><ele>106.0</ele><time>2026-03-21T21:56:50Z</time></trkpt><trkpt lat="-32.85437594652673" lon="151.44443855936711"><ele>106.0</ele><time>2026-03-21T21:56:52Z</time></trkpt><trkpt lat="-32.854391063586675" lon="151.4443402697484"><ele>106.0</ele><time>2026-03-21T21:56:53Z</time></trkpt><trkpt lat="-32.854414788634855" lon="151.4441939546097"><ele>105.50000000000001</ele><time>2026-03-21T21:56:55Z</time></trkpt><trkpt lat="-32.85441549025964" lon="151.4441001087648"><ele>105.0</ele><time>2026-03-21T21:56:56Z</time></trkpt><trkpt lat="-32.8544113936888" lon="151.4440022456481"><ele>104.5</ele><time>2026-03-21T21:56:57Z</time></trkpt><trkpt lat="-32.85439586002086" lon="151.44390167793208"><ele>104.0</ele><time>2026-03-21T21:56:58Z</time></trkpt><trkpt lat="-32.85438632298575" lon="151.44382574829018"><ele>103.50000000000001</ele><time>2026-03-21T21:56:59Z</time></trkpt><trkpt lat="-32.85437977113007" lon="151.44369965195494"><ele>103.0</ele><time>2026-03-21T21:57:00Z</time></trkpt><trkpt lat="-32.85437011402729" lon="151.44359082637234"><ele>103.0</ele><time>2026-03-21T21:57:01Z</time></trkpt><trkpt lat="-32.854358238061536" lon="151.44347851317346"><ele>103.0</ele><time>2026-03-21T21:57:02Z</time></trkpt><trkpt lat="-32.85434648041924" lon="151.44336889263772"><ele>103.0</ele><time>2026-03-21T21:57:03Z</time></trkpt><trkpt lat="-32.8543255350419" lon="151.44326078986109"><ele>103.0</ele><time>2026-03-21T21:57:04Z</time></trkpt><trkpt lat="-32.85430459447016" lon="151.4431449980246"><ele>103.0</ele><time>2026-03-21T21:57:05Z</time></trkpt><trkpt lat="-32.85429026104503" lon="151.4430236551272"><ele>99.4</ele><time>2026-03-21T21:57:06Z</time></trkpt><trkpt lat="-32.85427858695751" lon="151.4429091267958"><ele>95.80000000000001</ele><time>2026-03-21T21:57:07Z</time></trkpt><trkpt lat="-32.854261433096696" lon="151.44279689887415"><ele>92.2</ele><time>2026-03-21T21:57:08Z</time></trkpt><trkpt lat="-32.85423902201223" lon="151.44268721853462"><ele>88.6</ele><time>2026-03-21T21:57:09Z</time></trkpt><trkpt lat="-32.85421923781764" lon="151.44255907333334"><ele>85.0</ele><time>2026-03-21T21:57:10Z</time></trkpt><trkpt lat="-32.85420311799096" lon="151.44242582088486"><ele>85.0</ele><time>2026-03-21T21:57:11Z</time></trkpt><trkpt lat="-32.85415897583576" lon="151.44227585705508"><ele>85.0</ele><time>2026-03-21T21:57:12Z</time></trkpt><trkpt lat="-32.854117603923854" lon="151.44212789502907"><ele>85.0</ele><time>2026-03-21T21:57:13Z</time></trkpt><trkpt lat="-32.85407873294746" lon="151.4419932140943"><ele>85.0</ele><time>2026-03-21T21:57:13.999Z</time></trkpt><trkpt lat="-32.85406198477197" lon="151.44188516369314"><ele>84.0</ele><time>2026-03-21T21:57:14.999Z</time></trkpt><trkpt lat="-32.85404662085827" lon="151.44175196463857"><ele>83.0</ele><time>2026-03-21T21:57:15.999Z</time></trkpt><trkpt lat="-32.85405915020025" lon="151.441635009411"><ele>82.0</ele><time>2026-03-21T21:57:16.999Z</time></trkpt><trkpt lat="-32.854073421166234" lon="151.4415214563257"><ele>81.0</ele><time>2026-03-21T21:57:17.999Z</time></trkpt><trkpt lat="-32.85407334002197" lon="151.44141518360425"><ele>80.0</ele><time>2026-03-21T21:57:18.999Z</time></trkpt><trkpt lat="-32.854077404677916" lon="151.44131087400575"><ele>79.6</ele><time>2026-03-21T21:57:19.999Z</time></trkpt><trkpt lat="-32.854096011813844" lon="151.44119038750563"><ele>79.2</ele><time>2026-03-21T21:57:20.999Z</time></trkpt><trkpt lat="-32.854136206075715" lon="151.44109965644898"><ele>78.8</ele><time>2026-03-21T21:57:21.999Z</time></trkpt><trkpt lat="-32.85415543110542" lon="151.44101014096407"><ele>78.4</ele><time>2026-03-21T21:57:22.999Z</time></trkpt><trkpt lat="-32.85415991226294" lon="151.4409213768765"><ele>78.0</ele><time>2026-03-21T21:57:23.999Z</time></trkpt><trkpt lat="-32.854178235867145" lon="151.44078411068793"><ele>78.0</ele><time>2026-03-21T21:57:25.999Z</time></trkpt><trkpt lat="-32.85422793066108" lon="151.44064607112162"><ele>78.0</ele><time>2026-03-21T21:57:27.999Z</time></trkpt><trkpt lat="-32.85426511925457" lon="151.4405485119098"><ele>78.0</ele><time>2026-03-21T21:57:28.999Z</time></trkpt><trkpt lat="-32.85429128665355" lon="151.44044513788126"><ele>78.0</ele><time>2026-03-21T21:57:29.999Z</time></trkpt><trkpt lat="-32.85430811180104" lon="151.44034042651467"><ele>78.0</ele><time>2026-03-21T21:57:30.999Z</time></trkpt><trkpt lat="-32.85431583372301" lon="151.44024540233505"><ele>78.33333333333333</ele><time>2026-03-21T21:57:31.999Z</time></trkpt><trkpt lat="-32.85429995890002" lon="151.44013809030548"><ele>78.66666666666667</ele><time>2026-03-21T21:57:32.999Z</time></trkpt><trkpt lat="-32.854260388572406" lon="151.44005748769428"><ele>79.0</ele><time>2026-03-21T21:57:33.999Z</time></trkpt><trkpt lat="-32.85421432275007" lon="151.43999350661372"><ele>79.33333333333334</ele><time>2026-03-21T21:57:34.999Z</time></trkpt><trkpt lat="-32.8541956972554" lon="151.43991841973215"><ele>79.66666666666667</ele><time>2026-03-21T21:57:35.999Z</time></trkpt><trkpt lat="-32.85419874937652" lon="151.43983712717755"><ele>80.0</ele><time>2026-03-21T21:57:36.999Z</time></trkpt><trkpt lat="-32.854175696902416" lon="151.4397476837558"><ele>79.25</ele><time>2026-03-21T21:57:37.999Z</time></trkpt><trkpt lat="-32.854125658985" lon="151.43965396231707"><ele>78.5</ele><time>2026-03-21T21:57:38.999Z</time></trkpt><trkpt lat="-32.85405492839603" lon="151.43955407731158"><ele>77.75</ele><time>2026-03-21T21:57:39.999Z</time></trkpt><trkpt lat="-32.85396325832038" lon="151.4394466752131"><ele>77.0</ele><time>2026-03-21T21:57:40.999Z</time></trkpt><trkpt lat="-32.853871828805595" lon="151.43933804541805"><ele>77.0</ele><time>2026-03-21T21:57:41.999Z</time></trkpt><trkpt lat="-32.85379865400358" lon="151.4392419014624"><ele>77.0</ele><time>2026-03-21T21:57:42.999Z</time></trkpt><trkpt lat="-32.85375029761344" lon="151.4391264017582"><ele>77.0</ele><time>2026-03-21T21:57:43.999Z</time></trkpt><trkpt lat="-32.85371745360093" lon="151.43899303379996"><ele>77.0</ele><time>2026-03-21T21:57:44.999Z</time></trkpt><trkpt lat="-32.85367450431904" lon="151.4388319073181"><ele>78.5</ele><time>2026-03-21T21:57:45.999Z</time></trkpt><trkpt lat="-32.85363127960583" lon="151.4386255877596"><ele>80.0</ele><time>2026-03-21T21:57:46.999Z</time></trkpt><trkpt lat="-32.853604267016046" lon="151.4384697173754"><ele>81.5</ele><time>2026-03-21T21:57:47.999Z</time></trkpt><trkpt lat="-32.85357289087217" lon="151.43833596712315"><ele>83.0</ele><time>2026-03-21T21:57:48.999Z</time></trkpt><trkpt lat="-32.85353212993612" lon="151.4382153508232"><ele>83.0</ele><time>2026-03-21T21:57:49.999Z</time></trkpt><trkpt lat="-32.85348310409882" lon="151.43809453650906"><ele>83.0</ele><time>2026-03-21T21:57:50.999Z</time></trkpt><trkpt lat="-32.85343912438008" lon="151.43796707801957"><ele>83.0</ele><time>2026-03-21T21:57:51.999Z</time></trkpt><trkpt lat="-32.85341029538844" lon="151.43783841172578"><ele>83.0</ele><time>2026-03-21T21:57:52.999Z</time></trkpt><trkpt lat="-32.853395107215064" lon="151.4377040871176"><ele>81.25</ele><time>2026-03-21T21:57:53.999Z</time></trkpt><trkpt lat="-32.85339288980442" lon="151.43756720777117"><ele>79.5</ele><time>2026-03-21T21:57:54.999Z</time></trkpt><trkpt lat="-32.85338745219532" lon="151.43743674249706"><ele>77.75</ele><time>2026-03-21T21:57:55.999Z</time></trkpt><trkpt lat="-32.85337537627369" lon="151.43729605602863"><ele>76.0</ele><time>2026-03-21T21:57:56.999Z</time></trkpt><trkpt lat="-32.85335693258659" lon="151.4371545373519"><ele>75.25</ele><time>2026-03-21T21:57:57.999Z</time></trkpt><trkpt lat="-32.85335241061407" lon="151.43700979436764"><ele>74.5</ele><time>2026-03-21T21:57:58.999Z</time></trkpt><trkpt lat="-32.8533235714361" lon="151.4368791281486"><ele>73.75</ele><time>2026-03-21T21:57:59.999Z</time></trkpt><trkpt lat="-32.853300116605865" lon="151.43674635830172"><ele>73.0</ele><time>2026-03-21T21:58:00.999Z</time></trkpt><trkpt lat="-32.85329471840508" lon="151.43661754346707"><ele>73.0</ele><time>2026-03-21T21:58:01.999Z</time></trkpt><trkpt lat="-32.8533147134498" lon="151.43646745379772"><ele>73.0</ele><time>2026-03-21T21:58:02.999Z</time></trkpt><trkpt lat="-32.853334803023266" lon="151.4362975374439"><ele>73.0</ele><time>2026-03-21T21:58:03.999Z</time></trkpt><trkpt lat="-32.85332869043089" lon="151.43611608015553"><ele>73.0</ele><time>2026-03-21T21:58:04.999Z</time></trkpt><trkpt lat="-32.85332173942656" lon="151.4359236145143"><ele>74.0</ele><time>2026-03-21T21:58:05.999Z</time></trkpt><trkpt lat="-32.85331517865637" lon="151.43574190547423"><ele>75.0</ele><time>2026-03-21T21:58:06.999Z</time></trkpt><trkpt lat="-32.85332966299257" lon="151.43556305174673"><ele>76.0</ele><time>2026-03-21T21:58:07.999Z</time></trkpt><trkpt lat="-32.85333499370452" lon="151.43541081899426"><ele>77.0</ele><time>2026-03-21T21:58:08.999Z</time></trkpt><trkpt lat="-32.85335879665468" lon="151.435298851154"><ele>77.6</ele><time>2026-03-21T21:58:09.999Z</time></trkpt><trkpt lat="-32.85338554377067" lon="151.43520115407452"><ele>78.2</ele><time>2026-03-21T21:58:10.999Z</time></trkpt><trkpt lat="-32.85340191317633" lon="151.43510275677548"><ele>78.8</ele><time>2026-03-21T21:58:11.999Z</time></trkpt><trkpt lat="-32.853412834729724" lon="151.43498213287845"><ele>79.4</ele><time>2026-03-21T21:58:12.999Z</time></trkpt><trkpt lat="-32.85343167181608" lon="151.43486129903923"><ele>80.0</ele><time>2026-03-21T21:58:13.999Z</time></trkpt><trkpt lat="-32.85344916322576" lon="151.4347422850546"><ele>82.75</ele><time>2026-03-21T21:58:14.999Z</time></trkpt><trkpt lat="-32.85346653409178" lon="151.43461441233416"><ele>85.5</ele><time>2026-03-21T21:58:15.999Z</time></trkpt><trkpt lat="-32.85348661888016" lon="151.43447364627207"><ele>88.25</ele><time>2026-03-21T21:58:16.999Z</time></trkpt><trkpt lat="-32.8535154418331" lon="151.4343322960859"><ele>91.0</ele><time>2026-03-21T21:58:17.999Z</time></trkpt><trkpt lat="-32.85353971335916" lon="151.43417390275033"><ele>91.0</ele><time>2026-03-21T21:58:18.999Z</time></trkpt><trkpt lat="-32.853573293351396" lon="151.43398047811021"><ele>91.0</ele><time>2026-03-21T21:58:19.999Z</time></trkpt><trkpt lat="-32.85359654151665" lon="151.433793671576"><ele>91.0</ele><time>2026-03-21T21:58:20.999Z</time></trkpt><trkpt lat="-32.85362087637095" lon="151.43366791556602"><ele>91.0</ele><time>2026-03-21T21:58:21.999Z</time></trkpt><trkpt lat="-32.853647367831236" lon="151.43350770933566"><ele>90.6</ele><time>2026-03-21T21:58:22.999Z</time></trkpt><trkpt lat="-32.85367239420383" lon="151.43336799225762"><ele>90.19999999999999</ele><time>2026-03-21T21:58:23.999Z</time></trkpt><trkpt lat="-32.85368692885247" lon="151.4332524290246"><ele>89.80000000000001</ele><time>2026-03-21T21:58:24.999Z</time></trkpt><trkpt lat="-32.85369523211335" lon="151.43314451389486"><ele>89.4</ele><time>2026-03-21T21:58:25.999Z</time></trkpt><trkpt lat="-32.85370708589305" lon="151.43301885998392"><ele>89.0</ele><time>2026-03-21T21:58:26.999Z</time></trkpt><trkpt lat="-32.85372164736323" lon="151.43290487016858"><ele>88.16666666666667</ele><time>2026-03-21T21:58:27.999Z</time></trkpt><trkpt lat="-32.85372970665049" lon="151.432810744988"><ele>87.33333333333334</ele><time>2026-03-21T21:58:28.999Z</time></trkpt><trkpt lat="-32.85373042892742" lon="151.43271353560883"><ele>86.5</ele><time>2026-03-21T21:58:29.999Z</time></trkpt><trkpt lat="-32.85372466670794" lon="151.43261648670412"><ele>85.66666666666667</ele><time>2026-03-21T21:58:30.999Z</time></trkpt><trkpt lat="-32.85370631354045" lon="151.43252615914463"><ele>84.83333333333333</ele><time>2026-03-21T21:58:31.999Z</time></trkpt><trkpt lat="-32.853691708705284" lon="151.43244790514333"><ele>84.0</ele><time>2026-03-21T21:58:32.999Z</time></trkpt><trkpt lat="-32.853691746564564" lon="151.4323102244324"><ele>84.0</ele><time>2026-03-21T21:58:34.999Z</time></trkpt><trkpt lat="-32.85373107125104" lon="151.43220968583503"><ele>84.0</ele><time>2026-03-21T21:58:37Z</time></trkpt><trkpt lat="-32.853774474604656" lon="151.4321521549777"><ele>84.0</ele><time>2026-03-21T21:58:40Z</time></trkpt><trkpt lat="-32.85380433059383" lon="151.43207111860335"><ele>84.0</ele><time>2026-03-21T21:58:53Z</time></trkpt><trkpt lat="-32.8538527926824" lon="151.43195576095806"><ele>84.0</ele><time>2026-03-21T21:58:55Z</time></trkpt><trkpt lat="-32.8538739023155" lon="151.43187890418878"><ele>84.0</ele><time>2026-03-21T21:58:56Z</time></trkpt><trkpt lat="-32.85389078434768" lon="151.43179913647597"><ele>82.4</ele><time>2026-03-21T21:58:57Z</time></trkpt><trkpt lat="-32.85390491848293" lon="151.43172475763254"><ele>80.80000000000001</ele><time>2026-03-21T21:58:58Z</time></trkpt><trkpt lat="-32.85393806952825" lon="151.43161030173147"><ele>79.19999999999999</ele><time>2026-03-21T21:59:00Z</time></trkpt><trkpt lat="-32.85396587786799" lon="151.43147333821767"><ele>77.6</ele><time>2026-03-21T21:59:02Z</time></trkpt><trkpt lat="-32.853998910149954" lon="151.43138542140287"><ele>76.0</ele><time>2026-03-21T21:59:04Z</time></trkpt><trkpt lat="-32.85397057919233" lon="151.43125239027802"><ele>74.5</ele><time>2026-03-21T21:59:06Z</time></trkpt><trkpt lat="-32.853960301740635" lon="151.4311706122076"><ele>73.0</ele><time>2026-03-21T21:59:08Z</time></trkpt><trkpt lat="-32.853965076138614" lon="151.43106823199363"><ele>71.5</ele><time>2026-03-21T21:59:10Z</time></trkpt><trkpt lat="-32.85395222617776" lon="151.4309706881563"><ele>70.0</ele><time>2026-03-21T21:59:12.999Z</time></trkpt><trkpt lat="-32.853975411056396" lon="151.4308498734749"><ele>68.5</ele><time>2026-03-21T21:59:15.999Z</time></trkpt><trkpt lat="-32.85401610581261" lon="151.43078000275847"><ele>67.0</ele><time>2026-03-21T21:59:16.999Z</time></trkpt><trkpt lat="-32.8540802151333" lon="151.4306949455262"><ele>67.0</ele><time>2026-03-21T21:59:17.999Z</time></trkpt><trkpt lat="-32.854153648274206" lon="151.4306114442834"><ele>67.0</ele><time>2026-03-21T21:59:18.999Z</time></trkpt><trkpt lat="-32.85420884243379" lon="151.4305155697658"><ele>67.0</ele><time>2026-03-21T21:59:19.999Z</time></trkpt><trkpt lat="-32.854241311500466" lon="151.4304157693699"><ele>67.0</ele><time>2026-03-21T21:59:20.999Z</time></trkpt><trkpt lat="-32.85426301194944" lon="151.43029435855348"><ele>67.0</ele><time>2026-03-21T21:59:21.999Z</time></trkpt><trkpt lat="-32.85427062988582" lon="151.43015014666128"><ele>64.25</ele><time>2026-03-21T21:59:22.999Z</time></trkpt><trkpt lat="-32.854288719706084" lon="151.43000774692206"><ele>61.5</ele><time>2026-03-21T21:59:23.999Z</time></trkpt><trkpt lat="-32.85430242760119" lon="151.42986359128787"><ele>58.75</ele><time>2026-03-21T21:59:24.999Z</time></trkpt><trkpt lat="-32.85432460994575" lon="151.4297236861758"><ele>56.0</ele><time>2026-03-21T21:59:25.999Z</time></trkpt><trkpt lat="-32.85436290100746" lon="151.42957586700712"><ele>54.75</ele><time>2026-03-21T21:59:26.999Z</time></trkpt><trkpt lat="-32.854392957469514" lon="151.4294154145584"><ele>53.5</ele><time>2026-03-21T21:59:27.999Z</time></trkpt><trkpt lat="-32.854433821973245" lon="151.42927470342963"><ele>52.25</ele><time>2026-03-21T21:59:28.999Z</time></trkpt><trkpt lat="-32.85448015546215" lon="151.42911680770712"><ele>51.0</ele><time>2026-03-21T21:59:29.999Z</time></trkpt><trkpt lat="-32.854531344151056" lon="151.42899762782105"><ele>51.0</ele><time>2026-03-21T21:59:30.999Z</time></trkpt><trkpt lat="-32.854569824303155" lon="151.42886177850312"><ele>51.0</ele><time>2026-03-21T21:59:31.999Z</time></trkpt><trkpt lat="-32.854628825914666" lon="151.42871605712034"><ele>51.0</ele><time>2026-03-21T21:59:32.999Z</time></trkpt><trkpt lat="-32.85468063682948" lon="151.42856775234614"><ele>51.0</ele><time>2026-03-21T21:59:33.999Z</time></trkpt><trkpt lat="-32.85473038035277" lon="151.42838324363993"><ele>51.0</ele><time>2026-03-21T21:59:34.999Z</time></trkpt><trkpt lat="-32.854778436724764" lon="151.42820910953589"><ele>51.0</ele><time>2026-03-21T21:59:35.999Z</time></trkpt><trkpt lat="-32.854846802392686" lon="151.42806532260892"><ele>51.0</ele><time>2026-03-21T21:59:36.999Z</time></trkpt><trkpt lat="-32.85492270876363" lon="151.42789797565916"><ele>51.0</ele><time>2026-03-21T21:59:37.999Z</time></trkpt><trkpt lat="-32.85498533655562" lon="151.4277159937823"><ele>51.0</ele><time>2026-03-21T21:59:38.999Z</time></trkpt><trkpt lat="-32.855019945950524" lon="151.4275583316755"><ele>51.0</ele><time>2026-03-21T21:59:39.999Z</time></trkpt><trkpt lat="-32.855047757066444" lon="151.42741408496403"><ele>51.0</ele><time>2026-03-21T21:59:40.999Z</time></trkpt><trkpt lat="-32.855110850331144" lon="151.42730401181328"><ele>51.75</ele><time>2026-03-21T21:59:41.999Z</time></trkpt><trkpt lat="-32.85518585869554" lon="151.42720360871718"><ele>52.5</ele><time>2026-03-21T21:59:42.999Z</time></trkpt><trkpt lat="-32.855279468390655" lon="151.42709983655152"><ele>53.25</ele><time>2026-03-21T21:59:43.999Z</time></trkpt><trkpt lat="-32.85536397756685" lon="151.4269927796949"><ele>54.0</ele><time>2026-03-21T21:59:44.999Z</time></trkpt><trkpt lat="-32.8554103191119" lon="151.42688289163448"><ele>54.25</ele><time>2026-03-21T21:59:45.999Z</time></trkpt><trkpt lat="-32.85544735179363" lon="151.4267787758424"><ele>54.5</ele><time>2026-03-21T21:59:46.999Z</time></trkpt><trkpt lat="-32.85547815402837" lon="151.42661437737465"><ele>54.75</ele><time>2026-03-21T21:59:47.999Z</time></trkpt><trkpt lat="-32.855512304640314" lon="151.42640261952218"><ele>55.0</ele><time>2026-03-21T21:59:48.999Z</time></trkpt><trkpt lat="-32.85553409493284" lon="151.42622663474785"><ele>55.75</ele><time>2026-03-21T21:59:49.999Z</time></trkpt><trkpt lat="-32.85555082950263" lon="151.42605885563574"><ele>56.5</ele><time>2026-03-21T21:59:50.999Z</time></trkpt><trkpt lat="-32.855589027224376" lon="151.4259191692416"><ele>57.25</ele><time>2026-03-21T21:59:51.999Z</time></trkpt><trkpt lat="-32.85564759658362" lon="151.42578419087"><ele>58.0</ele><time>2026-03-21T21:59:52.999Z</time></trkpt><trkpt lat="-32.855707450728566" lon="151.42565395748082"><ele>58.0</ele><time>2026-03-21T21:59:53.999Z</time></trkpt><trkpt lat="-32.855761839789984" lon="151.42553019276355"><ele>58.0</ele><time>2026-03-21T21:59:54.999Z</time></trkpt><trkpt lat="-32.85580761418331" lon="151.42535053319568"><ele>58.0</ele><time>2026-03-21T21:59:55.999Z</time></trkpt><trkpt lat="-32.85586137373709" lon="151.42514872640692"><ele>58.0</ele><time>2026-03-21T21:59:56.999Z</time></trkpt><trkpt lat="-32.85590519036129" lon="151.4249576055651"><ele>58.0</ele><time>2026-03-21T21:59:57.999Z</time></trkpt><trkpt lat="-32.85594378326027" lon="151.42480852943746"><ele>58.0</ele><time>2026-03-21T21:59:58.999Z</time></trkpt><trkpt lat="-32.855986596988295" lon="151.42465111166695"><ele>58.0</ele><time>2026-03-21T21:59:59.999Z</time></trkpt><trkpt lat="-32.85604259291269" lon="151.42446475977962"><ele>56.666666666666664</ele><time>2026-03-21T22:00:00.999Z</time></trkpt><trkpt lat="-32.85611275195177" lon="151.42423903027566"><ele>55.33333333333333</ele><time>2026-03-21T22:00:01.999Z</time></trkpt><trkpt lat="-32.85618483458824" lon="151.42402402570266"><ele>54.0</ele><time>2026-03-21T22:00:02.999Z</time></trkpt><trkpt lat="-32.85625521805492" lon="151.4238329300603"><ele>53.33333333333333</ele><time>2026-03-21T22:00:03.999Z</time></trkpt><trkpt lat="-32.856317385301665" lon="151.42365523013567"><ele>52.666666666666664</ele><time>2026-03-21T22:00:04.999Z</time></trkpt><trkpt lat="-32.856386451478826" lon="151.42345767736776"><ele>52.0</ele><time>2026-03-21T22:00:05.999Z</time></trkpt><trkpt lat="-32.856468636960436" lon="151.42328710262902"><ele>52.0</ele><time>2026-03-21T22:00:06.999Z</time></trkpt><trkpt lat="-32.85654904575517" lon="151.42312863424098"><ele>52.0</ele><time>2026-03-21T22:00:07.999Z</time></trkpt><trkpt lat="-32.85660888769097" lon="151.42297199118983"><ele>52.0</ele><time>2026-03-21T22:00:08.999Z</time></trkpt><trkpt lat="-32.85665531666455" lon="151.42280094443902"><ele>52.666666666666664</ele><time>2026-03-21T22:00:09.999Z</time></trkpt><trkpt lat="-32.85673653224445" lon="151.42258726884418"><ele>53.33333333333333</ele><time>2026-03-21T22:00:10.999Z</time></trkpt><trkpt lat="-32.85680990123329" lon="151.4223784597931"><ele>54.0</ele><time>2026-03-21T22:00:11.999Z</time></trkpt><trkpt lat="-32.85684711600793" lon="151.42219205797332"><ele>56.25</ele><time>2026-03-21T22:00:12.999Z</time></trkpt><trkpt lat="-32.85688096184552" lon="151.42200950473426"><ele>58.5</ele><time>2026-03-21T22:00:13.999Z</time></trkpt><trkpt lat="-32.856918076572875" lon="151.4218593442827"><ele>60.75</ele><time>2026-03-21T22:00:14.999Z</time></trkpt><trkpt lat="-32.8569641324561" lon="151.42170032543305"><ele>63.0</ele><time>2026-03-21T22:00:15.999Z</time></trkpt><trkpt lat="-32.85701296118385" lon="151.4215173854108"><ele>63.0</ele><time>2026-03-21T22:00:16.999Z</time></trkpt><trkpt lat="-32.857067058991014" lon="151.42133142089037"><ele>63.0</ele><time>2026-03-21T22:00:17.999Z</time></trkpt><trkpt lat="-32.85710546423782" lon="151.42118430257398"><ele>63.0</ele><time>2026-03-21T22:00:18.999Z</time></trkpt><trkpt lat="-32.85714912165095" lon="151.42103584321498"><ele>63.0</ele><time>2026-03-21T22:00:19.999Z</time></trkpt><trkpt lat="-32.857222463689155" lon="151.4208626174625"><ele>64.75</ele><time>2026-03-21T22:00:20.999Z</time></trkpt><trkpt lat="-32.85730084033762" lon="151.42071607076934"><ele>66.5</ele><time>2026-03-21T22:00:21.999Z</time></trkpt><trkpt lat="-32.857364394735285" lon="151.4205667323649"><ele>68.25</ele><time>2026-03-21T22:00:22.999Z</time></trkpt><trkpt lat="-32.85742089555445" lon="151.42040389350282"><ele>70.0</ele><time>2026-03-21T22:00:23.999Z</time></trkpt><trkpt lat="-32.8574738203691" lon="151.4202116601701"><ele>70.33333333333333</ele><time>2026-03-21T22:00:24.999Z</time></trkpt><trkpt lat="-32.857510519299026" lon="151.4200414537873"><ele>70.66666666666667</ele><time>2026-03-21T22:00:25.999Z</time></trkpt><trkpt lat="-32.857548407748894" lon="151.41986939576861"><ele>71.0</ele><time>2026-03-21T22:00:26.999Z</time></trkpt><trkpt lat="-32.85759946964427" lon="151.41967227766403"><ele>72.0</ele><time>2026-03-21T22:00:27.999Z</time></trkpt><trkpt lat="-32.85766968735119" lon="151.4195021314455"><ele>73.0</ele><time>2026-03-21T22:00:28.999Z</time></trkpt><trkpt lat="-32.857739174622736" lon="151.4193164608845"><ele>74.0</ele><time>2026-03-21T22:00:29.999Z</time></trkpt><trkpt lat="-32.85780305735436" lon="151.41913259821013"><ele>74.0</ele><time>2026-03-21T22:00:30.999Z</time></trkpt><trkpt lat="-32.857877838412755" lon="151.41891237533125"><ele>74.0</ele><time>2026-03-21T22:00:31.998Z</time></trkpt><trkpt lat="-32.857937245687474" lon="151.41874161503267"><ele>74.0</ele><time>2026-03-21T22:00:32.998Z</time></trkpt><trkpt lat="-32.85799754398707" lon="151.4185685001013"><ele>73.66666666666667</ele><time>2026-03-21T22:00:33.998Z</time></trkpt><trkpt lat="-32.8580507425821" lon="151.4183890844093"><ele>73.33333333333333</ele><time>2026-03-21T22:00:34.998Z</time></trkpt><trkpt lat="-32.858107406710936" lon="151.4181677374917"><ele>73.0</ele><time>2026-03-21T22:00:35.998Z</time></trkpt><trkpt lat="-32.858149993764805" lon="151.41796670421454"><ele>73.66666666666666</ele><time>2026-03-21T22:00:36.998Z</time></trkpt><trkpt lat="-32.85821461490427" lon="151.41777227770243"><ele>74.33333333333333</ele><time>2026-03-21T22:00:37.998Z</time></trkpt><trkpt lat="-32.85827100653564" lon="151.41760197102653"><ele>75.0</ele><time>2026-03-21T22:00:38.998Z</time></trkpt><trkpt lat="-32.8583240902413" lon="151.41743439920927"><ele>75.0</ele><time>2026-03-21T22:00:39.998Z</time></trkpt><trkpt lat="-32.85838805880976" lon="151.41727170912534"><ele>75.0</ele><time>2026-03-21T22:00:40.998Z</time></trkpt><trkpt lat="-32.85845896243986" lon="151.4170951555086"><ele>75.0</ele><time>2026-03-21T22:00:41.998Z</time></trkpt><trkpt lat="-32.85851538077932" lon="151.41694282663752"><ele>76.5</ele><time>2026-03-21T22:00:43Z</time></trkpt><trkpt lat="-32.858563001353765" lon="151.4167838022685"><ele>78.0</ele><time>2026-03-21T22:00:44Z</time></trkpt><trkpt lat="-32.858599154447425" lon="151.41662717901315"><ele>79.5</ele><time>2026-03-21T22:00:45Z</time></trkpt><trkpt lat="-32.85865828952182" lon="151.41643804155794"><ele>81.0</ele><time>2026-03-21T22:00:46Z</time></trkpt><trkpt lat="-32.8587219689932" lon="151.41627672694418"><ele>81.0</ele><time>2026-03-21T22:00:47Z</time></trkpt><trkpt lat="-32.85876929222569" lon="151.41612662530028"><ele>81.0</ele><time>2026-03-21T22:00:48Z</time></trkpt><trkpt lat="-32.8588123137749" lon="151.41598222448067"><ele>81.0</ele><time>2026-03-21T22:00:49Z</time></trkpt><trkpt lat="-32.858850395338216" lon="151.4158288165599"><ele>81.0</ele><time>2026-03-21T22:00:50Z</time></trkpt><trkpt lat="-32.858888965982686" lon="151.4156798313196"><ele>81.0</ele><time>2026-03-21T22:00:51Z</time></trkpt><trkpt lat="-32.85894043380257" lon="151.4155190014326"><ele>81.0</ele><time>2026-03-21T22:00:52Z</time></trkpt><trkpt lat="-32.85899942481314" lon="151.41536668333526"><ele>81.0</ele><time>2026-03-21T22:00:53Z</time></trkpt><trkpt lat="-32.85904690449672" lon="151.415227555578"><ele>81.0</ele><time>2026-03-21T22:00:54Z</time></trkpt><trkpt lat="-32.85908729717856" lon="151.41507998357253"><ele>80.25</ele><time>2026-03-21T22:00:55Z</time></trkpt><trkpt lat="-32.85913389996082" lon="151.41489279614913"><ele>79.5</ele><time>2026-03-21T22:00:56Z</time></trkpt><trkpt lat="-32.85917871745054" lon="151.41475150722485"><ele>78.75</ele><time>2026-03-21T22:00:57Z</time></trkpt><trkpt lat="-32.85922532435536" lon="151.41460793025755"><ele>78.0</ele><time>2026-03-21T22:00:58Z</time></trkpt><trkpt lat="-32.85926886963591" lon="151.41445784071834"><ele>76.25</ele><time>2026-03-21T22:00:59Z</time></trkpt><trkpt lat="-32.85930491783552" lon="151.41431396563559"><ele>74.5</ele><time>2026-03-21T22:01:00Z</time></trkpt><trkpt lat="-32.85933499361918" lon="151.41417998388104"><ele>72.75</ele><time>2026-03-21T22:01:01Z</time></trkpt><trkpt lat="-32.859361877319465" lon="151.41404724772912"><ele>71.0</ele><time>2026-03-21T22:01:02Z</time></trkpt><trkpt lat="-32.859405799716725" lon="151.4138950712277"><ele>68.5</ele><time>2026-03-21T22:01:03Z</time></trkpt><trkpt lat="-32.85945072425962" lon="151.4137642861523"><ele>66.0</ele><time>2026-03-21T22:01:04Z</time></trkpt><trkpt lat="-32.8594924377504" lon="151.41364419327712"><ele>63.5</ele><time>2026-03-21T22:01:05Z</time></trkpt><trkpt lat="-32.85954651353866" lon="151.41348901205674"><ele>61.0</ele><time>2026-03-21T22:01:06Z</time></trkpt><trkpt lat="-32.85959081461338" lon="151.41335697238233"><ele>61.0</ele><time>2026-03-21T22:01:07Z</time></trkpt><trkpt lat="-32.8596451903988" lon="151.41322831598904"><ele>61.0</ele><time>2026-03-21T22:01:08Z</time></trkpt><trkpt lat="-32.85971952280574" lon="151.4131013804395"><ele>61.0</ele><time>2026-03-21T22:01:09Z</time></trkpt><trkpt lat="-32.85978538570675" lon="151.41296078680392"><ele>61.0</ele><time>2026-03-21T22:01:10Z</time></trkpt><trkpt lat="-32.85985901801748" lon="151.41283201725184"><ele>60.0</ele><time>2026-03-21T22:01:11Z</time></trkpt><trkpt lat="-32.85993280503069" lon="151.41268273130842"><ele>59.0</ele><time>2026-03-21T22:01:12Z</time></trkpt><trkpt lat="-32.85998821368918" lon="151.4124973320611"><ele>58.0</ele><time>2026-03-21T22:01:12.999Z</time></trkpt><trkpt lat="-32.86003169478123" lon="151.41232472969278"><ele>58.0</ele><time>2026-03-21T22:01:13.999Z</time></trkpt><trkpt lat="-32.860066294686916" lon="151.41213981861185"><ele>58.0</ele><time>2026-03-21T22:01:14.999Z</time></trkpt><trkpt lat="-32.8601151011403" lon="151.411942504834"><ele>58.0</ele><time>2026-03-21T22:01:15.999Z</time></trkpt><trkpt lat="-32.860158398805794" lon="151.41174703032902"><ele>58.0</ele><time>2026-03-21T22:01:16.999Z</time></trkpt><trkpt lat="-32.860219648682296" lon="151.41153761764468"><ele>58.0</ele><time>2026-03-21T22:01:17.999Z</time></trkpt><trkpt lat="-32.860277981427075" lon="151.41132717652704"><ele>58.0</ele><time>2026-03-21T22:01:18.999Z</time></trkpt><trkpt lat="-32.86035857123859" lon="151.41114649607678"><ele>58.75</ele><time>2026-03-21T22:01:19.999Z</time></trkpt><trkpt lat="-32.860395575892646" lon="151.41096114809451"><ele>59.5</ele><time>2026-03-21T22:01:20.999Z</time></trkpt><trkpt lat="-32.86044339348751" lon="151.41080808323017"><ele>60.25</ele><time>2026-03-21T22:01:21.999Z</time></trkpt><trkpt lat="-32.860495464567315" lon="151.41064973123895"><ele>61.0</ele><time>2026-03-21T22:01:22.999Z</time></trkpt><trkpt lat="-32.86055675318986" lon="151.41048012625973"><ele>61.75</ele><time>2026-03-21T22:01:23.999Z</time></trkpt><trkpt lat="-32.86062346912108" lon="151.41032143257559"><ele>62.5</ele><time>2026-03-21T22:01:24.999Z</time></trkpt><trkpt lat="-32.86068377499191" lon="151.41016077926972"><ele>63.25</ele><time>2026-03-21T22:01:25.999Z</time></trkpt><trkpt lat="-32.86073826857895" lon="151.41002363994215"><ele>64.0</ele><time>2026-03-21T22:01:26.999Z</time></trkpt><trkpt lat="-32.86079889121664" lon="151.40990482899946"><ele>64.0</ele><time>2026-03-21T22:01:27.999Z</time></trkpt><trkpt lat="-32.86087029729101" lon="151.4098033047333"><ele>64.0</ele><time>2026-03-21T22:01:28.999Z</time></trkpt><trkpt lat="-32.86093833386808" lon="151.40968501474583"><ele>64.0</ele><time>2026-03-21T22:01:29.999Z</time></trkpt><trkpt lat="-32.860991929498866" lon="151.40955330628128"><ele>64.0</ele><time>2026-03-21T22:01:30.999Z</time></trkpt><trkpt lat="-32.86102000999543" lon="151.4094217601952"><ele>65.75</ele><time>2026-03-21T22:01:31.999Z</time></trkpt><trkpt lat="-32.86102784892675" lon="151.40927614960253"><ele>67.5</ele><time>2026-03-21T22:01:32.999Z</time></trkpt><trkpt lat="-32.86102905138396" lon="151.40913393993722"><ele>69.25</ele><time>2026-03-21T22:01:33.999Z</time></trkpt><trkpt lat="-32.86104245732556" lon="151.40899335410418"><ele>71.0</ele><time>2026-03-21T22:01:34.999Z</time></trkpt><trkpt lat="-32.861061543285494" lon="151.40885240337562"><ele>70.75</ele><time>2026-03-21T22:01:35.999Z</time></trkpt><trkpt lat="-32.861080030602935" lon="151.40872090867998"><ele>70.5</ele><time>2026-03-21T22:01:36.999Z</time></trkpt><trkpt lat="-32.86110690825632" lon="151.40857274468163"><ele>70.25</ele><time>2026-03-21T22:01:37.999Z</time></trkpt><trkpt lat="-32.86113285760087" lon="151.4084137761701"><ele>70.0</ele><time>2026-03-21T22:01:38.999Z</time></trkpt><trkpt lat="-32.86116218833607" lon="151.40824335302554"><ele>70.0</ele><time>2026-03-21T22:01:39.999Z</time></trkpt><trkpt lat="-32.86118653701545" lon="151.40810046466902"><ele>70.0</ele><time>2026-03-21T22:01:40.999Z</time></trkpt><trkpt lat="-32.861209960260126" lon="151.40797115988997"><ele>70.0</ele><time>2026-03-21T22:01:41.999Z</time></trkpt><trkpt lat="-32.8612254514302" lon="151.40784567556372"><ele>70.0</ele><time>2026-03-21T22:01:42.999Z</time></trkpt><trkpt lat="-32.8612314854968" lon="151.4076942253962"><ele>70.2</ele><time>2026-03-21T22:01:43.999Z</time></trkpt><trkpt lat="-32.86122572906338" lon="151.40754122628812"><ele>70.4</ele><time>2026-03-21T22:01:44.999Z</time></trkpt><trkpt lat="-32.86122163934558" lon="151.40742391756632"><ele>70.6</ele><time>2026-03-21T22:01:45.999Z</time></trkpt><trkpt lat="-32.86121877171942" lon="151.4073072383941"><ele>70.8</ele><time>2026-03-21T22:01:46.999Z</time></trkpt><trkpt lat="-32.861201584714706" lon="151.4071783381127"><ele>71.0</ele><time>2026-03-21T22:01:47.999Z</time></trkpt><trkpt lat="-32.86117501476872" lon="151.40703878304132"><ele>71.0</ele><time>2026-03-21T22:01:48.999Z</time></trkpt><trkpt lat="-32.861177133080695" lon="151.4069134394686"><ele>71.0</ele><time>2026-03-21T22:01:49.999Z</time></trkpt><trkpt lat="-32.86121698416097" lon="151.40678952461306"><ele>71.0</ele><time>2026-03-21T22:01:50.999Z</time></trkpt><trkpt lat="-32.861286864563304" lon="151.40667697106235"><ele>71.0</ele><time>2026-03-21T22:01:51.999Z</time></trkpt><trkpt lat="-32.861377137814145" lon="151.40656058742857"><ele>71.0</ele><time>2026-03-21T22:01:52.999Z</time></trkpt><trkpt lat="-32.861485291006645" lon="151.40644180470937"><ele>71.0</ele><time>2026-03-21T22:01:53.999Z</time></trkpt><trkpt lat="-32.8615384547761" lon="151.4063169930264"><ele>71.0</ele><time>2026-03-21T22:01:54.999Z</time></trkpt><trkpt lat="-32.86157083353857" lon="151.40619147428066"><ele>71.0</ele><time>2026-03-21T22:01:55.999Z</time></trkpt><trkpt lat="-32.86159182977598" lon="151.40606575510068"><ele>69.8</ele><time>2026-03-21T22:01:56.999Z</time></trkpt><trkpt lat="-32.86160949977422" lon="151.40595130886413"><ele>68.6</ele><time>2026-03-21T22:01:57.999Z</time></trkpt><trkpt lat="-32.86162261139052" lon="151.4058758120541"><ele>67.4</ele><time>2026-03-21T22:01:58.999Z</time></trkpt><trkpt lat="-32.86162673469111" lon="151.40575161947467"><ele>66.2</ele><time>2026-03-21T22:02:00.999Z</time></trkpt><trkpt lat="-32.86155036832849" lon="151.40562398751464"><ele>65.0</ele><time>2026-03-21T22:02:02.999Z</time></trkpt><trkpt lat="-32.861475103259735" lon="151.4055725177816"><ele>65.0</ele><time>2026-03-21T22:02:03.999Z</time></trkpt><trkpt lat="-32.8613897803186" lon="151.40549688891747"><ele>65.0</ele><time>2026-03-21T22:02:04.999Z</time></trkpt><trkpt lat="-32.86133294860827" lon="151.40543687231244"><ele>65.0</ele><time>2026-03-21T22:02:05.999Z</time></trkpt><trkpt lat="-32.86129559174444" lon="151.4053015052117"><ele>65.0</ele><time>2026-03-21T22:02:07.999Z</time></trkpt><trkpt lat="-32.861312029967436" lon="151.40521080048094"><ele>65.0</ele><time>2026-03-21T22:02:08.999Z</time></trkpt><trkpt lat="-32.86133940136287" lon="151.40513821419876"><ele>65.0</ele><time>2026-03-21T22:02:09.999Z</time></trkpt><trkpt lat="-32.86139363438864" lon="151.40499793173834"><ele>63.0</ele><time>2026-03-21T22:02:21.999Z</time></trkpt><trkpt lat="-32.86141525008784" lon="151.40491535336162"><ele>61.0</ele><time>2026-03-21T22:02:22.999Z</time></trkpt><trkpt lat="-32.86142361396039" lon="151.40480256660453"><ele>59.0</ele><time>2026-03-21T22:02:23.999Z</time></trkpt><trkpt lat="-32.86142692626175" lon="151.4046804628783"><ele>57.0</ele><time>2026-03-21T22:02:24.999Z</time></trkpt><trkpt lat="-32.861417088528356" lon="151.4045536484492"><ele>55.0</ele><time>2026-03-21T22:02:25.999Z</time></trkpt><trkpt lat="-32.861401019383244" lon="151.40442776792784"><ele>55.0</ele><time>2026-03-21T22:02:26.999Z</time></trkpt><trkpt lat="-32.86137188300956" lon="151.40431469271644"><ele>55.0</ele><time>2026-03-21T22:02:27.999Z</time></trkpt><trkpt lat="-32.86133832321678" lon="151.40420303201495"><ele>55.0</ele><time>2026-03-21T22:02:28.999Z</time></trkpt><trkpt lat="-32.861316469031884" lon="151.4040978220126"><ele>55.0</ele><time>2026-03-21T22:02:29.999Z</time></trkpt><trkpt lat="-32.86129468805648" lon="151.40397836061996"><ele>55.0</ele><time>2026-03-21T22:02:30.999Z</time></trkpt><trkpt lat="-32.86128525117373" lon="151.40384943101384"><ele>55.0</ele><time>2026-03-21T22:02:31.999Z</time></trkpt><trkpt lat="-32.86130131625728" lon="151.40373198457095"><ele>55.0</ele><time>2026-03-21T22:02:32.999Z</time></trkpt><trkpt lat="-32.86133735560734" lon="151.40362233169387"><ele>55.0</ele><time>2026-03-21T22:02:33.998Z</time></trkpt><trkpt lat="-32.861390004766" lon="151.40347850264237"><ele>55.0</ele><time>2026-03-21T22:02:34.998Z</time></trkpt><trkpt lat="-32.861426976858006" lon="151.40333087720896"><ele>55.0</ele><time>2026-03-21T22:02:35.998Z</time></trkpt><trkpt lat="-32.86143114266894" lon="151.40320930357856"><ele>55.0</ele><time>2026-03-21T22:02:36.998Z</time></trkpt><trkpt lat="-32.86141487619192" lon="151.40308754462794"><ele>55.0</ele><time>2026-03-21T22:02:37.998Z</time></trkpt><trkpt lat="-32.861380460806394" lon="151.40296231097864"><ele>55.0</ele><time>2026-03-21T22:02:38.998Z</time></trkpt><trkpt lat="-32.861331073377244" lon="151.4028284049102"><ele>55.0</ele><time>2026-03-21T22:02:39.998Z</time></trkpt><trkpt lat="-32.86130890299786" lon="151.402703553355"><ele>55.4</ele><time>2026-03-21T22:02:40.998Z</time></trkpt><trkpt lat="-32.86132670661834" lon="151.40258328288357"><ele>55.8</ele><time>2026-03-21T22:02:41.998Z</time></trkpt><trkpt lat="-32.861363584298864" lon="151.4024599453294"><ele>56.2</ele><time>2026-03-21T22:02:42.998Z</time></trkpt><trkpt lat="-32.86137271512268" lon="151.40233712741934"><ele>56.6</ele><time>2026-03-21T22:02:43.998Z</time></trkpt><trkpt lat="-32.86134630030128" lon="151.40221132050314"><ele>57.0</ele><time>2026-03-21T22:02:44.998Z</time></trkpt><trkpt lat="-32.86132974371818" lon="151.40208462089174"><ele>57.166666666666664</ele><time>2026-03-21T22:02:45.998Z</time></trkpt><trkpt lat="-32.86130879637343" lon="151.4020135688772"><ele>57.33333333333333</ele><time>2026-03-21T22:02:46.998Z</time></trkpt><trkpt lat="-32.86129291614398" lon="151.4019188852364"><ele>57.5</ele><time>2026-03-21T22:02:49Z</time></trkpt><trkpt lat="-32.86131971542373" lon="151.40183489402108"><ele>57.666666666666664</ele><time>2026-03-21T22:02:51Z</time></trkpt><trkpt lat="-32.86143013495266" lon="151.4017557948556"><ele>57.83333333333333</ele><time>2026-03-21T22:02:53Z</time></trkpt><trkpt lat="-32.861502891186674" lon="151.40175624601397"><ele>58.0</ele><time>2026-03-21T22:02:54Z</time></trkpt><trkpt lat="-32.86156779528922" lon="151.40176537662072"><ele>57.99999999999999</ele><time>2026-03-21T22:02:55Z</time></trkpt><trkpt lat="-32.86168775194913" lon="151.4017577448714"><ele>58.0</ele><time>2026-03-21T22:02:57Z</time></trkpt><trkpt lat="-32.86175718575148" lon="151.4017188346615"><ele>58.0</ele><time>2026-03-21T22:02:58Z</time></trkpt><trkpt lat="-32.86181634182337" lon="151.40165568352165"><ele>58.0</ele><time>2026-03-21T22:02:59Z</time></trkpt><trkpt lat="-32.86186177321346" lon="151.40157887489502"><ele>57.99999999999999</ele><time>2026-03-21T22:03:00Z</time></trkpt><trkpt lat="-32.86190398182307" lon="151.40150822310994"><ele>58.0</ele><time>2026-03-21T22:03:01Z</time></trkpt><trkpt lat="-32.86196024387648" lon="151.40142589349435"><ele>58.166666666666664</ele><time>2026-03-21T22:03:02Z</time></trkpt><trkpt lat="-32.86199819794123" lon="151.40133916196436"><ele>58.33333333333333</ele><time>2026-03-21T22:03:03Z</time></trkpt><trkpt lat="-32.86203896469723" lon="151.40124067864153"><ele>58.5</ele><time>2026-03-21T22:03:04Z</time></trkpt><trkpt lat="-32.8620840035898" lon="151.40115926341738"><ele>58.66666666666667</ele><time>2026-03-21T22:03:05Z</time></trkpt><trkpt lat="-32.86213672912102" lon="151.40106475821307"><ele>58.833333333333336</ele><time>2026-03-21T22:03:06Z</time></trkpt><trkpt lat="-32.8621646410096" lon="151.40098696009073"><ele>59.0</ele><time>2026-03-21T22:03:07Z</time></trkpt><trkpt lat="-32.86219082372782" lon="151.40090109032573"><ele>59.333333333333336</ele><time>2026-03-21T22:03:08Z</time></trkpt><trkpt lat="-32.86222035130347" lon="151.4008107759623"><ele>59.66666666666667</ele><time>2026-03-21T22:03:09Z</time></trkpt><trkpt lat="-32.8622392621797" lon="151.40071768555165"><ele>60.0</ele><time>2026-03-21T22:03:10Z</time></trkpt><trkpt lat="-32.86226434913065" lon="151.40064873400698"><ele>60.33333333333333</ele><time>2026-03-21T22:03:11Z</time></trkpt><trkpt lat="-32.862377262370735" lon="151.400611813089"><ele>60.666666666666664</ele><time>2026-03-21T22:03:12.999Z</time></trkpt><trkpt lat="-32.862453484697824" lon="151.40059406623348"><ele>61.0</ele><time>2026-03-21T22:03:14.999Z</time></trkpt><trkpt lat="-32.86256924113708" lon="151.40057014021863"><ele>60.99999999999999</ele><time>2026-03-21T22:03:16.999Z</time></trkpt><trkpt lat="-32.8626464147358" lon="151.40054678670052"><ele>61.0</ele><time>2026-03-21T22:03:17.999Z</time></trkpt><trkpt lat="-32.86271225936673" lon="151.4005200110696"><ele>61.0</ele><time>2026-03-21T22:03:18.999Z</time></trkpt><trkpt lat="-32.86278195630788" lon="151.40047924746514"><ele>61.0</ele><time>2026-03-21T22:03:19.999Z</time></trkpt><trkpt lat="-32.86283789692523" lon="151.4003713243777"><ele>60.99999999999999</ele><time>2026-03-21T22:03:21.999Z</time></trkpt><trkpt lat="-32.862886166211595" lon="151.40024994316775"><ele>61.0</ele><time>2026-03-21T22:03:23.999Z</time></trkpt><trkpt lat="-32.862914878558705" lon="151.40016180871126"><ele>61.0</ele><time>2026-03-21T22:03:24.999Z</time></trkpt><trkpt lat="-32.86296164182244" lon="151.40009161104638"><ele>60.99999999999999</ele><time>2026-03-21T22:03:25.999Z</time></trkpt><trkpt lat="-32.863056717639125" lon="151.3999812003474"><ele>60.99999999999999</ele><time>2026-03-21T22:03:27.999Z</time></trkpt><trkpt lat="-32.86309136685161" lon="151.3998979683819"><ele>61.0</ele><time>2026-03-21T22:03:29.999Z</time></trkpt><trkpt lat="-32.86317977214549" lon="151.39981629639752"><ele>61.0</ele><time>2026-03-21T22:03:31.999Z</time></trkpt><trkpt lat="-32.86328296420778" lon="151.39975537285272"><ele>60.99999999999999</ele><time>2026-03-21T22:03:33.999Z</time></trkpt><trkpt lat="-32.86334915368165" lon="151.39980014256182"><ele>61.0</ele><time>2026-03-21T22:03:35.999Z</time></trkpt><trkpt lat="-32.86346081563402" lon="151.39984157654771"><ele>61.0</ele><time>2026-03-21T22:03:37.999Z</time></trkpt><trkpt lat="-32.86350890236926" lon="151.39989686509918"><ele>61.0</ele><time>2026-03-21T22:03:38.999Z</time></trkpt><trkpt lat="-32.86353532937573" lon="151.3999742847328"><ele>60.99999999999999</ele><time>2026-03-21T22:03:39.999Z</time></trkpt><trkpt lat="-32.86358876077651" lon="151.40004032898867"><ele>61.0</ele><time>2026-03-21T22:03:40.999Z</time></trkpt><trkpt lat="-32.86366050946345" lon="151.4000785664963"><ele>61.49999999999999</ele><time>2026-03-21T22:03:41.999Z</time></trkpt><trkpt lat="-32.863743482588475" lon="151.40009385948326"><ele>62.0</ele><time>2026-03-21T22:03:42.999Z</time></trkpt><trkpt lat="-32.86381961922585" lon="151.40010277600106"><ele>62.5</ele><time>2026-03-21T22:03:43.999Z</time></trkpt><trkpt lat="-32.86392081599334" lon="151.40017406004324"><ele>63.0</ele><time>2026-03-21T22:03:45.999Z</time></trkpt><trkpt lat="-32.86393625182276" lon="151.40025113035685"><ele>63.49999999999999</ele><time>2026-03-21T22:03:46.999Z</time></trkpt><trkpt lat="-32.86392673337368" lon="151.40033291283584"><ele>64.0</ele><time>2026-03-21T22:03:47.999Z</time></trkpt><trkpt lat="-32.863985196051814" lon="151.40039919361072"><ele>63.99999999999999</ele><time>2026-03-21T22:03:49.999Z</time></trkpt><trkpt lat="-32.864048127875" lon="151.40040400210742"><ele>64.0</ele><time>2026-03-21T22:03:50.999Z</time></trkpt><trkpt lat="-32.86413172196233" lon="151.4004001154005"><ele>64.0</ele><time>2026-03-21T22:03:52.999Z</time></trkpt><trkpt lat="-32.86415624596525" lon="151.4004951316397"><ele>64.0</ele><time>2026-03-21T22:03:55.999Z</time></trkpt><trkpt lat="-32.864233289703115" lon="151.4005478898612"><ele>63.99999999999999</ele><time>2026-03-21T22:03:58.999Z</time></trkpt><trkpt lat="-32.864311915851836" lon="151.40052913071438"><ele>64.0</ele><time>2026-03-21T22:04:00.999Z</time></trkpt><trkpt lat="-32.864374859130926" lon="151.40051638442844"><ele>64.16666666666666</ele><time>2026-03-21T22:04:02.999Z</time></trkpt><trkpt lat="-32.86444038894186" lon="151.40045893276476"><ele>64.33333333333333</ele><time>2026-03-21T22:04:07.999Z</time></trkpt><trkpt lat="-32.8645517992532" lon="151.4004512398775"><ele>64.5</ele><time>2026-03-21T22:04:09.999Z</time></trkpt><trkpt lat="-32.86463613681937" lon="151.40041343149724"><ele>64.66666666666667</ele><time>2026-03-21T22:04:11.999Z</time></trkpt><trkpt lat="-32.864698544379145" lon="151.40039434112973"><ele>64.83333333333334</ele><time>2026-03-21T22:04:13.999Z</time></trkpt><trkpt lat="-32.864761167489974" lon="151.40031102286156"><ele>65.0</ele><time>2026-03-21T22:04:16.999Z</time></trkpt><trkpt lat="-32.864811464362106" lon="151.40023487401857"><ele>65.0</ele><time>2026-03-21T22:04:18.999Z</time></trkpt><trkpt lat="-32.86479234796648" lon="151.40016262439693"><ele>65.0</ele><time>2026-03-21T22:04:20.999Z</time></trkpt><trkpt lat="-32.864744190153324" lon="151.40007533758538"><ele>65.0</ele><time>2026-03-21T22:04:22.999Z</time></trkpt><trkpt lat="-32.86467946099435" lon="151.39997262123916"><ele>65.0</ele><time>2026-03-21T22:04:24.999Z</time></trkpt><trkpt lat="-32.8646403530744" lon="151.39991039767378"><ele>65.0</ele><time>2026-03-21T22:04:25.999Z</time></trkpt><trkpt lat="-32.864602160244765" lon="151.399824878136"><ele>65.0</ele><time>2026-03-21T22:04:26.999Z</time></trkpt><trkpt lat="-32.873379665960115" lon="151.39856842908216"><ele>67.66666666666667</ele><time>2026-03-21T22:05:24.999Z</time></trkpt><trkpt lat="-32.87356180707433" lon="151.3985699078609"><ele>70.33333333333333</ele><time>2026-03-21T22:05:25.999Z</time></trkpt><trkpt lat="-32.87374177974683" lon="151.3985796880722"><ele>73.0</ele><time>2026-03-21T22:05:26.999Z</time></trkpt><trkpt lat="-32.87391103657443" lon="151.39858925211487"><ele>73.0</ele><time>2026-03-21T22:05:27.999Z</time></trkpt><trkpt lat="-32.87407942116989" lon="151.39859874437747"><ele>73.0</ele><time>2026-03-21T22:05:28.999Z</time></trkpt><trkpt lat="-32.87427487638386" lon="151.3986049506101"><ele>73.0</ele><time>2026-03-21T22:05:29.999Z</time></trkpt><trkpt lat="-32.87447551857181" lon="151.39861051330445"><ele>73.33333333333333</ele><time>2026-03-21T22:05:30.999Z</time></trkpt><trkpt lat="-32.87467355521947" lon="151.39861437397332"><ele>73.66666666666667</ele><time>2026-03-21T22:05:31.999Z</time></trkpt><trkpt lat="-32.87486238983141" lon="151.3986182847238"><ele>74.0</ele><time>2026-03-21T22:05:32.999Z</time></trkpt><trkpt lat="-32.875040835856275" lon="151.3986234386902"><ele>75.66666666666667</ele><time>2026-03-21T22:05:33.999Z</time></trkpt><trkpt lat="-32.87520991425627" lon="151.39862676099003"><ele>77.33333333333333</ele><time>2026-03-21T22:05:34.999Z</time></trkpt><trkpt lat="-32.875365590236896" lon="151.39863277693198"><ele>79.0</ele><time>2026-03-21T22:05:35.999Z</time></trkpt><trkpt lat="-32.875675873968234" lon="151.39864890392155"><ele>79.0</ele><time>2026-03-21T22:05:37.999Z</time></trkpt><trkpt lat="-32.87584644471755" lon="151.39865347128188"><ele>79.0</ele><time>2026-03-21T22:05:38.999Z</time></trkpt><trkpt lat="-32.876024208406946" lon="151.39865236317976"><ele>79.0</ele><time>2026-03-21T22:05:39.999Z</time></trkpt><trkpt lat="-32.876206519751186" lon="151.3986327016773"><ele>80.0</ele><time>2026-03-21T22:05:40.999Z</time></trkpt><trkpt lat="-32.87638992324952" lon="151.3986009762444"><ele>81.0</ele><time>2026-03-21T22:05:41.999Z</time></trkpt><trkpt lat="-32.87656755414569" lon="151.39855883352254"><ele>82.0</ele><time>2026-03-21T22:05:42.999Z</time></trkpt><trkpt lat="-32.876752488872576" lon="151.3985041293846"><ele>83.0</ele><time>2026-03-21T22:05:43.999Z</time></trkpt><trkpt lat="-32.876943120437296" lon="151.39843454656906"><ele>84.0</ele><time>2026-03-21T22:05:44.999Z</time></trkpt><trkpt lat="-32.87712161208937" lon="151.39835233903375"><ele>85.0</ele><time>2026-03-21T22:05:45.999Z</time></trkpt><trkpt lat="-32.87727069540175" lon="151.39826961399194"><ele>85.0</ele><time>2026-03-21T22:05:46.999Z</time></trkpt><trkpt lat="-32.87740820993396" lon="151.398193075435"><ele>85.0</ele><time>2026-03-21T22:05:47.999Z</time></trkpt><trkpt lat="-32.87753925501868" lon="151.39811387521402"><ele>85.0</ele><time>2026-03-21T22:05:48.999Z</time></trkpt><trkpt lat="-32.877648922105315" lon="151.39804969318288"><ele>85.0</ele><time>2026-03-21T22:05:49.999Z</time></trkpt><trkpt lat="-32.87776062781339" lon="151.39798932260126"><ele>84.75</ele><time>2026-03-21T22:05:50.999Z</time></trkpt><trkpt lat="-32.87787495817152" lon="151.3979330838872"><ele>84.5</ele><time>2026-03-21T22:05:51.999Z</time></trkpt><trkpt lat="-32.8779932810212" lon="151.39786787926576"><ele>84.25</ele><time>2026-03-21T22:05:52.999Z</time></trkpt><trkpt lat="-32.878116964366576" lon="151.397800989581"><ele>84.0</ele><time>2026-03-21T22:05:53.999Z</time></trkpt><trkpt lat="-32.87825340601883" lon="151.39774352722577"><ele>84.0</ele><time>2026-03-21T22:05:54.999Z</time></trkpt><trkpt lat="-32.87840573386435" lon="151.39768969767073"><ele>84.0</ele><time>2026-03-21T22:05:55.999Z</time></trkpt><trkpt lat="-32.878564316698835" lon="151.3976467361313"><ele>84.0</ele><time>2026-03-21T22:05:56.999Z</time></trkpt><trkpt lat="-32.87883013364342" lon="151.39758558831923"><ele>84.5</ele><time>2026-03-21T22:05:58.999Z</time></trkpt><trkpt lat="-32.87894895763822" lon="151.39755406396938"><ele>85.0</ele><time>2026-03-21T22:05:59.999Z</time></trkpt><trkpt lat="-32.87907832459074" lon="151.39751938874954"><ele>85.5</ele><time>2026-03-21T22:06:00.999Z</time></trkpt><trkpt lat="-32.87921874325897" lon="151.3974866008653"><ele>86.0</ele><time>2026-03-21T22:06:01.999Z</time></trkpt><trkpt lat="-32.87937707080815" lon="151.39745001213691"><ele>86.33333333333334</ele><time>2026-03-21T22:06:02.999Z</time></trkpt><trkpt lat="-32.879539070390315" lon="151.39742010541568"><ele>86.66666666666667</ele><time>2026-03-21T22:06:03.999Z</time></trkpt><trkpt lat="-32.87970325552343" lon="151.3973958275857"><ele>87.0</ele><time>2026-03-21T22:06:04.999Z</time></trkpt><trkpt lat="-32.87987954293515" lon="151.39736196851203"><ele>87.0</ele><time>2026-03-21T22:06:05.999Z</time></trkpt><trkpt lat="-32.88005639652161" lon="151.39732464836356"><ele>87.0</ele><time>2026-03-21T22:06:06.999Z</time></trkpt><trkpt lat="-32.88023158376702" lon="151.39729168840853"><ele>87.0</ele><time>2026-03-21T22:06:07.999Z</time></trkpt><trkpt lat="-32.880377911662485" lon="151.3972626118786"><ele>86.75</ele><time>2026-03-21T22:06:08.999Z</time></trkpt><trkpt lat="-32.88052575882235" lon="151.39723618715308"><ele>86.5</ele><time>2026-03-21T22:06:09.999Z</time></trkpt><trkpt lat="-32.88067676654101" lon="151.39720383450282"><ele>86.25</ele><time>2026-03-21T22:06:10.999Z</time></trkpt><trkpt lat="-32.88081788930272" lon="151.3971762322226"><ele>86.0</ele><time>2026-03-21T22:06:11.999Z</time></trkpt><trkpt lat="-32.88094281408968" lon="151.39714889109166"><ele>86.0</ele><time>2026-03-21T22:06:12.999Z</time></trkpt><trkpt lat="-32.881057671176976" lon="151.39712142949043"><ele>86.0</ele><time>2026-03-21T22:06:13.999Z</time></trkpt><trkpt lat="-32.88116026438368" lon="151.39710042416158"><ele>86.0</ele><time>2026-03-21T22:06:14.999Z</time></trkpt><trkpt lat="-32.881252612325795" lon="151.39708641341178"><ele>86.0</ele><time>2026-03-21T22:06:15.999Z</time></trkpt><trkpt lat="-32.881365702169404" lon="151.39704079890922"><ele>86.0</ele><time>2026-03-21T22:06:17.999Z</time></trkpt><trkpt lat="-32.88136994619339" lon="151.39681804652406"><ele>86.0</ele><time>2026-03-21T22:06:20.999Z</time></trkpt><trkpt lat="-32.88136940231912" lon="151.39672503910072"><ele>86.0</ele><time>2026-03-21T22:06:21.999Z</time></trkpt><trkpt lat="-32.88135492551095" lon="151.3966118164191"><ele>86.0</ele><time>2026-03-21T22:06:22.999Z</time></trkpt><trkpt lat="-32.88133510748645" lon="151.39647965860414"><ele>86.0</ele><time>2026-03-21T22:06:23.999Z</time></trkpt><trkpt lat="-32.881298669874035" lon="151.39634471157905"><ele>86.0</ele><time>2026-03-21T22:06:24.999Z</time></trkpt><trkpt lat="-32.88128724555434" lon="151.39621809712952"><ele>85.5</ele><time>2026-03-21T22:06:25.999Z</time></trkpt><trkpt lat="-32.88126716125331" lon="151.39608357996505"><ele>85.0</ele><time>2026-03-21T22:06:26.999Z</time></trkpt><trkpt lat="-32.8812391415353" lon="151.39590926333926"><ele>84.5</ele><time>2026-03-21T22:06:27.999Z</time></trkpt><trkpt lat="-32.88121268462133" lon="151.3957412457215"><ele>84.0</ele><time>2026-03-21T22:06:28.999Z</time></trkpt><trkpt lat="-32.88118858007564" lon="151.3955921990943"><ele>83.2</ele><time>2026-03-21T22:06:29.999Z</time></trkpt><trkpt lat="-32.881171094691055" lon="151.39544956518503"><ele>82.4</ele><time>2026-03-21T22:06:30.999Z</time></trkpt><trkpt lat="-32.88115518807541" lon="151.3953173608761"><ele>81.6</ele><time>2026-03-21T22:06:31.999Z</time></trkpt><trkpt lat="-32.88113728461781" lon="151.39519957055518"><ele>80.8</ele><time>2026-03-21T22:06:32.999Z</time></trkpt><trkpt lat="-32.88111601911845" lon="151.3950896939192"><ele>80.0</ele><time>2026-03-21T22:06:33.998Z</time></trkpt><trkpt lat="-32.881095529327204" lon="151.39499982023125"><ele>80.0</ele><time>2026-03-21T22:06:34.998Z</time></trkpt><trkpt lat="-32.881076697910004" lon="151.39492430292668"><ele>80.0</ele><time>2026-03-21T22:06:35.998Z</time></trkpt><trkpt lat="-32.88107589131877" lon="151.3948257852986"><ele>80.0</ele><time>2026-03-21T22:06:37.998Z</time></trkpt><trkpt lat="-32.88093581593702" lon="151.39484548705127"><ele>80.0</ele><time>2026-03-21T22:06:38.998Z</time></trkpt><trkpt lat="-32.88045968543054" lon="151.39498438905358"><ele>80.0</ele><time>2026-03-21T22:10:12Z</time></trkpt><trkpt lat="-32.880326681015475" lon="151.3949812201936"><ele>80.0</ele><time>2026-03-21T22:10:15Z</time></trkpt><trkpt lat="-32.88025439482627" lon="151.395016824453"><ele>80.0</ele><time>2026-03-21T22:10:16Z</time></trkpt><trkpt lat="-32.88018570241066" lon="151.39502876847405"><ele>80.0</ele><time>2026-03-21T22:10:17Z</time></trkpt><trkpt lat="-32.88006269723578" lon="151.3950504630315"><ele>80.0</ele><time>2026-03-21T22:10:19Z</time></trkpt><trkpt lat="-32.880002578090675" lon="151.39507587996988"><ele>80.16666666666667</ele><time>2026-03-21T22:10:20Z</time></trkpt><trkpt lat="-32.87994275789615" lon="151.39512384274965"><ele>80.33333333333334</ele><time>2026-03-21T22:10:21Z</time></trkpt><trkpt lat="-32.879879747485724" lon="151.39518638566994"><ele>80.5</ele><time>2026-03-21T22:10:22Z</time></trkpt><trkpt lat="-32.879876222162665" lon="151.3953000718322"><ele>80.66666666666667</ele><time>2026-03-21T22:10:23Z</time></trkpt><trkpt lat="-32.87988106060425" lon="151.39541098696483"><ele>80.83333333333333</ele><time>2026-03-21T22:10:24Z</time></trkpt><trkpt lat="-32.87989902064647" lon="151.3955170304847"><ele>81.0</ele><time>2026-03-21T22:10:25Z</time></trkpt><trkpt lat="-32.87991907218894" lon="151.39562820387613"><ele>81.0</ele><time>2026-03-21T22:10:26Z</time></trkpt><trkpt lat="-32.87993511713187" lon="151.39573688235618"><ele>81.0</ele><time>2026-03-21T22:10:27Z</time></trkpt><trkpt lat="-32.879950127810076" lon="151.39584133558648"><ele>81.0</ele><time>2026-03-21T22:10:28Z</time></trkpt><trkpt lat="-32.87996572497293" lon="151.3959544632472"><ele>81.0</ele><time>2026-03-21T22:10:29Z</time></trkpt><trkpt lat="-32.8799838473169" lon="151.39606815480695"><ele>81.0</ele><time>2026-03-21T22:10:30Z</time></trkpt><trkpt lat="-32.8800005215941" lon="151.3961756108966"><ele>81.0</ele><time>2026-03-21T22:10:31Z</time></trkpt><trkpt lat="-32.88001449042272" lon="151.39628595690414"><ele>81.0</ele><time>2026-03-21T22:10:31.999Z</time></trkpt><trkpt lat="-32.88002887959588" lon="151.39640216249933"><ele>81.0</ele><time>2026-03-21T22:10:32.999Z</time></trkpt><trkpt lat="-32.88004549491646" lon="151.39652687756677"><ele>81.0</ele><time>2026-03-21T22:10:33.999Z</time></trkpt><trkpt lat="-32.880066191290325" lon="151.39664828285717"><ele>81.0</ele><time>2026-03-21T22:10:34.999Z</time></trkpt><trkpt lat="-32.88008353919856" lon="151.39676398046288"><ele>81.4</ele><time>2026-03-21T22:10:35.999Z</time></trkpt><trkpt lat="-32.880104294868524" lon="151.3968846211409"><ele>81.8</ele><time>2026-03-21T22:10:36.999Z</time></trkpt><trkpt lat="-32.8801186183175" lon="151.39699262229885"><ele>82.2</ele><time>2026-03-21T22:10:37.999Z</time></trkpt><trkpt lat="-32.88012419422592" lon="151.39707722031682"><ele>82.60000000000001</ele><time>2026-03-21T22:10:38.999Z</time></trkpt><trkpt lat="-32.88012680111647" lon="151.39718121492558"><ele>83.0</ele><time>2026-03-21T22:10:40.999Z</time></trkpt><trkpt lat="-32.88015154040786" lon="151.39729542790613"><ele>83.2</ele><time>2026-03-21T22:10:43.999Z</time></trkpt><trkpt lat="-32.88018830161867" lon="151.39744871347864"><ele>83.4</ele><time>2026-03-21T22:10:45.999Z</time></trkpt><trkpt lat="-32.88019816948123" lon="151.39756062773793"><ele>83.60000000000001</ele><time>2026-03-21T22:10:46.999Z</time></trkpt><trkpt lat="-32.88022042338991" lon="151.39767627555995"><ele>83.80000000000001</ele><time>2026-03-21T22:10:47.999Z</time></trkpt><trkpt lat="-32.880235935812934" lon="151.39780563417364"><ele>84.0</ele><time>2026-03-21T22:10:48.999Z</time></trkpt><trkpt lat="-32.88026482881085" lon="151.39795315368312"><ele>83.66666666666667</ele><time>2026-03-21T22:10:49.999Z</time></trkpt><trkpt lat="-32.880290182852185" lon="151.3981170648911"><ele>83.33333333333334</ele><time>2026-03-21T22:10:50.999Z</time></trkpt><trkpt lat="-32.88032204606869" lon="151.3983233394189"><ele>83.0</ele><time>2026-03-21T22:10:51.999Z</time></trkpt><trkpt lat="-32.880351615067596" lon="151.39851590154464"><ele>83.0</ele><time>2026-03-21T22:10:52.999Z</time></trkpt><trkpt lat="-32.88038038400113" lon="151.39870709177268"><ele>83.0</ele><time>2026-03-21T22:10:53.999Z</time></trkpt><trkpt lat="-32.88040869633765" lon="151.3988976261744"><ele>83.0</ele><time>2026-03-21T22:10:54.999Z</time></trkpt><trkpt lat="-32.880432282964485" lon="151.39906859071746"><ele>82.66666666666667</ele><time>2026-03-21T22:10:55.999Z</time></trkpt><trkpt lat="-32.880458994904586" lon="151.39926086095096"><ele>82.33333333333333</ele><time>2026-03-21T22:10:56.999Z</time></trkpt><trkpt lat="-32.88048696607621" lon="151.39945134165816"><ele>82.0</ele><time>2026-03-21T22:10:57.999Z</time></trkpt><trkpt lat="-32.880514994342555" lon="151.39965909321364"><ele>81.75</ele><time>2026-03-21T22:10:58.999Z</time></trkpt><trkpt lat="-32.88053130298403" lon="151.3998342973813"><ele>81.5</ele><time>2026-03-21T22:10:59.999Z</time></trkpt><trkpt lat="-32.88054748159149" lon="151.4000013135077"><ele>81.25</ele><time>2026-03-21T22:11:00.999Z</time></trkpt><trkpt lat="-32.88056969041309" lon="151.40017460725403"><ele>81.0</ele><time>2026-03-21T22:11:01.999Z</time></trkpt><trkpt lat="-32.880604578069445" lon="151.40033937867423"><ele>81.33333333333333</ele><time>2026-03-21T22:11:02.999Z</time></trkpt><trkpt lat="-32.880646076616436" lon="151.40053906166042"><ele>81.66666666666666</ele><time>2026-03-21T22:11:03.999Z</time></trkpt><trkpt lat="-32.88071079180062" lon="151.40073501308345"><ele>82.0</ele><time>2026-03-21T22:11:04.999Z</time></trkpt><trkpt lat="-32.88076340576191" lon="151.40089718441962"><ele>82.0</ele><time>2026-03-21T22:11:05.999Z</time></trkpt><trkpt lat="-32.8808257328439" lon="151.4010455067744"><ele>82.0</ele><time>2026-03-21T22:11:06.999Z</time></trkpt><trkpt lat="-32.88087784586571" lon="151.4011851933231"><ele>82.0</ele><time>2026-03-21T22:11:07.999Z</time></trkpt><trkpt lat="-32.88094118997064" lon="151.40135496191428"><ele>82.0</ele><time>2026-03-21T22:11:08.999Z</time></trkpt><trkpt lat="-32.881012410556444" lon="151.40154089709333"><ele>83.33333333333333</ele><time>2026-03-21T22:11:09.999Z</time></trkpt><trkpt lat="-32.881085790711424" lon="151.4017149172472"><ele>84.66666666666667</ele><time>2026-03-21T22:11:11Z</time></trkpt><trkpt lat="-32.88117136312745" lon="151.40192013905218"><ele>86.0</ele><time>2026-03-21T22:11:12Z</time></trkpt><trkpt lat="-32.88128795761231" lon="151.40213596085914"><ele>86.33333333333334</ele><time>2026-03-21T22:11:13Z</time></trkpt><trkpt lat="-32.881375803089014" lon="151.40235732626655"><ele>86.66666666666667</ele><time>2026-03-21T22:11:14Z</time></trkpt><trkpt lat="-32.88144557146652" lon="151.40256140634276"><ele>87.0</ele><time>2026-03-21T22:11:15Z</time></trkpt><trkpt lat="-32.88148361445029" lon="151.40274239543683"><ele>87.0</ele><time>2026-03-21T22:11:16Z</time></trkpt><trkpt lat="-32.88152472184123" lon="151.40293245614978"><ele>87.0</ele><time>2026-03-21T22:11:17Z</time></trkpt><trkpt lat="-32.88155489769484" lon="151.403112031059"><ele>87.0</ele><time>2026-03-21T22:11:18Z</time></trkpt><trkpt lat="-32.88159792592816" lon="151.40327910561527"><ele>86.66666666666667</ele><time>2026-03-21T22:11:19Z</time></trkpt><trkpt lat="-32.88162293776181" lon="151.40344680329093"><ele>86.33333333333334</ele><time>2026-03-21T22:11:20Z</time></trkpt><trkpt lat="-32.88166945126892" lon="151.4036214975198"><ele>86.0</ele><time>2026-03-21T22:11:21Z</time></trkpt><trkpt lat="-32.881742093392035" lon="151.4038272764848"><ele>84.66666666666667</ele><time>2026-03-21T22:11:22Z</time></trkpt><trkpt lat="-32.88181076142178" lon="151.40400934450994"><ele>83.33333333333333</ele><time>2026-03-21T22:11:23Z</time></trkpt><trkpt lat="-32.88187539629799" lon="151.4041695876372"><ele>82.0</ele><time>2026-03-21T22:11:24Z</time></trkpt><trkpt lat="-32.88194803202421" lon="151.40430815494264"><ele>82.0</ele><time>2026-03-21T22:11:25Z</time></trkpt><trkpt lat="-32.882025574981974" lon="151.40445568946652"><ele>82.0</ele><time>2026-03-21T22:11:26Z</time></trkpt><trkpt lat="-32.882085840637494" lon="151.4045911729357"><ele>82.0</ele><time>2026-03-21T22:11:27Z</time></trkpt><trkpt lat="-32.88216244583681" lon="151.40469900674955"><ele>82.0</ele><time>2026-03-21T22:11:28Z</time></trkpt><trkpt lat="-32.882224116755665" lon="151.40480054070318"><ele>82.6</ele><time>2026-03-21T22:11:29Z</time></trkpt><trkpt lat="-32.882267557307635" lon="151.4048756566728"><ele>83.19999999999999</ele><time>2026-03-21T22:11:30Z</time></trkpt><trkpt lat="-32.88242378840986" lon="151.40482925034328"><ele>83.8</ele><time>2026-03-21T22:11:31Z</time></trkpt><trkpt lat="-32.88251288751093" lon="151.40479761691435"><ele>84.4</ele><time>2026-03-21T22:11:32Z</time></trkpt><trkpt lat="-32.88260238825158" lon="151.40474575104022"><ele>85.0</ele><time>2026-03-21T22:11:33Z</time></trkpt><trkpt lat="-32.8827114934291" lon="151.40467813210392"><ele>84.33333333333333</ele><time>2026-03-21T22:11:34Z</time></trkpt><trkpt lat="-32.88283115703573" lon="151.4045987819398"><ele>83.66666666666667</ele><time>2026-03-21T22:11:35Z</time></trkpt><trkpt lat="-32.88296412346206" lon="151.40449959535815"><ele>83.0</ele><time>2026-03-21T22:11:36Z</time></trkpt><trkpt lat="-32.88310079756338" lon="151.4043911330843"><ele>83.0</ele><time>2026-03-21T22:11:37Z</time></trkpt><trkpt lat="-32.88326563938577" lon="151.40429901514395"><ele>83.0</ele><time>2026-03-21T22:11:38Z</time></trkpt><trkpt lat="-32.88339674273863" lon="151.40421151879758"><ele>83.0</ele><time>2026-03-21T22:11:39Z</time></trkpt><trkpt lat="-32.88352273798325" lon="151.40411798467653"><ele>85.0</ele><time>2026-03-21T22:11:40Z</time></trkpt><trkpt lat="-32.883660930921785" lon="151.40404998335185"><ele>87.0</ele><time>2026-03-21T22:11:41Z</time></trkpt><trkpt lat="-32.88380077171521" lon="151.40397968312348"><ele>89.0</ele><time>2026-03-21T22:11:42Z</time></trkpt><trkpt lat="-32.883944898481836" lon="151.40391362113365"><ele>89.0</ele><time>2026-03-21T22:11:43Z</time></trkpt><trkpt lat="-32.884103995555286" lon="151.40387429299713"><ele>89.0</ele><time>2026-03-21T22:11:44Z</time></trkpt><trkpt lat="-32.884250942784014" lon="151.40381302703716"><ele>89.0</ele><time>2026-03-21T22:11:45Z</time></trkpt><trkpt lat="-32.884409898880506" lon="151.4037654312752"><ele>89.66666666666667</ele><time>2026-03-21T22:11:46Z</time></trkpt><trkpt lat="-32.884593942979826" lon="151.4037238638906"><ele>90.33333333333333</ele><time>2026-03-21T22:11:47Z</time></trkpt><trkpt lat="-32.88475927673123" lon="151.40366893484443"><ele>91.0</ele><time>2026-03-21T22:11:48Z</time></trkpt><trkpt lat="-32.88495620516607" lon="151.40359972021878"><ele>91.33333333333333</ele><time>2026-03-21T22:11:49Z</time></trkpt><trkpt lat="-32.88513232530749" lon="151.40352097572688"><ele>91.66666666666667</ele><time>2026-03-21T22:11:50Z</time></trkpt><trkpt lat="-32.88531528498638" lon="151.40345144618402"><ele>92.0</ele><time>2026-03-21T22:11:51Z</time></trkpt><trkpt lat="-32.885515225236695" lon="151.4033993076244"><ele>92.0</ele><time>2026-03-21T22:11:52Z</time></trkpt><trkpt lat="-32.88571118179975" lon="151.40333480827366"><ele>92.0</ele><time>2026-03-21T22:11:53Z</time></trkpt><trkpt lat="-32.88588843474275" lon="151.40328686410672"><ele>92.0</ele><time>2026-03-21T22:11:54Z</time></trkpt><trkpt lat="-32.88603831289883" lon="151.403250180645"><ele>93.0</ele><time>2026-03-21T22:11:55Z</time></trkpt><trkpt lat="-32.88616324021496" lon="151.4032196040398"><ele>94.0</ele><time>2026-03-21T22:11:56Z</time></trkpt><trkpt lat="-32.88626822757955" lon="151.40317423617375"><ele>95.0</ele><time>2026-03-21T22:11:57Z</time></trkpt><trkpt lat="-32.88635887110129" lon="151.40315450179278"><ele>96.0</ele><time>2026-03-21T22:11:58Z</time></trkpt><trkpt lat="-32.886436357008414" lon="151.4031350530347"><ele>97.0</ele><time>2026-03-21T22:11:59Z</time></trkpt><trkpt lat="-32.88651229962021" lon="151.40313189481196"><ele>97.0</ele><time>2026-03-21T22:12:00Z</time></trkpt><trkpt lat="-32.886620860930236" lon="151.40309990844764"><ele>97.0</ele><time>2026-03-21T22:12:02Z</time></trkpt><trkpt lat="-32.88669688462743" lon="151.40309874504288"><ele>97.0</ele><time>2026-03-21T22:12:04Z</time></trkpt><trkpt lat="-32.88687050502729" lon="151.4034066543338"><ele>97.33333333333334</ele><time>2026-03-21T22:12:06Z</time></trkpt><trkpt lat="-32.88699648074124" lon="151.40354222810493"><ele>97.66666666666666</ele><time>2026-03-21T22:12:07Z</time></trkpt><trkpt lat="-32.88712380489867" lon="151.4036767549385"><ele>98.0</ele><time>2026-03-21T22:12:08Z</time></trkpt><trkpt lat="-32.88724183561451" lon="151.4038024464806"><ele>99.66666666666666</ele><time>2026-03-21T22:12:09Z</time></trkpt><trkpt lat="-32.88735692708998" lon="151.40392232191476"><ele>101.33333333333334</ele><time>2026-03-21T22:12:10Z</time></trkpt><trkpt lat="-32.88747517172182" lon="151.4040490713371"><ele>103.0</ele><time>2026-03-21T22:12:11Z</time></trkpt><trkpt lat="-32.88758249177851" lon="151.40417731337027"><ele>103.0</ele><time>2026-03-21T22:12:12Z</time></trkpt><trkpt lat="-32.88770625265161" lon="151.40431249328768"><ele>103.0</ele><time>2026-03-21T22:12:13Z</time></trkpt><trkpt lat="-32.887857474595855" lon="151.40445524051142"><ele>103.0</ele><time>2026-03-21T22:12:14Z</time></trkpt><trkpt lat="-32.88799243292268" lon="151.4045705974272"><ele>103.0</ele><time>2026-03-21T22:12:15Z</time></trkpt><trkpt lat="-32.88813321020442" lon="151.40463481067331"><ele>103.0</ele><time>2026-03-21T22:12:16Z</time></trkpt><trkpt lat="-32.88829623802828" lon="151.40467974113702"><ele>103.0</ele><time>2026-03-21T22:12:17Z</time></trkpt><trkpt lat="-32.88846208614598" lon="151.40471403953603"><ele>103.66666666666667</ele><time>2026-03-21T22:12:18Z</time></trkpt><trkpt lat="-32.88860086958299" lon="151.40468625707226"><ele>104.33333333333334</ele><time>2026-03-21T22:12:19Z</time></trkpt><trkpt lat="-32.88876674398486" lon="151.40462983939344"><ele>105.0</ele><time>2026-03-21T22:12:20Z</time></trkpt><trkpt lat="-32.888951544138585" lon="151.404590609356"><ele>105.66666666666666</ele><time>2026-03-21T22:12:21Z</time></trkpt><trkpt lat="-32.88912179727841" lon="151.4045724925491"><ele>106.33333333333333</ele><time>2026-03-21T22:12:22Z</time></trkpt><trkpt lat="-32.88930004307767" lon="151.4045830683786"><ele>107.0</ele><time>2026-03-21T22:12:23Z</time></trkpt><trkpt lat="-32.88945150760637" lon="151.40462670037883"><ele>108.33333333333333</ele><time>2026-03-21T22:12:24Z</time></trkpt><trkpt lat="-32.889608750722665" lon="151.40467886809623"><ele>109.66666666666666</ele><time>2026-03-21T22:12:25Z</time></trkpt><trkpt lat="-32.889759743848515" lon="151.4047656031158"><ele>111.0</ele><time>2026-03-21T22:12:26Z</time></trkpt><trkpt lat="-32.889920419226456" lon="151.40487177456762"><ele>111.0</ele><time>2026-03-21T22:12:27Z</time></trkpt><trkpt lat="-32.89007487874548" lon="151.40496545927394"><ele>111.0</ele><time>2026-03-21T22:12:28Z</time></trkpt><trkpt lat="-32.89021082111383" lon="151.40506444988208"><ele>111.0</ele><time>2026-03-21T22:12:29Z</time></trkpt><trkpt lat="-32.890330744811926" lon="151.4051392551296"><ele>111.75</ele><time>2026-03-21T22:12:30Z</time></trkpt><trkpt lat="-32.89045017971279" lon="151.40521310785329"><ele>112.5</ele><time>2026-03-21T22:12:31Z</time></trkpt><trkpt lat="-32.890586158582536" lon="151.40526378500098"><ele>113.25</ele><time>2026-03-21T22:12:32Z</time></trkpt><trkpt lat="-32.89072348891598" lon="151.4052802450772"><ele>114.0</ele><time>2026-03-21T22:12:33Z</time></trkpt><trkpt lat="-32.89088788836299" lon="151.40530748543313"><ele>114.66666666666666</ele><time>2026-03-21T22:12:33.999Z</time></trkpt><trkpt lat="-32.89107182906353" lon="151.40537116547955"><ele>115.33333333333333</ele><time>2026-03-21T22:12:34.999Z</time></trkpt><trkpt lat="-32.891244208770544" lon="151.40547170581468"><ele>116.0</ele><time>2026-03-21T22:12:35.999Z</time></trkpt><trkpt lat="-32.891383631948784" lon="151.4055534293995"><ele>117.5</ele><time>2026-03-21T22:12:36.999Z</time></trkpt><trkpt lat="-32.8915158903313" lon="151.40562617342363"><ele>119.0</ele><time>2026-03-21T22:12:37.999Z</time></trkpt><trkpt lat="-32.89164423767123" lon="151.40569834947644"><ele>120.5</ele><time>2026-03-21T22:12:38.999Z</time></trkpt><trkpt lat="-32.89174851975838" lon="151.4057801888645"><ele>122.0</ele><time>2026-03-21T22:12:39.999Z</time></trkpt><trkpt lat="-32.89185011539136" lon="151.4058666104732"><ele>123.25</ele><time>2026-03-21T22:12:40.999Z</time></trkpt><trkpt lat="-32.89192399301712" lon="151.40598205360513"><ele>124.5</ele><time>2026-03-21T22:12:41.999Z</time></trkpt><trkpt lat="-32.891993995352" lon="151.4061054997964"><ele>125.75</ele><time>2026-03-21T22:12:42.999Z</time></trkpt><trkpt lat="-32.89205015646609" lon="151.4062352400828"><ele>127.0</ele><time>2026-03-21T22:12:43.999Z</time></trkpt><trkpt lat="-32.892090522165255" lon="151.40635929747216"><ele>127.0</ele><time>2026-03-21T22:12:44.999Z</time></trkpt><trkpt lat="-32.89213847635335" lon="151.40650422737147"><ele>127.0</ele><time>2026-03-21T22:12:45.999Z</time></trkpt><trkpt lat="-32.89220052192086" lon="151.40666429381486"><ele>127.0</ele><time>2026-03-21T22:12:46.999Z</time></trkpt><trkpt lat="-32.89226091801142" lon="151.40678517936124"><ele>127.0</ele><time>2026-03-21T22:12:47.999Z</time></trkpt><trkpt lat="-32.89233489652578" lon="151.40689364712452"><ele>127.0</ele><time>2026-03-21T22:12:48.999Z</time></trkpt><trkpt lat="-32.89242500652058" lon="151.40700830831148"><ele>127.0</ele><time>2026-03-21T22:12:49.999Z</time></trkpt><trkpt lat="-32.89254411361938" lon="151.40715293895465"><ele>127.0</ele><time>2026-03-21T22:12:50.999Z</time></trkpt><trkpt lat="-32.892657612584216" lon="151.4072715791039"><ele>128.5</ele><time>2026-03-21T22:12:51.999Z</time></trkpt><trkpt lat="-32.892758426924466" lon="151.40738287106106"><ele>130.0</ele><time>2026-03-21T22:12:52.999Z</time></trkpt><trkpt lat="-32.89285146547427" lon="151.4074758527187"><ele>131.5</ele><time>2026-03-21T22:12:53.999Z</time></trkpt><trkpt lat="-32.89296432175755" lon="151.40759579259174"><ele>133.0</ele><time>2026-03-21T22:12:54.999Z</time></trkpt><trkpt lat="-32.89304390172929" lon="151.4077051574252"><ele>133.0</ele><time>2026-03-21T22:12:55.999Z</time></trkpt><trkpt lat="-32.89311340607468" lon="151.40783082751202"><ele>133.0</ele><time>2026-03-21T22:12:56.999Z</time></trkpt><trkpt lat="-32.89316233297943" lon="151.4079844866634"><ele>133.0</ele><time>2026-03-21T22:12:57.999Z</time></trkpt><trkpt lat="-32.89321469183195" lon="151.40812829402995"><ele>133.0</ele><time>2026-03-21T22:12:58.999Z</time></trkpt><trkpt lat="-32.89328215634267" lon="151.40829437222715"><ele>131.25</ele><time>2026-03-21T22:12:59.999Z</time></trkpt><trkpt lat="-32.89332061088699" lon="151.4084560024103"><ele>129.5</ele><time>2026-03-21T22:13:00.999Z</time></trkpt><trkpt lat="-32.89335888502364" lon="151.408628719872"><ele>127.75</ele><time>2026-03-21T22:13:01.999Z</time></trkpt><trkpt lat="-32.893392142137465" lon="151.40877449490768"><ele>126.0</ele><time>2026-03-21T22:13:02.999Z</time></trkpt><trkpt lat="-32.893441878261356" lon="151.4089007422017"><ele>130.25</ele><time>2026-03-21T22:13:03.999Z</time></trkpt><trkpt lat="-32.893492052300715" lon="151.40901113221798"><ele>134.5</ele><time>2026-03-21T22:13:04.999Z</time></trkpt><trkpt lat="-32.8935620451229" lon="151.40910923595666"><ele>138.75</ele><time>2026-03-21T22:13:05.999Z</time></trkpt><trkpt lat="-32.893638362022294" lon="151.4092280900327"><ele>143.0</ele><time>2026-03-21T22:13:06.999Z</time></trkpt><trkpt lat="-32.893737516000385" lon="151.40936165466297"><ele>143.0</ele><time>2026-03-21T22:13:07.999Z</time></trkpt><trkpt lat="-32.89384973718904" lon="151.40948997952802"><ele>143.0</ele><time>2026-03-21T22:13:08.999Z</time></trkpt><trkpt lat="-32.89394950275455" lon="151.40960391978965"><ele>143.0</ele><time>2026-03-21T22:13:09.999Z</time></trkpt><trkpt lat="-32.8940545820245" lon="151.4097338568886"><ele>143.0</ele><time>2026-03-21T22:13:10.999Z</time></trkpt><trkpt lat="-32.894156064334524" lon="151.4098584123425"><ele>141.25</ele><time>2026-03-21T22:13:11.999Z</time></trkpt><trkpt lat="-32.89423820663211" lon="151.40999065548442"><ele>139.5</ele><time>2026-03-21T22:13:12.999Z</time></trkpt><trkpt lat="-32.894310586508304" lon="151.41012418474915"><ele>137.75</ele><time>2026-03-21T22:13:13.999Z</time></trkpt><trkpt lat="-32.89433677461017" lon="151.41025013678632"><ele>136.0</ele><time>2026-03-21T22:13:14.999Z</time></trkpt><trkpt lat="-32.89433829692852" lon="151.41034409804675"><ele>136.0</ele><time>2026-03-21T22:13:15.999Z</time></trkpt><trkpt lat="-32.89437314355417" lon="151.4104226053317"><ele>136.0</ele><time>2026-03-21T22:13:17Z</time></trkpt><trkpt lat="-32.89445668736118" lon="151.4104772993394"><ele>136.0</ele><time>2026-03-21T22:13:18Z</time></trkpt><trkpt lat="-32.89454752057186" lon="151.41050321891998"><ele>136.0</ele><time>2026-03-21T22:13:19Z</time></trkpt><trkpt lat="-32.89466525237069" lon="151.41050700982916"><ele>136.0</ele><time>2026-03-21T22:13:20Z</time></trkpt><trkpt lat="-32.89479457182135" lon="151.41050935724365"><ele>136.0</ele><time>2026-03-21T22:13:21Z</time></trkpt><trkpt lat="-32.8949544410609" lon="151.41050477099125"><ele>136.0</ele><time>2026-03-21T22:13:22Z</time></trkpt><trkpt lat="-32.895070202067885" lon="151.41046461392241"><ele>136.0</ele><time>2026-03-21T22:13:23Z</time></trkpt><trkpt lat="-32.89518776899057" lon="151.41043234417324"><ele>136.0</ele><time>2026-03-21T22:13:24Z</time></trkpt><trkpt lat="-32.895288199716404" lon="151.41042446893167"><ele>137.0</ele><time>2026-03-21T22:13:25Z</time></trkpt><trkpt lat="-32.89539678815555" lon="151.4104657212457"><ele>138.0</ele><time>2026-03-21T22:13:26Z</time></trkpt><trkpt lat="-32.89548410479232" lon="151.41054242243814"><ele>139.0</ele><time>2026-03-21T22:13:27Z</time></trkpt><trkpt lat="-32.89556070608416" lon="151.41061390724474"><ele>140.0</ele><time>2026-03-21T22:13:28Z</time></trkpt><trkpt lat="-32.89562951327715" lon="151.41069320737478"><ele>141.0</ele><time>2026-03-21T22:13:29Z</time></trkpt><trkpt lat="-32.89567717995178" lon="151.41079174761413"><ele>141.0</ele><time>2026-03-21T22:13:30Z</time></trkpt><trkpt lat="-32.895709597377746" lon="151.41087946222805"><ele>141.0</ele><time>2026-03-21T22:13:31Z</time></trkpt><trkpt lat="-32.895796969400436" lon="151.41099615349233"><ele>141.0</ele><time>2026-03-21T22:13:32Z</time></trkpt><trkpt lat="-32.89592370127644" lon="151.41107696485582"><ele>141.0</ele><time>2026-03-21T22:13:33Z</time></trkpt><trkpt lat="-32.89600866576106" lon="151.4111440007289"><ele>144.25</ele><time>2026-03-21T22:13:34Z</time></trkpt><trkpt lat="-32.89610535877563" lon="151.41120991623615"><ele>147.5</ele><time>2026-03-21T22:13:35Z</time></trkpt><trkpt lat="-32.89618780897288" lon="151.41127449700036"><ele>150.75</ele><time>2026-03-21T22:13:36Z</time></trkpt><trkpt lat="-32.89627685676895" lon="151.41133286182801"><ele>154.0</ele><time>2026-03-21T22:13:37Z</time></trkpt><trkpt lat="-32.89639920736648" lon="151.41144524629988"><ele>155.5</ele><time>2026-03-21T22:13:38Z</time></trkpt><trkpt lat="-32.89650526955377" lon="151.4115283571705"><ele>157.0</ele><time>2026-03-21T22:13:39Z</time></trkpt><trkpt lat="-32.89662232376738" lon="151.41159610713274"><ele>158.5</ele><time>2026-03-21T22:13:40Z</time></trkpt><trkpt lat="-32.896720255315685" lon="151.41165839250547"><ele>160.0</ele><time>2026-03-21T22:13:41Z</time></trkpt><trkpt lat="-32.896816959845765" lon="151.41170976664446"><ele>161.8</ele><time>2026-03-21T22:13:42Z</time></trkpt><trkpt lat="-32.89691368099606" lon="151.41178124550862"><ele>163.6</ele><time>2026-03-21T22:13:43Z</time></trkpt><trkpt lat="-32.89699960880357" lon="151.41182914011915"><ele>165.39999999999998</ele><time>2026-03-21T22:13:44Z</time></trkpt><trkpt lat="-32.8970853260267" lon="151.411876729243"><ele>167.2</ele><time>2026-03-21T22:13:45Z</time></trkpt><trkpt lat="-32.89719165497432" lon="151.41192814895393"><ele>169.0</ele><time>2026-03-21T22:13:46Z</time></trkpt><trkpt lat="-32.897278615458774" lon="151.41197755404147"><ele>169.0</ele><time>2026-03-21T22:13:47Z</time></trkpt><trkpt lat="-32.89737407255354" lon="151.41205296374974"><ele>169.0</ele><time>2026-03-21T22:13:48Z</time></trkpt><trkpt lat="-32.89750489262245" lon="151.41213135781697"><ele>169.0</ele><time>2026-03-21T22:13:49Z</time></trkpt><trkpt lat="-32.89762687348905" lon="151.41220880299173"><ele>169.0</ele><time>2026-03-21T22:13:50Z</time></trkpt><trkpt lat="-32.897744516185924" lon="151.41228511163044"><ele>174.75</ele><time>2026-03-21T22:13:51Z</time></trkpt><trkpt lat="-32.89783638806416" lon="151.41236407588238"><ele>180.5</ele><time>2026-03-21T22:13:52Z</time></trkpt><trkpt lat="-32.89793086556773" lon="151.41244432270966"><ele>186.25</ele><time>2026-03-21T22:13:53Z</time></trkpt><trkpt lat="-32.898041882472306" lon="151.4125241805429"><ele>192.0</ele><time>2026-03-21T22:13:54Z</time></trkpt><trkpt lat="-32.8981359089107" lon="151.41258054482626"><ele>192.0</ele><time>2026-03-21T22:13:55Z</time></trkpt><trkpt lat="-32.89821890420539" lon="151.41266250919523"><ele>192.0</ele><time>2026-03-21T22:13:56Z</time></trkpt><trkpt lat="-32.89829850911579" lon="151.41274399901528"><ele>192.0</ele><time>2026-03-21T22:13:57Z</time></trkpt><trkpt lat="-32.89836668957768" lon="151.4128159007583"><ele>192.0</ele><time>2026-03-21T22:13:58Z</time></trkpt><trkpt lat="-32.89852014365351" lon="151.4128767094912"><ele>194.2</ele><time>2026-03-21T22:13:59Z</time></trkpt><trkpt lat="-32.89860869633632" lon="151.41294877328272"><ele>196.39999999999998</ele><time>2026-03-21T22:14:00Z</time></trkpt><trkpt lat="-32.8987014902963" lon="151.4130281744832"><ele>198.60000000000002</ele><time>2026-03-21T22:14:01Z</time></trkpt><trkpt lat="-32.89875282983671" lon="151.4131235401968"><ele>200.8</ele><time>2026-03-21T22:14:02Z</time></trkpt><trkpt lat="-32.898757236962545" lon="151.41323444402195"><ele>203.0</ele><time>2026-03-21T22:14:03Z</time></trkpt><trkpt lat="-32.89873587279538" lon="151.4133427479736"><ele>203.0</ele><time>2026-03-21T22:14:05Z</time></trkpt><trkpt lat="-32.89867644573231" lon="151.413485089771"><ele>203.0</ele><time>2026-03-21T22:14:41.999Z</time></trkpt><trkpt lat="-32.898630089130435" lon="151.41356991676983"><ele>203.0</ele><time>2026-03-21T22:14:42.999Z</time></trkpt><trkpt lat="-32.898569777843264" lon="151.41366775852026"><ele>203.0</ele><time>2026-03-21T22:14:43.999Z</time></trkpt><trkpt lat="-32.898513261067635" lon="151.4137706254341"><ele>203.0</ele><time>2026-03-21T22:14:44.999Z</time></trkpt><trkpt lat="-32.89845715931164" lon="151.4138970884655"><ele>202.66666666666669</ele><time>2026-03-21T22:14:45.999Z</time></trkpt><trkpt lat="-32.898372091334416" lon="151.41405152799348"><ele>202.33333333333331</ele><time>2026-03-21T22:14:46.999Z</time></trkpt><trkpt lat="-32.89827154516378" lon="151.4142289426376"><ele>202.0</ele><time>2026-03-21T22:14:47.999Z</time></trkpt><trkpt lat="-32.89816830814672" lon="151.41442060816053"><ele>202.0</ele><time>2026-03-21T22:14:48.999Z</time></trkpt><trkpt lat="-32.89808229505318" lon="151.4146041876988"><ele>202.0</ele><time>2026-03-21T22:14:49.999Z</time></trkpt><trkpt lat="-32.898001132496205" lon="151.41477238857678"><ele>202.0</ele><time>2026-03-21T22:14:50.999Z</time></trkpt><trkpt lat="-32.89793046036063" lon="151.4149426055639"><ele>203.0</ele><time>2026-03-21T22:14:51.999Z</time></trkpt><trkpt lat="-32.8978624091921" lon="151.41509916427881"><ele>204.0</ele><time>2026-03-21T22:14:52.999Z</time></trkpt><trkpt lat="-32.89782641804706" lon="151.41523762984622"><ele>205.0</ele><time>2026-03-21T22:14:53.999Z</time></trkpt><trkpt lat="-32.897822673516295" lon="151.41537918400087"><ele>206.0</ele><time>2026-03-21T22:14:54.999Z</time></trkpt><trkpt lat="-32.89779914320706" lon="151.41551562420108"><ele>208.0</ele><time>2026-03-21T22:14:55.999Z</time></trkpt><trkpt lat="-32.897821183991645" lon="151.41568610488497"><ele>210.0</ele><time>2026-03-21T22:14:56.999Z</time></trkpt><trkpt lat="-32.897863990286616" lon="151.41589987067934"><ele>212.0</ele><time>2026-03-21T22:14:57.999Z</time></trkpt><trkpt lat="-32.89790720809447" lon="151.41611394815416"><ele>212.0</ele><time>2026-03-21T22:14:58.999Z</time></trkpt><trkpt lat="-32.897932314384754" lon="151.41628776340787"><ele>212.0</ele><time>2026-03-21T22:14:59.999Z</time></trkpt><trkpt lat="-32.8979534395388" lon="151.41648352125927"><ele>212.0</ele><time>2026-03-21T22:15:00.999Z</time></trkpt><trkpt lat="-32.89797703056922" lon="151.41668591986775"><ele>212.0</ele><time>2026-03-21T22:15:01.999Z</time></trkpt><trkpt lat="-32.8979839303883" lon="151.41686397071473"><ele>212.0</ele><time>2026-03-21T22:15:02.999Z</time></trkpt><trkpt lat="-32.897990656236395" lon="151.4170966381662"><ele>212.0</ele><time>2026-03-21T22:15:03.999Z</time></trkpt><trkpt lat="-32.898013480695376" lon="151.4173128172574"><ele>212.0</ele><time>2026-03-21T22:15:04.999Z</time></trkpt><trkpt lat="-32.89803102725175" lon="151.41749991378646"><ele>212.0</ele><time>2026-03-21T22:15:05.999Z</time></trkpt><trkpt lat="-32.89804950848847" lon="151.4176624648629"><ele>212.0</ele><time>2026-03-21T22:15:06.999Z</time></trkpt><trkpt lat="-32.8980902329129" lon="151.41784555141635"><ele>214.0</ele><time>2026-03-21T22:15:07.999Z</time></trkpt><trkpt lat="-32.898143906693406" lon="151.41802089004145"><ele>216.0</ele><time>2026-03-21T22:15:08.999Z</time></trkpt><trkpt lat="-32.89816867412953" lon="151.41822309477013"><ele>218.0</ele><time>2026-03-21T22:15:09.999Z</time></trkpt><trkpt lat="-32.898162914066106" lon="151.41842200595377"><ele>218.0</ele><time>2026-03-21T22:15:10.999Z</time></trkpt><trkpt lat="-32.89814254021233" lon="151.41859784947903"><ele>218.0</ele><time>2026-03-21T22:15:11.999Z</time></trkpt><trkpt lat="-32.89809817242306" lon="151.41874894914173"><ele>218.0</ele><time>2026-03-21T22:15:12.999Z</time></trkpt><trkpt lat="-32.89802367847158" lon="151.4189008387189"><ele>218.0</ele><time>2026-03-21T22:15:13.999Z</time></trkpt><trkpt lat="-32.89791693718572" lon="151.4190907319883"><ele>218.33333333333334</ele><time>2026-03-21T22:15:14.999Z</time></trkpt><trkpt lat="-32.8978317772607" lon="151.41928100017395"><ele>218.66666666666669</ele><time>2026-03-21T22:15:15.999Z</time></trkpt><trkpt lat="-32.89776091986533" lon="151.41942481119779"><ele>219.0</ele><time>2026-03-21T22:15:16.999Z</time></trkpt><trkpt lat="-32.89765523907446" lon="151.41954323426626"><ele>219.0</ele><time>2026-03-21T22:15:17.999Z</time></trkpt><trkpt lat="-32.89753248990196" lon="151.4196547551192"><ele>219.0</ele><time>2026-03-21T22:15:18.999Z</time></trkpt><trkpt lat="-32.89741639666972" lon="151.41980135417484"><ele>219.0</ele><time>2026-03-21T22:15:19.999Z</time></trkpt><trkpt lat="-32.897309847175265" lon="151.4199189558746"><ele>219.0</ele><time>2026-03-21T22:15:20.999Z</time></trkpt><trkpt lat="-32.897211375930404" lon="151.42003773490657"><ele>219.0</ele><time>2026-03-21T22:15:22Z</time></trkpt><trkpt lat="-32.89710673252688" lon="151.42015189493054"><ele>219.0</ele><time>2026-03-21T22:15:23Z</time></trkpt><trkpt lat="-32.89703139186501" lon="151.42028962809124"><ele>219.0</ele><time>2026-03-21T22:15:24Z</time></trkpt><trkpt lat="-32.89703160011676" lon="151.4204678533675"><ele>219.0</ele><time>2026-03-21T22:15:25Z</time></trkpt><trkpt lat="-32.897048923773774" lon="151.4206410674057"><ele>219.0</ele><time>2026-03-21T22:15:26Z</time></trkpt><trkpt lat="-32.897034713118565" lon="151.42084923182847"><ele>219.0</ele><time>2026-03-21T22:15:27Z</time></trkpt><trkpt lat="-32.89698391163411" lon="151.42101051589867"><ele>219.0</ele><time>2026-03-21T22:15:28Z</time></trkpt><trkpt lat="-32.896933539436205" lon="151.4211844253837"><ele>219.0</ele><time>2026-03-21T22:15:29Z</time></trkpt><trkpt lat="-32.89686798360072" lon="151.4213634836661"><ele>219.0</ele><time>2026-03-21T22:15:30Z</time></trkpt><trkpt lat="-32.89680694916215" lon="151.42154174789636"><ele>219.66666666666669</ele><time>2026-03-21T22:15:31Z</time></trkpt><trkpt lat="-32.896750618059066" lon="151.42173338551683"><ele>220.33333333333334</ele><time>2026-03-21T22:15:32Z</time></trkpt><trkpt lat="-32.896706184800564" lon="151.42192276184582"><ele>221.0</ele><time>2026-03-21T22:15:33Z</time></trkpt><trkpt lat="-32.89666040630174" lon="151.42211627214263"><ele>220.75</ele><time>2026-03-21T22:15:34Z</time></trkpt><trkpt lat="-32.896601110213844" lon="151.4222825410544"><ele>220.5</ele><time>2026-03-21T22:15:35Z</time></trkpt><trkpt lat="-32.896546661658085" lon="151.42244335323107"><ele>220.25</ele><time>2026-03-21T22:15:36Z</time></trkpt><trkpt lat="-32.89647163122389" lon="151.42258595806425"><ele>220.0</ele><time>2026-03-21T22:15:37Z</time></trkpt><trkpt lat="-32.89637363980988" lon="151.42273805761366"><ele>220.0</ele><time>2026-03-21T22:15:38Z</time></trkpt><trkpt lat="-32.89628292404452" lon="151.42290613648888"><ele>220.0</ele><time>2026-03-21T22:15:39Z</time></trkpt><trkpt lat="-32.89619752165093" lon="151.42308075501853"><ele>220.0</ele><time>2026-03-21T22:15:40Z</time></trkpt><trkpt lat="-32.89611659110878" lon="151.4232800336443"><ele>219.5</ele><time>2026-03-21T22:15:41Z</time></trkpt><trkpt lat="-32.896039781056636" lon="151.42343573708902"><ele>219.0</ele><time>2026-03-21T22:15:42Z</time></trkpt><trkpt lat="-32.89595757359807" lon="151.42356457464533"><ele>218.5</ele><time>2026-03-21T22:15:43Z</time></trkpt><trkpt lat="-32.89585713548391" lon="151.4236678797611"><ele>218.0</ele><time>2026-03-21T22:15:44Z</time></trkpt><trkpt lat="-32.89574560724192" lon="151.42375998704378"><ele>218.25</ele><time>2026-03-21T22:15:45Z</time></trkpt><trkpt lat="-32.89563580494969" lon="151.42383673865646"><ele>218.5</ele><time>2026-03-21T22:15:46Z</time></trkpt><trkpt lat="-32.895519868563916" lon="151.4239209051138"><ele>218.75</ele><time>2026-03-21T22:15:47Z</time></trkpt><trkpt lat="-32.89539916986642" lon="151.42401056678247"><ele>219.0</ele><time>2026-03-21T22:15:48Z</time></trkpt><trkpt lat="-32.895295738410624" lon="151.42409543487003"><ele>219.0</ele><time>2026-03-21T22:15:49Z</time></trkpt><trkpt lat="-32.895197874840996" lon="151.42418763462692"><ele>219.0</ele><time>2026-03-21T22:15:50Z</time></trkpt><trkpt lat="-32.89510642822304" lon="151.4242815555864"><ele>219.0</ele><time>2026-03-21T22:15:51Z</time></trkpt><trkpt lat="-32.89501224355089" lon="151.42437312940882"><ele>219.0</ele><time>2026-03-21T22:15:52Z</time></trkpt><trkpt lat="-32.894928075322504" lon="151.4244551089007"><ele>218.39999999999998</ele><time>2026-03-21T22:15:53Z</time></trkpt><trkpt lat="-32.89486793486429" lon="151.4245138961408"><ele>217.79999999999998</ele><time>2026-03-21T22:15:54Z</time></trkpt><trkpt lat="-32.89479501396035" lon="151.42461134186254"><ele>217.20000000000002</ele><time>2026-03-21T22:15:55Z</time></trkpt><trkpt lat="-32.89475696094894" lon="151.4247181987336"><ele>216.60000000000002</ele><time>2026-03-21T22:15:56Z</time></trkpt><trkpt lat="-32.89475150139429" lon="151.42484914543624"><ele>216.0</ele><time>2026-03-21T22:15:57Z</time></trkpt><trkpt lat="-32.89478939525817" lon="151.4250108144645"><ele>216.0</ele><time>2026-03-21T22:15:58Z</time></trkpt><trkpt lat="-32.89484546259321" lon="151.4251746113519"><ele>216.0</ele><time>2026-03-21T22:15:59Z</time></trkpt><trkpt lat="-32.89488673632256" lon="151.42539294864287"><ele>216.0</ele><time>2026-03-21T22:16:00Z</time></trkpt><trkpt lat="-32.894927171244575" lon="151.42563396873385"><ele>216.66666666666669</ele><time>2026-03-21T22:16:01Z</time></trkpt><trkpt lat="-32.894967806193584" lon="151.42585385676296"><ele>217.33333333333334</ele><time>2026-03-21T22:16:02Z</time></trkpt><trkpt lat="-32.895012774701826" lon="151.4260703353268"><ele>218.0</ele><time>2026-03-21T22:16:03Z</time></trkpt><trkpt lat="-32.895041677647605" lon="151.42623486419134"><ele>219.4</ele><time>2026-03-21T22:16:04Z</time></trkpt><trkpt lat="-32.89506476676754" lon="151.42633135142526"><ele>220.8</ele><time>2026-03-21T22:16:05Z</time></trkpt><trkpt lat="-32.895063554872074" lon="151.42646279750542"><ele>222.2</ele><time>2026-03-21T22:16:06Z</time></trkpt><trkpt lat="-32.8950539664687" lon="151.42659330962857"><ele>223.6</ele><time>2026-03-21T22:16:07Z</time></trkpt><trkpt lat="-32.89503816551511" lon="151.4267167344216"><ele>225.0</ele><time>2026-03-21T22:16:08Z</time></trkpt><trkpt lat="-32.89499739544964" lon="151.42682589953452"><ele>225.0</ele><time>2026-03-21T22:16:09Z</time></trkpt><trkpt lat="-32.894927023839635" lon="151.42694532877715"><ele>225.0</ele><time>2026-03-21T22:16:10Z</time></trkpt><trkpt lat="-32.89481707926032" lon="151.42704736577195"><ele>225.0</ele><time>2026-03-21T22:16:11Z</time></trkpt><trkpt lat="-32.89472440273374" lon="151.42719215614952"><ele>225.0</ele><time>2026-03-21T22:16:12Z</time></trkpt><trkpt lat="-32.89463863492429" lon="151.42734355129454"><ele>226.0</ele><time>2026-03-21T22:16:13Z</time></trkpt><trkpt lat="-32.894563296367764" lon="151.42744949996558"><ele>227.0</ele><time>2026-03-21T22:16:14Z</time></trkpt><trkpt lat="-32.894476798529716" lon="151.42755255616487"><ele>228.0</ele><time>2026-03-21T22:16:15Z</time></trkpt><trkpt lat="-32.894377445701075" lon="151.4276622807874"><ele>229.0</ele><time>2026-03-21T22:16:16Z</time></trkpt><trkpt lat="-32.894294653473445" lon="151.4277749223095"><ele>229.25</ele><time>2026-03-21T22:16:17Z</time></trkpt><trkpt lat="-32.89423308147969" lon="151.4278964691192"><ele>229.5</ele><time>2026-03-21T22:16:18Z</time></trkpt><trkpt lat="-32.8941937315523" lon="151.4280221559991"><ele>229.75</ele><time>2026-03-21T22:16:19Z</time></trkpt><trkpt lat="-32.89418288288334" lon="151.42815420748747"><ele>230.0</ele><time>2026-03-21T22:16:20Z</time></trkpt><trkpt lat="-32.89415582857744" lon="151.4283031160166"><ele>233.25</ele><time>2026-03-21T22:16:21Z</time></trkpt><trkpt lat="-32.894138037177306" lon="151.42845592604772"><ele>236.5</ele><time>2026-03-21T22:16:22Z</time></trkpt><trkpt lat="-32.89411865965353" lon="151.42861599493017"><ele>239.75</ele><time>2026-03-21T22:16:23Z</time></trkpt><trkpt lat="-32.89409078707644" lon="151.42875576018636"><ele>243.0</ele><time>2026-03-21T22:16:24Z</time></trkpt><trkpt lat="-32.894046225331934" lon="151.4289110553733"><ele>251.0</ele><time>2026-03-21T22:16:25Z</time></trkpt><trkpt lat="-32.89401240531208" lon="151.42901062519803"><ele>251.0</ele><time>2026-03-21T22:16:26Z</time></trkpt><trkpt lat="-32.894012441444914" lon="151.42909013992033"><ele>251.0</ele><time>2026-03-21T22:16:27Z</time></trkpt></trkseg></trk></gpx>